<?xml version="1.0" encoding="UTF-8" standalone="no" ?>
<gpx xmlns="http://www.topografix.com/GPX/1/1" xmlns:xsi="http://www.w3.org/2001/XMLSchema-instance" xsi:schemaLocation="http://www.topografix.com/GPX/1/1 http://www.topografix.com/GPX/1/1/gpx.xsd" version="1.1" creator="VisuGPX - https://www.visugpx.com">
  <metadata>
    <name>Etang de Hollande/Table du roi</name>
    <desc><![CDATA[Une bonne moyenne, avec pas et un peu de trot (pas de galop), sachant que j'avais Dipti en dextre !]]></desc>
  </metadata>
  <trk>
    <name><![CDATA[Saint-Léger-en-Yvelines Autre]]></name>
    <trkseg>
      <trkpt lat="48.70694" lon="1.75482">
        <ele>172.80000305176</ele>
        <time>2015-01-18T09:38:33.000Z</time>
      </trkpt>
      <trkpt lat="48.70695" lon="1.75482">
        <ele>172.60000610352</ele>
        <time>2015-01-18T09:38:36.000Z</time>
      </trkpt>
      <trkpt lat="48.70698" lon="1.75485">
        <ele>172.60000610352</ele>
        <time>2015-01-18T09:38:40.000Z</time>
      </trkpt>
      <trkpt lat="48.70702" lon="1.75494">
        <ele>172.60000610352</ele>
        <time>2015-01-18T09:38:45.000Z</time>
      </trkpt>
      <trkpt lat="48.70705" lon="1.75501">
        <ele>172.60000610352</ele>
        <time>2015-01-18T09:38:49.000Z</time>
      </trkpt>
      <trkpt lat="48.70703" lon="1.75508">
        <ele>172.80000305176</ele>
        <time>2015-01-18T09:38:53.000Z</time>
      </trkpt>
      <trkpt lat="48.70701" lon="1.75511">
        <ele>172.80000305176</ele>
        <time>2015-01-18T09:38:55.000Z</time>
      </trkpt>
      <trkpt lat="48.70697" lon="1.75518">
        <ele>173.19999694824</ele>
        <time>2015-01-18T09:39:00.000Z</time>
      </trkpt>
      <trkpt lat="48.7069" lon="1.7553">
        <ele>173.80000305176</ele>
        <time>2015-01-18T09:39:08.000Z</time>
      </trkpt>
      <trkpt lat="48.70688" lon="1.75536">
        <ele>174</ele>
        <time>2015-01-18T09:39:12.000Z</time>
      </trkpt>
      <trkpt lat="48.70682" lon="1.75549">
        <ele>174.60000610352</ele>
        <time>2015-01-18T09:39:21.000Z</time>
      </trkpt>
      <trkpt lat="48.70677" lon="1.75563">
        <ele>175</ele>
        <time>2015-01-18T09:39:30.000Z</time>
      </trkpt>
      <trkpt lat="48.70671" lon="1.75574">
        <ele>176.60000610352</ele>
        <time>2015-01-18T09:39:39.000Z</time>
      </trkpt>
      <trkpt lat="48.70665" lon="1.75587">
        <ele>177.19999694824</ele>
        <time>2015-01-18T09:39:47.000Z</time>
      </trkpt>
      <trkpt lat="48.70664" lon="1.7559">
        <ele>177.19999694824</ele>
        <time>2015-01-18T09:39:49.000Z</time>
      </trkpt>
      <trkpt lat="48.7066" lon="1.75595">
        <ele>177.60000610352</ele>
        <time>2015-01-18T09:39:53.000Z</time>
      </trkpt>
      <trkpt lat="48.70657" lon="1.75599">
        <ele>177.80000305176</ele>
        <time>2015-01-18T09:39:59.000Z</time>
      </trkpt>
      <trkpt lat="48.70653" lon="1.75605">
        <ele>178.19999694824</ele>
        <time>2015-01-18T09:40:05.000Z</time>
      </trkpt>
      <trkpt lat="48.70653" lon="1.75607">
        <ele>178.19999694824</ele>
        <time>2015-01-18T09:40:06.000Z</time>
      </trkpt>
      <trkpt lat="48.7065" lon="1.75618">
        <ele>178.60000610352</ele>
        <time>2015-01-18T09:40:12.000Z</time>
      </trkpt>
      <trkpt lat="48.7065" lon="1.75621">
        <ele>178.60000610352</ele>
        <time>2015-01-18T09:40:13.000Z</time>
      </trkpt>
      <trkpt lat="48.70648" lon="1.75626">
        <ele>179</ele>
        <time>2015-01-18T09:40:17.000Z</time>
      </trkpt>
      <trkpt lat="48.70647" lon="1.75636">
        <ele>179.19999694824</ele>
        <time>2015-01-18T09:40:23.000Z</time>
      </trkpt>
      <trkpt lat="48.70645" lon="1.75646">
        <ele>179.80000305176</ele>
        <time>2015-01-18T09:40:28.000Z</time>
      </trkpt>
      <trkpt lat="48.70645" lon="1.75647">
        <ele>179.80000305176</ele>
        <time>2015-01-18T09:40:29.000Z</time>
      </trkpt>
      <trkpt lat="48.70642" lon="1.75652">
        <ele>180.39999389648</ele>
        <time>2015-01-18T09:40:32.000Z</time>
      </trkpt>
      <trkpt lat="48.70642" lon="1.75666">
        <ele>180.19999694824</ele>
        <time>2015-01-18T09:40:39.000Z</time>
      </trkpt>
      <trkpt lat="48.70645" lon="1.75674">
        <ele>179.80000305176</ele>
        <time>2015-01-18T09:40:44.000Z</time>
      </trkpt>
      <trkpt lat="48.70647" lon="1.75687">
        <ele>179.39999389648</ele>
        <time>2015-01-18T09:40:50.000Z</time>
      </trkpt>
      <trkpt lat="48.70649" lon="1.75689">
        <ele>179.19999694824</ele>
        <time>2015-01-18T09:40:51.000Z</time>
      </trkpt>
      <trkpt lat="48.70649" lon="1.75694">
        <ele>179</ele>
        <time>2015-01-18T09:40:54.000Z</time>
      </trkpt>
      <trkpt lat="48.70648" lon="1.75698">
        <ele>179.19999694824</ele>
        <time>2015-01-18T09:40:57.000Z</time>
      </trkpt>
      <trkpt lat="48.70647" lon="1.75702">
        <ele>179</ele>
        <time>2015-01-18T09:41:02.000Z</time>
      </trkpt>
      <trkpt lat="48.70645" lon="1.75708">
        <ele>178.60000610352</ele>
        <time>2015-01-18T09:42:11.000Z</time>
      </trkpt>
      <trkpt lat="48.7064" lon="1.75719">
        <ele>178.19999694824</ele>
        <time>2015-01-18T09:42:17.000Z</time>
      </trkpt>
      <trkpt lat="48.70633" lon="1.75729">
        <ele>177.80000305176</ele>
        <time>2015-01-18T09:42:25.000Z</time>
      </trkpt>
      <trkpt lat="48.70628" lon="1.75737">
        <ele>177.60000610352</ele>
        <time>2015-01-18T09:42:33.000Z</time>
      </trkpt>
      <trkpt lat="48.70625" lon="1.75746">
        <ele>177.60000610352</ele>
        <time>2015-01-18T09:42:39.000Z</time>
      </trkpt>
      <trkpt lat="48.70624" lon="1.75747">
        <ele>177.60000610352</ele>
        <time>2015-01-18T09:42:40.000Z</time>
      </trkpt>
      <trkpt lat="48.7062" lon="1.75749">
        <ele>177.80000305176</ele>
        <time>2015-01-18T09:42:43.000Z</time>
      </trkpt>
      <trkpt lat="48.70617" lon="1.75756">
        <ele>177.60000610352</ele>
        <time>2015-01-18T09:42:49.000Z</time>
      </trkpt>
      <trkpt lat="48.70614" lon="1.75759">
        <ele>177.60000610352</ele>
        <time>2015-01-18T09:42:53.000Z</time>
      </trkpt>
      <trkpt lat="48.70611" lon="1.7577">
        <ele>177.19999694824</ele>
        <time>2015-01-18T09:43:02.000Z</time>
      </trkpt>
      <trkpt lat="48.70611" lon="1.75773">
        <ele>177</ele>
        <time>2015-01-18T09:43:04.000Z</time>
      </trkpt>
      <trkpt lat="48.70607" lon="1.7578">
        <ele>176.80000305176</ele>
        <time>2015-01-18T09:43:09.000Z</time>
      </trkpt>
      <trkpt lat="48.70602" lon="1.75788">
        <ele>176.60000610352</ele>
        <time>2015-01-18T09:43:16.000Z</time>
      </trkpt>
      <trkpt lat="48.70598" lon="1.75794">
        <ele>176.60000610352</ele>
        <time>2015-01-18T09:43:22.000Z</time>
      </trkpt>
      <trkpt lat="48.70593" lon="1.75803">
        <ele>176.60000610352</ele>
        <time>2015-01-18T09:43:29.000Z</time>
      </trkpt>
      <trkpt lat="48.70592" lon="1.75809">
        <ele>176.39999389648</ele>
        <time>2015-01-18T09:43:32.000Z</time>
      </trkpt>
      <trkpt lat="48.7059" lon="1.75811">
        <ele>176.60000610352</ele>
        <time>2015-01-18T09:43:35.000Z</time>
      </trkpt>
      <trkpt lat="48.7059" lon="1.75815">
        <ele>176.60000610352</ele>
        <time>2015-01-18T09:43:37.000Z</time>
      </trkpt>
      <trkpt lat="48.70587" lon="1.7582">
        <ele>176.80000305176</ele>
        <time>2015-01-18T09:43:41.000Z</time>
      </trkpt>
      <trkpt lat="48.70584" lon="1.75824">
        <ele>177.19999694824</ele>
        <time>2015-01-18T09:43:44.000Z</time>
      </trkpt>
      <trkpt lat="48.7058" lon="1.75833">
        <ele>177.60000610352</ele>
        <time>2015-01-18T09:43:50.000Z</time>
      </trkpt>
      <trkpt lat="48.70577" lon="1.75836">
        <ele>178</ele>
        <time>2015-01-18T09:43:53.000Z</time>
      </trkpt>
      <trkpt lat="48.70576" lon="1.75846">
        <ele>178.19999694824</ele>
        <time>2015-01-18T09:43:58.000Z</time>
      </trkpt>
      <trkpt lat="48.70569" lon="1.75855">
        <ele>179.19999694824</ele>
        <time>2015-01-18T09:44:05.000Z</time>
      </trkpt>
      <trkpt lat="48.70565" lon="1.75862">
        <ele>179.60000610352</ele>
        <time>2015-01-18T09:44:09.000Z</time>
      </trkpt>
      <trkpt lat="48.7056" lon="1.75872">
        <ele>180</ele>
        <time>2015-01-18T09:44:16.000Z</time>
      </trkpt>
      <trkpt lat="48.70557" lon="1.75878">
        <ele>180</ele>
        <time>2015-01-18T09:44:20.000Z</time>
      </trkpt>
      <trkpt lat="48.70553" lon="1.75894">
        <ele>179.80000305176</ele>
        <time>2015-01-18T09:44:28.000Z</time>
      </trkpt>
      <trkpt lat="48.70552" lon="1.75898">
        <ele>179.80000305176</ele>
        <time>2015-01-18T09:44:32.000Z</time>
      </trkpt>
      <trkpt lat="48.70553" lon="1.75898">
        <ele>179.80000305176</ele>
        <time>2015-01-18T09:44:34.000Z</time>
      </trkpt>
      <trkpt lat="48.70552" lon="1.75901">
        <ele>179.80000305176</ele>
        <time>2015-01-18T09:44:39.000Z</time>
      </trkpt>
      <trkpt lat="48.70546" lon="1.75909">
        <ele>180</ele>
        <time>2015-01-18T09:44:44.000Z</time>
      </trkpt>
      <trkpt lat="48.70544" lon="1.75912">
        <ele>180</ele>
        <time>2015-01-18T09:44:46.000Z</time>
      </trkpt>
      <trkpt lat="48.70539" lon="1.75918">
        <ele>180.19999694824</ele>
        <time>2015-01-18T09:44:52.000Z</time>
      </trkpt>
      <trkpt lat="48.70536" lon="1.75922">
        <ele>180.19999694824</ele>
        <time>2015-01-18T09:44:56.000Z</time>
      </trkpt>
      <trkpt lat="48.70533" lon="1.75926">
        <ele>180.19999694824</ele>
        <time>2015-01-18T09:45:00.000Z</time>
      </trkpt>
      <trkpt lat="48.70527" lon="1.75934">
        <ele>180.19999694824</ele>
        <time>2015-01-18T09:45:07.000Z</time>
      </trkpt>
      <trkpt lat="48.70523" lon="1.75939">
        <ele>180.19999694824</ele>
        <time>2015-01-18T09:45:12.000Z</time>
      </trkpt>
      <trkpt lat="48.70519" lon="1.75946">
        <ele>180</ele>
        <time>2015-01-18T09:45:20.000Z</time>
      </trkpt>
      <trkpt lat="48.70531" lon="1.75946">
        <ele>179.39999389648</ele>
        <time>2015-01-18T09:45:38.000Z</time>
      </trkpt>
      <trkpt lat="48.70536" lon="1.75949">
        <ele>179</ele>
        <time>2015-01-18T09:45:45.000Z</time>
      </trkpt>
      <trkpt lat="48.70541" lon="1.75949">
        <ele>178.60000610352</ele>
        <time>2015-01-18T09:45:51.000Z</time>
      </trkpt>
      <trkpt lat="48.70543" lon="1.75951">
        <ele>178.39999389648</ele>
        <time>2015-01-18T09:45:52.000Z</time>
      </trkpt>
      <trkpt lat="48.70546" lon="1.75954">
        <ele>178</ele>
        <time>2015-01-18T09:45:54.000Z</time>
      </trkpt>
      <trkpt lat="48.70551" lon="1.75957">
        <ele>177.60000610352</ele>
        <time>2015-01-18T09:45:58.000Z</time>
      </trkpt>
      <trkpt lat="48.70548" lon="1.75953">
        <ele>178</ele>
        <time>2015-01-18T09:46:06.000Z</time>
      </trkpt>
      <trkpt lat="48.7054" lon="1.75951">
        <ele>178.60000610352</ele>
        <time>2015-01-18T09:46:13.000Z</time>
      </trkpt>
      <trkpt lat="48.70539" lon="1.75951">
        <ele>178.60000610352</ele>
        <time>2015-01-18T09:46:14.000Z</time>
      </trkpt>
      <trkpt lat="48.70533" lon="1.75948">
        <ele>179</ele>
        <time>2015-01-18T09:46:20.000Z</time>
      </trkpt>
      <trkpt lat="48.70526" lon="1.75942">
        <ele>179.80000305176</ele>
        <time>2015-01-18T09:46:28.000Z</time>
      </trkpt>
      <trkpt lat="48.70525" lon="1.75939">
        <ele>180</ele>
        <time>2015-01-18T09:46:31.000Z</time>
      </trkpt>
      <trkpt lat="48.70519" lon="1.75941">
        <ele>180.19999694824</ele>
        <time>2015-01-18T09:46:35.000Z</time>
      </trkpt>
      <trkpt lat="48.70512" lon="1.75947">
        <ele>180</ele>
        <time>2015-01-18T09:46:44.000Z</time>
      </trkpt>
      <trkpt lat="48.70505" lon="1.75955">
        <ele>179.60000610352</ele>
        <time>2015-01-18T09:46:52.000Z</time>
      </trkpt>
      <trkpt lat="48.70499" lon="1.75965">
        <ele>179</ele>
        <time>2015-01-18T09:46:59.000Z</time>
      </trkpt>
      <trkpt lat="48.70492" lon="1.75976">
        <ele>179.19999694824</ele>
        <time>2015-01-18T09:47:06.000Z</time>
      </trkpt>
      <trkpt lat="48.70487" lon="1.75989">
        <ele>179.19999694824</ele>
        <time>2015-01-18T09:47:14.000Z</time>
      </trkpt>
      <trkpt lat="48.70482" lon="1.76005">
        <ele>178.39999389648</ele>
        <time>2015-01-18T09:47:22.000Z</time>
      </trkpt>
      <trkpt lat="48.70479" lon="1.76014">
        <ele>178</ele>
        <time>2015-01-18T09:47:29.000Z</time>
      </trkpt>
      <trkpt lat="48.70476" lon="1.76032">
        <ele>177</ele>
        <time>2015-01-18T09:47:38.000Z</time>
      </trkpt>
      <trkpt lat="48.70474" lon="1.76043">
        <ele>176.60000610352</ele>
        <time>2015-01-18T09:47:44.000Z</time>
      </trkpt>
      <trkpt lat="48.70473" lon="1.76046">
        <ele>176.39999389648</ele>
        <time>2015-01-18T09:47:47.000Z</time>
      </trkpt>
      <trkpt lat="48.7047" lon="1.76054">
        <ele>176.19999694824</ele>
        <time>2015-01-18T09:47:53.000Z</time>
      </trkpt>
      <trkpt lat="48.70469" lon="1.76056">
        <ele>176.19999694824</ele>
        <time>2015-01-18T09:47:54.000Z</time>
      </trkpt>
      <trkpt lat="48.70467" lon="1.76063">
        <ele>176</ele>
        <time>2015-01-18T09:47:58.000Z</time>
      </trkpt>
      <trkpt lat="48.70462" lon="1.7608">
        <ele>175.60000610352</ele>
        <time>2015-01-18T09:48:07.000Z</time>
      </trkpt>
      <trkpt lat="48.70461" lon="1.76087">
        <ele>175.60000610352</ele>
        <time>2015-01-18T09:48:11.000Z</time>
      </trkpt>
      <trkpt lat="48.70459" lon="1.76097">
        <ele>175.60000610352</ele>
        <time>2015-01-18T09:48:17.000Z</time>
      </trkpt>
      <trkpt lat="48.70456" lon="1.76112">
        <ele>175.60000610352</ele>
        <time>2015-01-18T09:48:26.000Z</time>
      </trkpt>
      <trkpt lat="48.70454" lon="1.76126">
        <ele>175.60000610352</ele>
        <time>2015-01-18T09:48:34.000Z</time>
      </trkpt>
      <trkpt lat="48.70452" lon="1.76139">
        <ele>175.39999389648</ele>
        <time>2015-01-18T09:48:41.000Z</time>
      </trkpt>
      <trkpt lat="48.70453" lon="1.76151">
        <ele>175.19999694824</ele>
        <time>2015-01-18T09:48:47.000Z</time>
      </trkpt>
      <trkpt lat="48.70452" lon="1.76158">
        <ele>175.19999694824</ele>
        <time>2015-01-18T09:48:51.000Z</time>
      </trkpt>
      <trkpt lat="48.70453" lon="1.76172">
        <ele>174.60000610352</ele>
        <time>2015-01-18T09:48:59.000Z</time>
      </trkpt>
      <trkpt lat="48.70453" lon="1.76183">
        <ele>174.39999389648</ele>
        <time>2015-01-18T09:49:06.000Z</time>
      </trkpt>
      <trkpt lat="48.70453" lon="1.76186">
        <ele>174.19999694824</ele>
        <time>2015-01-18T09:49:08.000Z</time>
      </trkpt>
      <trkpt lat="48.70455" lon="1.762">
        <ele>173.80000305176</ele>
        <time>2015-01-18T09:49:16.000Z</time>
      </trkpt>
      <trkpt lat="48.70456" lon="1.76207">
        <ele>173.60000610352</ele>
        <time>2015-01-18T09:49:20.000Z</time>
      </trkpt>
      <trkpt lat="48.70456" lon="1.76223">
        <ele>173.19999694824</ele>
        <time>2015-01-18T09:49:30.000Z</time>
      </trkpt>
      <trkpt lat="48.70454" lon="1.7624">
        <ele>173</ele>
        <time>2015-01-18T09:49:38.000Z</time>
      </trkpt>
      <trkpt lat="48.70451" lon="1.76254">
        <ele>173.60000610352</ele>
        <time>2015-01-18T09:49:46.000Z</time>
      </trkpt>
      <trkpt lat="48.70449" lon="1.7626">
        <ele>173.60000610352</ele>
        <time>2015-01-18T09:49:49.000Z</time>
      </trkpt>
      <trkpt lat="48.70448" lon="1.76267">
        <ele>173.60000610352</ele>
        <time>2015-01-18T09:49:53.000Z</time>
      </trkpt>
      <trkpt lat="48.70445" lon="1.76282">
        <ele>173.80000305176</ele>
        <time>2015-01-18T09:50:00.000Z</time>
      </trkpt>
      <trkpt lat="48.70446" lon="1.76294">
        <ele>173.60000610352</ele>
        <time>2015-01-18T09:50:06.000Z</time>
      </trkpt>
      <trkpt lat="48.70445" lon="1.76301">
        <ele>173.80000305176</ele>
        <time>2015-01-18T09:50:12.000Z</time>
      </trkpt>
      <trkpt lat="48.70445" lon="1.76301">
        <ele>173.80000305176</ele>
        <time>2015-01-18T09:50:14.000Z</time>
      </trkpt>
      <trkpt lat="48.70444" lon="1.76317">
        <ele>173.80000305176</ele>
        <time>2015-01-18T09:50:31.000Z</time>
      </trkpt>
      <trkpt lat="48.70446" lon="1.76328">
        <ele>174</ele>
        <time>2015-01-18T09:50:37.000Z</time>
      </trkpt>
      <trkpt lat="48.70448" lon="1.76338">
        <ele>174.39999389648</ele>
        <time>2015-01-18T09:50:43.000Z</time>
      </trkpt>
      <trkpt lat="48.70448" lon="1.76339">
        <ele>174.39999389648</ele>
        <time>2015-01-18T09:50:46.000Z</time>
      </trkpt>
      <trkpt lat="48.70447" lon="1.76347">
        <ele>174.80000305176</ele>
        <time>2015-01-18T09:50:54.000Z</time>
      </trkpt>
      <trkpt lat="48.70448" lon="1.76356">
        <ele>175.19999694824</ele>
        <time>2015-01-18T09:50:57.000Z</time>
      </trkpt>
      <trkpt lat="48.70449" lon="1.7636">
        <ele>175.39999389648</ele>
        <time>2015-01-18T09:50:59.000Z</time>
      </trkpt>
      <trkpt lat="48.70454" lon="1.76374">
        <ele>176</ele>
        <time>2015-01-18T09:51:06.000Z</time>
      </trkpt>
      <trkpt lat="48.70455" lon="1.76376">
        <ele>176</ele>
        <time>2015-01-18T09:51:08.000Z</time>
      </trkpt>
      <trkpt lat="48.70456" lon="1.76387">
        <ele>176.39999389648</ele>
        <time>2015-01-18T09:51:15.000Z</time>
      </trkpt>
      <trkpt lat="48.70458" lon="1.76399">
        <ele>177</ele>
        <time>2015-01-18T09:51:22.000Z</time>
      </trkpt>
      <trkpt lat="48.70461" lon="1.76412">
        <ele>177.19999694824</ele>
        <time>2015-01-18T09:51:30.000Z</time>
      </trkpt>
      <trkpt lat="48.7046" lon="1.76427">
        <ele>177.39999389648</ele>
        <time>2015-01-18T09:51:38.000Z</time>
      </trkpt>
      <trkpt lat="48.70456" lon="1.76439">
        <ele>178.19999694824</ele>
        <time>2015-01-18T09:51:45.000Z</time>
      </trkpt>
      <trkpt lat="48.70455" lon="1.76453">
        <ele>179</ele>
        <time>2015-01-18T09:51:52.000Z</time>
      </trkpt>
      <trkpt lat="48.70452" lon="1.76471">
        <ele>180</ele>
        <time>2015-01-18T09:52:02.000Z</time>
      </trkpt>
      <trkpt lat="48.70449" lon="1.76482">
        <ele>180.80000305176</ele>
        <time>2015-01-18T09:52:08.000Z</time>
      </trkpt>
      <trkpt lat="48.70446" lon="1.76487">
        <ele>181.19999694824</ele>
        <time>2015-01-18T09:52:11.000Z</time>
      </trkpt>
      <trkpt lat="48.70448" lon="1.76503">
        <ele>181.39999389648</ele>
        <time>2015-01-18T09:52:19.000Z</time>
      </trkpt>
      <trkpt lat="48.70446" lon="1.76514">
        <ele>181.19999694824</ele>
        <time>2015-01-18T09:52:25.000Z</time>
      </trkpt>
      <trkpt lat="48.70442" lon="1.76528">
        <ele>181.19999694824</ele>
        <time>2015-01-18T09:52:34.000Z</time>
      </trkpt>
      <trkpt lat="48.7044" lon="1.76541">
        <ele>181.19999694824</ele>
        <time>2015-01-18T09:52:41.000Z</time>
      </trkpt>
      <trkpt lat="48.70439" lon="1.76556">
        <ele>181</ele>
        <time>2015-01-18T09:52:50.000Z</time>
      </trkpt>
      <trkpt lat="48.70435" lon="1.7657">
        <ele>181</ele>
        <time>2015-01-18T09:52:58.000Z</time>
      </trkpt>
      <trkpt lat="48.70434" lon="1.76571">
        <ele>181</ele>
        <time>2015-01-18T09:52:59.000Z</time>
      </trkpt>
      <trkpt lat="48.70435" lon="1.76574">
        <ele>180.80000305176</ele>
        <time>2015-01-18T09:53:05.000Z</time>
      </trkpt>
      <trkpt lat="48.70433" lon="1.76578">
        <ele>180.80000305176</ele>
        <time>2015-01-18T09:53:11.000Z</time>
      </trkpt>
      <trkpt lat="48.70433" lon="1.76578">
        <ele>180.80000305176</ele>
        <time>2015-01-18T09:53:12.000Z</time>
      </trkpt>
      <trkpt lat="48.70418" lon="1.76588">
        <ele>180.19999694824</ele>
        <time>2015-01-18T09:54:02.000Z</time>
      </trkpt>
      <trkpt lat="48.7041" lon="1.76589">
        <ele>179.80000305176</ele>
        <time>2015-01-18T09:54:08.000Z</time>
      </trkpt>
      <trkpt lat="48.70407" lon="1.7659">
        <ele>179.80000305176</ele>
        <time>2015-01-18T09:54:10.000Z</time>
      </trkpt>
      <trkpt lat="48.70399" lon="1.76594">
        <ele>179.39999389648</ele>
        <time>2015-01-18T09:54:18.000Z</time>
      </trkpt>
      <trkpt lat="48.70392" lon="1.76597">
        <ele>179</ele>
        <time>2015-01-18T09:54:25.000Z</time>
      </trkpt>
      <trkpt lat="48.70389" lon="1.76602">
        <ele>178.80000305176</ele>
        <time>2015-01-18T09:54:30.000Z</time>
      </trkpt>
      <trkpt lat="48.70382" lon="1.76606">
        <ele>178.60000610352</ele>
        <time>2015-01-18T09:54:36.000Z</time>
      </trkpt>
      <trkpt lat="48.70373" lon="1.76612">
        <ele>178.39999389648</ele>
        <time>2015-01-18T09:54:43.000Z</time>
      </trkpt>
      <trkpt lat="48.70366" lon="1.76616">
        <ele>178.39999389648</ele>
        <time>2015-01-18T09:54:50.000Z</time>
      </trkpt>
      <trkpt lat="48.70359" lon="1.76618">
        <ele>178.19999694824</ele>
        <time>2015-01-18T09:54:57.000Z</time>
      </trkpt>
      <trkpt lat="48.70354" lon="1.76621">
        <ele>178</ele>
        <time>2015-01-18T09:55:02.000Z</time>
      </trkpt>
      <trkpt lat="48.70349" lon="1.76624">
        <ele>178.19999694824</ele>
        <time>2015-01-18T09:55:06.000Z</time>
      </trkpt>
      <trkpt lat="48.70349" lon="1.76627">
        <ele>178.19999694824</ele>
        <time>2015-01-18T09:55:12.000Z</time>
      </trkpt>
      <trkpt lat="48.7033" lon="1.76645">
        <ele>178.60000610352</ele>
        <time>2015-01-18T09:56:43.000Z</time>
      </trkpt>
      <trkpt lat="48.70327" lon="1.76652">
        <ele>178.60000610352</ele>
        <time>2015-01-18T09:56:47.000Z</time>
      </trkpt>
      <trkpt lat="48.70326" lon="1.76657">
        <ele>178.60000610352</ele>
        <time>2015-01-18T09:56:50.000Z</time>
      </trkpt>
      <trkpt lat="48.70326" lon="1.76662">
        <ele>178.60000610352</ele>
        <time>2015-01-18T09:56:53.000Z</time>
      </trkpt>
      <trkpt lat="48.70326" lon="1.76676">
        <ele>178.60000610352</ele>
        <time>2015-01-18T09:57:00.000Z</time>
      </trkpt>
      <trkpt lat="48.70326" lon="1.76691">
        <ele>178.60000610352</ele>
        <time>2015-01-18T09:57:07.000Z</time>
      </trkpt>
      <trkpt lat="48.70326" lon="1.76699">
        <ele>178.60000610352</ele>
        <time>2015-01-18T09:57:11.000Z</time>
      </trkpt>
      <trkpt lat="48.70327" lon="1.76718">
        <ele>178.60000610352</ele>
        <time>2015-01-18T09:57:21.000Z</time>
      </trkpt>
      <trkpt lat="48.70328" lon="1.76744">
        <ele>178.60000610352</ele>
        <time>2015-01-18T09:57:34.000Z</time>
      </trkpt>
      <trkpt lat="48.70329" lon="1.76759">
        <ele>178.80000305176</ele>
        <time>2015-01-18T09:57:41.000Z</time>
      </trkpt>
      <trkpt lat="48.7033" lon="1.76781">
        <ele>179</ele>
        <time>2015-01-18T09:57:52.000Z</time>
      </trkpt>
      <trkpt lat="48.70329" lon="1.76798">
        <ele>179.19999694824</ele>
        <time>2015-01-18T09:58:01.000Z</time>
      </trkpt>
      <trkpt lat="48.7033" lon="1.76814">
        <ele>179</ele>
        <time>2015-01-18T09:58:09.000Z</time>
      </trkpt>
      <trkpt lat="48.70331" lon="1.76834">
        <ele>179.19999694824</ele>
        <time>2015-01-18T09:58:19.000Z</time>
      </trkpt>
      <trkpt lat="48.70332" lon="1.76851">
        <ele>179.39999389648</ele>
        <time>2015-01-18T09:58:27.000Z</time>
      </trkpt>
      <trkpt lat="48.70332" lon="1.7687">
        <ele>179.60000610352</ele>
        <time>2015-01-18T09:58:36.000Z</time>
      </trkpt>
      <trkpt lat="48.70333" lon="1.76891">
        <ele>180</ele>
        <time>2015-01-18T09:58:47.000Z</time>
      </trkpt>
      <trkpt lat="48.70333" lon="1.76908">
        <ele>180.39999389648</ele>
        <time>2015-01-18T09:58:55.000Z</time>
      </trkpt>
      <trkpt lat="48.70335" lon="1.7693">
        <ele>180.80000305176</ele>
        <time>2015-01-18T09:59:06.000Z</time>
      </trkpt>
      <trkpt lat="48.70335" lon="1.76932">
        <ele>180.80000305176</ele>
        <time>2015-01-18T09:59:07.000Z</time>
      </trkpt>
      <trkpt lat="48.70335" lon="1.76946">
        <ele>181.19999694824</ele>
        <time>2015-01-18T09:59:15.000Z</time>
      </trkpt>
      <trkpt lat="48.70335" lon="1.76947">
        <ele>181.19999694824</ele>
        <time>2015-01-18T09:59:17.000Z</time>
      </trkpt>
      <trkpt lat="48.70336" lon="1.76956">
        <ele>181.39999389648</ele>
        <time>2015-01-18T09:59:25.000Z</time>
      </trkpt>
      <trkpt lat="48.70339" lon="1.76974">
        <ele>181.80000305176</ele>
        <time>2015-01-18T09:59:31.000Z</time>
      </trkpt>
      <trkpt lat="48.70341" lon="1.7699">
        <ele>182.19999694824</ele>
        <time>2015-01-18T09:59:38.000Z</time>
      </trkpt>
      <trkpt lat="48.70343" lon="1.77012">
        <ele>182.19999694824</ele>
        <time>2015-01-18T09:59:48.000Z</time>
      </trkpt>
      <trkpt lat="48.70344" lon="1.77025">
        <ele>182.19999694824</ele>
        <time>2015-01-18T09:59:54.000Z</time>
      </trkpt>
      <trkpt lat="48.70346" lon="1.77041">
        <ele>182</ele>
        <time>2015-01-18T10:00:02.000Z</time>
      </trkpt>
      <trkpt lat="48.70346" lon="1.77055">
        <ele>182</ele>
        <time>2015-01-18T10:00:09.000Z</time>
      </trkpt>
      <trkpt lat="48.70349" lon="1.77071">
        <ele>182.19999694824</ele>
        <time>2015-01-18T10:00:17.000Z</time>
      </trkpt>
      <trkpt lat="48.70352" lon="1.77087">
        <ele>182</ele>
        <time>2015-01-18T10:00:25.000Z</time>
      </trkpt>
      <trkpt lat="48.70356" lon="1.77113">
        <ele>182</ele>
        <time>2015-01-18T10:00:37.000Z</time>
      </trkpt>
      <trkpt lat="48.70358" lon="1.77143">
        <ele>181.80000305176</ele>
        <time>2015-01-18T10:00:49.000Z</time>
      </trkpt>
      <trkpt lat="48.70359" lon="1.77164">
        <ele>181.80000305176</ele>
        <time>2015-01-18T10:00:58.000Z</time>
      </trkpt>
      <trkpt lat="48.70363" lon="1.77188">
        <ele>181.19999694824</ele>
        <time>2015-01-18T10:01:09.000Z</time>
      </trkpt>
      <trkpt lat="48.70365" lon="1.7721">
        <ele>180.80000305176</ele>
        <time>2015-01-18T10:01:19.000Z</time>
      </trkpt>
      <trkpt lat="48.70367" lon="1.77226">
        <ele>180.39999389648</ele>
        <time>2015-01-18T10:01:27.000Z</time>
      </trkpt>
      <trkpt lat="48.70368" lon="1.77238">
        <ele>180.19999694824</ele>
        <time>2015-01-18T10:01:33.000Z</time>
      </trkpt>
      <trkpt lat="48.70369" lon="1.77256">
        <ele>180.60000610352</ele>
        <time>2015-01-18T10:01:42.000Z</time>
      </trkpt>
      <trkpt lat="48.70369" lon="1.77276">
        <ele>180.80000305176</ele>
        <time>2015-01-18T10:01:51.000Z</time>
      </trkpt>
      <trkpt lat="48.70371" lon="1.77289">
        <ele>181</ele>
        <time>2015-01-18T10:01:58.000Z</time>
      </trkpt>
      <trkpt lat="48.70375" lon="1.77306">
        <ele>181.39999389648</ele>
        <time>2015-01-18T10:02:07.000Z</time>
      </trkpt>
      <trkpt lat="48.7038" lon="1.77321">
        <ele>181.60000610352</ele>
        <time>2015-01-18T10:02:15.000Z</time>
      </trkpt>
      <trkpt lat="48.70386" lon="1.77335">
        <ele>182</ele>
        <time>2015-01-18T10:02:21.000Z</time>
      </trkpt>
      <trkpt lat="48.70393" lon="1.77355">
        <ele>182.39999389648</ele>
        <time>2015-01-18T10:02:27.000Z</time>
      </trkpt>
      <trkpt lat="48.70403" lon="1.77384">
        <ele>183.60000610352</ele>
        <time>2015-01-18T10:02:35.000Z</time>
      </trkpt>
      <trkpt lat="48.7041" lon="1.77408">
        <ele>184.80000305176</ele>
        <time>2015-01-18T10:02:41.000Z</time>
      </trkpt>
      <trkpt lat="48.70419" lon="1.7744">
        <ele>185.19999694824</ele>
        <time>2015-01-18T10:02:49.000Z</time>
      </trkpt>
      <trkpt lat="48.70432" lon="1.77478">
        <ele>185.80000305176</ele>
        <time>2015-01-18T10:02:58.000Z</time>
      </trkpt>
      <trkpt lat="48.70441" lon="1.77511">
        <ele>186.19999694824</ele>
        <time>2015-01-18T10:03:06.000Z</time>
      </trkpt>
      <trkpt lat="48.70451" lon="1.77541">
        <ele>186.39999389648</ele>
        <time>2015-01-18T10:03:14.000Z</time>
      </trkpt>
      <trkpt lat="48.70461" lon="1.77567">
        <ele>186.60000610352</ele>
        <time>2015-01-18T10:03:21.000Z</time>
      </trkpt>
      <trkpt lat="48.70471" lon="1.77601">
        <ele>186.19999694824</ele>
        <time>2015-01-18T10:03:30.000Z</time>
      </trkpt>
      <trkpt lat="48.70481" lon="1.77632">
        <ele>186</ele>
        <time>2015-01-18T10:03:38.000Z</time>
      </trkpt>
      <trkpt lat="48.70492" lon="1.77667">
        <ele>186</ele>
        <time>2015-01-18T10:03:47.000Z</time>
      </trkpt>
      <trkpt lat="48.70503" lon="1.77701">
        <ele>186.60000610352</ele>
        <time>2015-01-18T10:03:56.000Z</time>
      </trkpt>
      <trkpt lat="48.70513" lon="1.7773">
        <ele>187</ele>
        <time>2015-01-18T10:04:04.000Z</time>
      </trkpt>
      <trkpt lat="48.7052" lon="1.77748">
        <ele>187.19999694824</ele>
        <time>2015-01-18T10:04:09.000Z</time>
      </trkpt>
      <trkpt lat="48.70529" lon="1.77774">
        <ele>187.19999694824</ele>
        <time>2015-01-18T10:04:16.000Z</time>
      </trkpt>
      <trkpt lat="48.70539" lon="1.77801">
        <ele>187.39999389648</ele>
        <time>2015-01-18T10:04:23.000Z</time>
      </trkpt>
      <trkpt lat="48.70549" lon="1.77825">
        <ele>187.19999694824</ele>
        <time>2015-01-18T10:04:30.000Z</time>
      </trkpt>
      <trkpt lat="48.70558" lon="1.77852">
        <ele>186.80000305176</ele>
        <time>2015-01-18T10:04:37.000Z</time>
      </trkpt>
      <trkpt lat="48.70566" lon="1.7788">
        <ele>186.19999694824</ele>
        <time>2015-01-18T10:04:44.000Z</time>
      </trkpt>
      <trkpt lat="48.70573" lon="1.77906">
        <ele>185.80000305176</ele>
        <time>2015-01-18T10:04:50.000Z</time>
      </trkpt>
      <trkpt lat="48.70583" lon="1.7794">
        <ele>186.39999389648</ele>
        <time>2015-01-18T10:04:59.000Z</time>
      </trkpt>
      <trkpt lat="48.70589" lon="1.77957">
        <ele>186.60000610352</ele>
        <time>2015-01-18T10:05:06.000Z</time>
      </trkpt>
      <trkpt lat="48.70593" lon="1.77966">
        <ele>186.80000305176</ele>
        <time>2015-01-18T10:05:12.000Z</time>
      </trkpt>
      <trkpt lat="48.70597" lon="1.77974">
        <ele>186.80000305176</ele>
        <time>2015-01-18T10:05:17.000Z</time>
      </trkpt>
      <trkpt lat="48.70603" lon="1.77989">
        <ele>187</ele>
        <time>2015-01-18T10:05:25.000Z</time>
      </trkpt>
      <trkpt lat="48.70604" lon="1.77994">
        <ele>187</ele>
        <time>2015-01-18T10:05:28.000Z</time>
      </trkpt>
      <trkpt lat="48.70607" lon="1.78007">
        <ele>186.80000305176</ele>
        <time>2015-01-18T10:05:34.000Z</time>
      </trkpt>
      <trkpt lat="48.70614" lon="1.78022">
        <ele>186.60000610352</ele>
        <time>2015-01-18T10:05:42.000Z</time>
      </trkpt>
      <trkpt lat="48.70619" lon="1.78035">
        <ele>186.39999389648</ele>
        <time>2015-01-18T10:05:47.000Z</time>
      </trkpt>
      <trkpt lat="48.70623" lon="1.78052">
        <ele>186.19999694824</ele>
        <time>2015-01-18T10:05:51.000Z</time>
      </trkpt>
      <trkpt lat="48.7063" lon="1.78072">
        <ele>186</ele>
        <time>2015-01-18T10:05:56.000Z</time>
      </trkpt>
      <trkpt lat="48.70638" lon="1.78099">
        <ele>185.80000305176</ele>
        <time>2015-01-18T10:06:03.000Z</time>
      </trkpt>
      <trkpt lat="48.70645" lon="1.78122">
        <ele>185.60000610352</ele>
        <time>2015-01-18T10:06:09.000Z</time>
      </trkpt>
      <trkpt lat="48.70651" lon="1.78142">
        <ele>185.39999389648</ele>
        <time>2015-01-18T10:06:14.000Z</time>
      </trkpt>
      <trkpt lat="48.70658" lon="1.78161">
        <ele>185.19999694824</ele>
        <time>2015-01-18T10:06:19.000Z</time>
      </trkpt>
      <trkpt lat="48.70669" lon="1.78197">
        <ele>185.19999694824</ele>
        <time>2015-01-18T10:06:27.000Z</time>
      </trkpt>
      <trkpt lat="48.70679" lon="1.78228">
        <ele>185.19999694824</ele>
        <time>2015-01-18T10:06:34.000Z</time>
      </trkpt>
      <trkpt lat="48.70692" lon="1.78265">
        <ele>184.80000305176</ele>
        <time>2015-01-18T10:06:43.000Z</time>
      </trkpt>
      <trkpt lat="48.70704" lon="1.783">
        <ele>184.39999389648</ele>
        <time>2015-01-18T10:06:51.000Z</time>
      </trkpt>
      <trkpt lat="48.70714" lon="1.78335">
        <ele>184.60000610352</ele>
        <time>2015-01-18T10:06:59.000Z</time>
      </trkpt>
      <trkpt lat="48.70722" lon="1.7836">
        <ele>185.19999694824</ele>
        <time>2015-01-18T10:07:05.000Z</time>
      </trkpt>
      <trkpt lat="48.70728" lon="1.78379">
        <ele>185.60000610352</ele>
        <time>2015-01-18T10:07:10.000Z</time>
      </trkpt>
      <trkpt lat="48.70734" lon="1.78401">
        <ele>186.19999694824</ele>
        <time>2015-01-18T10:07:16.000Z</time>
      </trkpt>
      <trkpt lat="48.70745" lon="1.78431">
        <ele>186</ele>
        <time>2015-01-18T10:07:24.000Z</time>
      </trkpt>
      <trkpt lat="48.70757" lon="1.78466">
        <ele>185.39999389648</ele>
        <time>2015-01-18T10:07:32.000Z</time>
      </trkpt>
      <trkpt lat="48.70773" lon="1.78509">
        <ele>184.60000610352</ele>
        <time>2015-01-18T10:07:42.000Z</time>
      </trkpt>
      <trkpt lat="48.7078" lon="1.78529">
        <ele>183.80000305176</ele>
        <time>2015-01-18T10:07:47.000Z</time>
      </trkpt>
      <trkpt lat="48.70789" lon="1.78553">
        <ele>182.80000305176</ele>
        <time>2015-01-18T10:07:54.000Z</time>
      </trkpt>
      <trkpt lat="48.70794" lon="1.78567">
        <ele>182.39999389648</ele>
        <time>2015-01-18T10:08:01.000Z</time>
      </trkpt>
      <trkpt lat="48.70799" lon="1.78581">
        <ele>182.39999389648</ele>
        <time>2015-01-18T10:08:09.000Z</time>
      </trkpt>
      <trkpt lat="48.70808" lon="1.78596">
        <ele>182.19999694824</ele>
        <time>2015-01-18T10:08:19.000Z</time>
      </trkpt>
      <trkpt lat="48.70816" lon="1.78601">
        <ele>181.80000305176</ele>
        <time>2015-01-18T10:08:26.000Z</time>
      </trkpt>
      <trkpt lat="48.70817" lon="1.78602">
        <ele>181.80000305176</ele>
        <time>2015-01-18T10:08:27.000Z</time>
      </trkpt>
      <trkpt lat="48.70821" lon="1.7861">
        <ele>181.80000305176</ele>
        <time>2015-01-18T10:08:32.000Z</time>
      </trkpt>
      <trkpt lat="48.70821" lon="1.78625">
        <ele>182.39999389648</ele>
        <time>2015-01-18T10:08:39.000Z</time>
      </trkpt>
      <trkpt lat="48.7082" lon="1.78644">
        <ele>183.60000610352</ele>
        <time>2015-01-18T10:08:48.000Z</time>
      </trkpt>
      <trkpt lat="48.70823" lon="1.78666">
        <ele>184.19999694824</ele>
        <time>2015-01-18T10:08:58.000Z</time>
      </trkpt>
      <trkpt lat="48.70826" lon="1.78682">
        <ele>184.60000610352</ele>
        <time>2015-01-18T10:09:06.000Z</time>
      </trkpt>
      <trkpt lat="48.70827" lon="1.78689">
        <ele>184.80000305176</ele>
        <time>2015-01-18T10:09:09.000Z</time>
      </trkpt>
      <trkpt lat="48.7083" lon="1.78699">
        <ele>184.80000305176</ele>
        <time>2015-01-18T10:09:14.000Z</time>
      </trkpt>
      <trkpt lat="48.70833" lon="1.78706">
        <ele>184.80000305176</ele>
        <time>2015-01-18T10:09:18.000Z</time>
      </trkpt>
      <trkpt lat="48.7084" lon="1.78722">
        <ele>184.80000305176</ele>
        <time>2015-01-18T10:09:27.000Z</time>
      </trkpt>
      <trkpt lat="48.70846" lon="1.78734">
        <ele>184.39999389648</ele>
        <time>2015-01-18T10:09:34.000Z</time>
      </trkpt>
      <trkpt lat="48.70848" lon="1.7874">
        <ele>184.39999389648</ele>
        <time>2015-01-18T10:09:37.000Z</time>
      </trkpt>
      <trkpt lat="48.70851" lon="1.78747">
        <ele>184.19999694824</ele>
        <time>2015-01-18T10:09:41.000Z</time>
      </trkpt>
      <trkpt lat="48.70856" lon="1.78762">
        <ele>184.19999694824</ele>
        <time>2015-01-18T10:09:49.000Z</time>
      </trkpt>
      <trkpt lat="48.70863" lon="1.78776">
        <ele>184.39999389648</ele>
        <time>2015-01-18T10:09:57.000Z</time>
      </trkpt>
      <trkpt lat="48.70866" lon="1.78784">
        <ele>184.60000610352</ele>
        <time>2015-01-18T10:10:01.000Z</time>
      </trkpt>
      <trkpt lat="48.70869" lon="1.78795">
        <ele>184.60000610352</ele>
        <time>2015-01-18T10:10:07.000Z</time>
      </trkpt>
      <trkpt lat="48.70874" lon="1.78807">
        <ele>184.80000305176</ele>
        <time>2015-01-18T10:10:14.000Z</time>
      </trkpt>
      <trkpt lat="48.70877" lon="1.78815">
        <ele>185</ele>
        <time>2015-01-18T10:10:18.000Z</time>
      </trkpt>
      <trkpt lat="48.70882" lon="1.78829">
        <ele>185</ele>
        <time>2015-01-18T10:10:26.000Z</time>
      </trkpt>
      <trkpt lat="48.70888" lon="1.78844">
        <ele>185.19999694824</ele>
        <time>2015-01-18T10:10:34.000Z</time>
      </trkpt>
      <trkpt lat="48.70894" lon="1.78856">
        <ele>185.39999389648</ele>
        <time>2015-01-18T10:10:41.000Z</time>
      </trkpt>
      <trkpt lat="48.70898" lon="1.78872">
        <ele>185.80000305176</ele>
        <time>2015-01-18T10:10:49.000Z</time>
      </trkpt>
      <trkpt lat="48.70904" lon="1.78882">
        <ele>186</ele>
        <time>2015-01-18T10:10:56.000Z</time>
      </trkpt>
      <trkpt lat="48.70913" lon="1.78887">
        <ele>186</ele>
        <time>2015-01-18T10:11:04.000Z</time>
      </trkpt>
      <trkpt lat="48.70921" lon="1.78889">
        <ele>185.80000305176</ele>
        <time>2015-01-18T10:11:10.000Z</time>
      </trkpt>
      <trkpt lat="48.70922" lon="1.7889">
        <ele>185.80000305176</ele>
        <time>2015-01-18T10:11:11.000Z</time>
      </trkpt>
      <trkpt lat="48.70927" lon="1.78895">
        <ele>185.80000305176</ele>
        <time>2015-01-18T10:11:17.000Z</time>
      </trkpt>
      <trkpt lat="48.70928" lon="1.78896">
        <ele>185.80000305176</ele>
        <time>2015-01-18T10:11:18.000Z</time>
      </trkpt>
      <trkpt lat="48.7093" lon="1.78897">
        <ele>186</ele>
        <time>2015-01-18T10:11:20.000Z</time>
      </trkpt>
      <trkpt lat="48.70934" lon="1.78901">
        <ele>186</ele>
        <time>2015-01-18T10:11:24.000Z</time>
      </trkpt>
      <trkpt lat="48.70938" lon="1.78902">
        <ele>186</ele>
        <time>2015-01-18T10:11:27.000Z</time>
      </trkpt>
      <trkpt lat="48.70943" lon="1.78909">
        <ele>186</ele>
        <time>2015-01-18T10:11:34.000Z</time>
      </trkpt>
      <trkpt lat="48.70944" lon="1.7891">
        <ele>186</ele>
        <time>2015-01-18T10:11:35.000Z</time>
      </trkpt>
      <trkpt lat="48.70949" lon="1.78917">
        <ele>186.19999694824</ele>
        <time>2015-01-18T10:11:40.000Z</time>
      </trkpt>
      <trkpt lat="48.70954" lon="1.78923">
        <ele>186.19999694824</ele>
        <time>2015-01-18T10:11:46.000Z</time>
      </trkpt>
      <trkpt lat="48.70956" lon="1.78924">
        <ele>186.19999694824</ele>
        <time>2015-01-18T10:11:48.000Z</time>
      </trkpt>
      <trkpt lat="48.70967" lon="1.78929">
        <ele>186.39999389648</ele>
        <time>2015-01-18T10:11:55.000Z</time>
      </trkpt>
      <trkpt lat="48.70972" lon="1.78933">
        <ele>186.39999389648</ele>
        <time>2015-01-18T10:11:59.000Z</time>
      </trkpt>
      <trkpt lat="48.70979" lon="1.78938">
        <ele>186.60000610352</ele>
        <time>2015-01-18T10:12:06.000Z</time>
      </trkpt>
      <trkpt lat="48.70991" lon="1.78946">
        <ele>186.60000610352</ele>
        <time>2015-01-18T10:12:14.000Z</time>
      </trkpt>
      <trkpt lat="48.71" lon="1.78951">
        <ele>186.80000305176</ele>
        <time>2015-01-18T10:12:20.000Z</time>
      </trkpt>
      <trkpt lat="48.71009" lon="1.78956">
        <ele>186.80000305176</ele>
        <time>2015-01-18T10:12:26.000Z</time>
      </trkpt>
      <trkpt lat="48.71012" lon="1.78957">
        <ele>186.80000305176</ele>
        <time>2015-01-18T10:12:28.000Z</time>
      </trkpt>
      <trkpt lat="48.71019" lon="1.78965">
        <ele>187</ele>
        <time>2015-01-18T10:12:37.000Z</time>
      </trkpt>
      <trkpt lat="48.71026" lon="1.7897">
        <ele>187</ele>
        <time>2015-01-18T10:12:42.000Z</time>
      </trkpt>
      <trkpt lat="48.71029" lon="1.78972">
        <ele>187</ele>
        <time>2015-01-18T10:12:45.000Z</time>
      </trkpt>
      <trkpt lat="48.71031" lon="1.78973">
        <ele>187</ele>
        <time>2015-01-18T10:12:47.000Z</time>
      </trkpt>
      <trkpt lat="48.7104" lon="1.78978">
        <ele>187</ele>
        <time>2015-01-18T10:12:53.000Z</time>
      </trkpt>
      <trkpt lat="48.71047" lon="1.78982">
        <ele>187</ele>
        <time>2015-01-18T10:12:58.000Z</time>
      </trkpt>
      <trkpt lat="48.71053" lon="1.78986">
        <ele>187</ele>
        <time>2015-01-18T10:13:05.000Z</time>
      </trkpt>
      <trkpt lat="48.71062" lon="1.78992">
        <ele>187</ele>
        <time>2015-01-18T10:13:12.000Z</time>
      </trkpt>
      <trkpt lat="48.7107" lon="1.78997">
        <ele>187.19999694824</ele>
        <time>2015-01-18T10:13:19.000Z</time>
      </trkpt>
      <trkpt lat="48.71079" lon="1.79005">
        <ele>187.39999389648</ele>
        <time>2015-01-18T10:13:26.000Z</time>
      </trkpt>
      <trkpt lat="48.71084" lon="1.79008">
        <ele>187.39999389648</ele>
        <time>2015-01-18T10:13:31.000Z</time>
      </trkpt>
      <trkpt lat="48.71088" lon="1.79012">
        <ele>187.60000610352</ele>
        <time>2015-01-18T10:13:35.000Z</time>
      </trkpt>
      <trkpt lat="48.711" lon="1.79019">
        <ele>187.80000305176</ele>
        <time>2015-01-18T10:13:43.000Z</time>
      </trkpt>
      <trkpt lat="48.71111" lon="1.79027">
        <ele>187.60000610352</ele>
        <time>2015-01-18T10:13:51.000Z</time>
      </trkpt>
      <trkpt lat="48.7112" lon="1.79033">
        <ele>187.39999389648</ele>
        <time>2015-01-18T10:13:58.000Z</time>
      </trkpt>
      <trkpt lat="48.71128" lon="1.79039">
        <ele>187.39999389648</ele>
        <time>2015-01-18T10:14:04.000Z</time>
      </trkpt>
      <trkpt lat="48.71135" lon="1.79045">
        <ele>187.19999694824</ele>
        <time>2015-01-18T10:14:10.000Z</time>
      </trkpt>
      <trkpt lat="48.71142" lon="1.79049">
        <ele>187</ele>
        <time>2015-01-18T10:14:16.000Z</time>
      </trkpt>
      <trkpt lat="48.71148" lon="1.79055">
        <ele>187</ele>
        <time>2015-01-18T10:14:22.000Z</time>
      </trkpt>
      <trkpt lat="48.71157" lon="1.79061">
        <ele>186.80000305176</ele>
        <time>2015-01-18T10:14:27.000Z</time>
      </trkpt>
      <trkpt lat="48.71169" lon="1.7907">
        <ele>186.60000610352</ele>
        <time>2015-01-18T10:14:36.000Z</time>
      </trkpt>
      <trkpt lat="48.71178" lon="1.79074">
        <ele>186.19999694824</ele>
        <time>2015-01-18T10:14:43.000Z</time>
      </trkpt>
      <trkpt lat="48.71185" lon="1.79077">
        <ele>186</ele>
        <time>2015-01-18T10:14:49.000Z</time>
      </trkpt>
      <trkpt lat="48.71188" lon="1.79078">
        <ele>185.80000305176</ele>
        <time>2015-01-18T10:14:53.000Z</time>
      </trkpt>
      <trkpt lat="48.71195" lon="1.79081">
        <ele>185.60000610352</ele>
        <time>2015-01-18T10:15:01.000Z</time>
      </trkpt>
      <trkpt lat="48.71199" lon="1.79083">
        <ele>185.19999694824</ele>
        <time>2015-01-18T10:15:04.000Z</time>
      </trkpt>
      <trkpt lat="48.71203" lon="1.79084">
        <ele>185</ele>
        <time>2015-01-18T10:15:08.000Z</time>
      </trkpt>
      <trkpt lat="48.71207" lon="1.79091">
        <ele>184.80000305176</ele>
        <time>2015-01-18T10:15:13.000Z</time>
      </trkpt>
      <trkpt lat="48.71218" lon="1.791">
        <ele>184.19999694824</ele>
        <time>2015-01-18T10:15:23.000Z</time>
      </trkpt>
      <trkpt lat="48.71223" lon="1.79103">
        <ele>184</ele>
        <time>2015-01-18T10:15:29.000Z</time>
      </trkpt>
      <trkpt lat="48.71227" lon="1.79108">
        <ele>183.60000610352</ele>
        <time>2015-01-18T10:15:35.000Z</time>
      </trkpt>
      <trkpt lat="48.71239" lon="1.79115">
        <ele>183</ele>
        <time>2015-01-18T10:15:43.000Z</time>
      </trkpt>
      <trkpt lat="48.71244" lon="1.79115">
        <ele>182.80000305176</ele>
        <time>2015-01-18T10:15:47.000Z</time>
      </trkpt>
      <trkpt lat="48.7125" lon="1.79119">
        <ele>182.60000610352</ele>
        <time>2015-01-18T10:15:53.000Z</time>
      </trkpt>
      <trkpt lat="48.71254" lon="1.79125">
        <ele>182.39999389648</ele>
        <time>2015-01-18T10:15:57.000Z</time>
      </trkpt>
      <trkpt lat="48.71263" lon="1.79129">
        <ele>181.80000305176</ele>
        <time>2015-01-18T10:16:04.000Z</time>
      </trkpt>
      <trkpt lat="48.71271" lon="1.79137">
        <ele>181.39999389648</ele>
        <time>2015-01-18T10:16:11.000Z</time>
      </trkpt>
      <trkpt lat="48.71279" lon="1.79144">
        <ele>181.19999694824</ele>
        <time>2015-01-18T10:16:18.000Z</time>
      </trkpt>
      <trkpt lat="48.71289" lon="1.79151">
        <ele>181</ele>
        <time>2015-01-18T10:16:26.000Z</time>
      </trkpt>
      <trkpt lat="48.71298" lon="1.79154">
        <ele>181</ele>
        <time>2015-01-18T10:16:33.000Z</time>
      </trkpt>
      <trkpt lat="48.71307" lon="1.79159">
        <ele>180.80000305176</ele>
        <time>2015-01-18T10:16:40.000Z</time>
      </trkpt>
      <trkpt lat="48.71315" lon="1.79165">
        <ele>180.80000305176</ele>
        <time>2015-01-18T10:16:46.000Z</time>
      </trkpt>
      <trkpt lat="48.71325" lon="1.79172">
        <ele>180.60000610352</ele>
        <time>2015-01-18T10:16:53.000Z</time>
      </trkpt>
      <trkpt lat="48.71334" lon="1.79178">
        <ele>180.39999389648</ele>
        <time>2015-01-18T10:17:00.000Z</time>
      </trkpt>
      <trkpt lat="48.71346" lon="1.79186">
        <ele>180.19999694824</ele>
        <time>2015-01-18T10:17:08.000Z</time>
      </trkpt>
      <trkpt lat="48.71354" lon="1.79191">
        <ele>180.19999694824</ele>
        <time>2015-01-18T10:17:14.000Z</time>
      </trkpt>
      <trkpt lat="48.71367" lon="1.792">
        <ele>180.19999694824</ele>
        <time>2015-01-18T10:17:23.000Z</time>
      </trkpt>
      <trkpt lat="48.71379" lon="1.79207">
        <ele>180.39999389648</ele>
        <time>2015-01-18T10:17:31.000Z</time>
      </trkpt>
      <trkpt lat="48.71391" lon="1.79215">
        <ele>180.39999389648</ele>
        <time>2015-01-18T10:17:40.000Z</time>
      </trkpt>
      <trkpt lat="48.71401" lon="1.79227">
        <ele>180.39999389648</ele>
        <time>2015-01-18T10:17:49.000Z</time>
      </trkpt>
      <trkpt lat="48.71411" lon="1.79232">
        <ele>180.60000610352</ele>
        <time>2015-01-18T10:17:56.000Z</time>
      </trkpt>
      <trkpt lat="48.7142" lon="1.7924">
        <ele>180.60000610352</ele>
        <time>2015-01-18T10:18:03.000Z</time>
      </trkpt>
      <trkpt lat="48.71431" lon="1.79247">
        <ele>180.60000610352</ele>
        <time>2015-01-18T10:18:11.000Z</time>
      </trkpt>
      <trkpt lat="48.7144" lon="1.79252">
        <ele>180.60000610352</ele>
        <time>2015-01-18T10:18:18.000Z</time>
      </trkpt>
      <trkpt lat="48.71451" lon="1.79258">
        <ele>180.60000610352</ele>
        <time>2015-01-18T10:18:26.000Z</time>
      </trkpt>
      <trkpt lat="48.7146" lon="1.79267">
        <ele>180.60000610352</ele>
        <time>2015-01-18T10:18:34.000Z</time>
      </trkpt>
      <trkpt lat="48.7147" lon="1.79274">
        <ele>180.60000610352</ele>
        <time>2015-01-18T10:18:41.000Z</time>
      </trkpt>
      <trkpt lat="48.71483" lon="1.79282">
        <ele>180.60000610352</ele>
        <time>2015-01-18T10:18:50.000Z</time>
      </trkpt>
      <trkpt lat="48.71494" lon="1.79289">
        <ele>180.60000610352</ele>
        <time>2015-01-18T10:18:59.000Z</time>
      </trkpt>
      <trkpt lat="48.71504" lon="1.79294">
        <ele>180.80000305176</ele>
        <time>2015-01-18T10:19:06.000Z</time>
      </trkpt>
      <trkpt lat="48.71517" lon="1.79303">
        <ele>180.80000305176</ele>
        <time>2015-01-18T10:19:15.000Z</time>
      </trkpt>
      <trkpt lat="48.71527" lon="1.79312">
        <ele>180.39999389648</ele>
        <time>2015-01-18T10:19:23.000Z</time>
      </trkpt>
      <trkpt lat="48.71536" lon="1.79322">
        <ele>179.80000305176</ele>
        <time>2015-01-18T10:19:31.000Z</time>
      </trkpt>
      <trkpt lat="48.71547" lon="1.79328">
        <ele>179.39999389648</ele>
        <time>2015-01-18T10:19:38.000Z</time>
      </trkpt>
      <trkpt lat="48.71562" lon="1.79339">
        <ele>178.80000305176</ele>
        <time>2015-01-18T10:19:49.000Z</time>
      </trkpt>
      <trkpt lat="48.71574" lon="1.79348">
        <ele>178.39999389648</ele>
        <time>2015-01-18T10:19:58.000Z</time>
      </trkpt>
      <trkpt lat="48.71584" lon="1.79355">
        <ele>178</ele>
        <time>2015-01-18T10:20:06.000Z</time>
      </trkpt>
      <trkpt lat="48.71593" lon="1.7936">
        <ele>177.80000305176</ele>
        <time>2015-01-18T10:20:12.000Z</time>
      </trkpt>
      <trkpt lat="48.71605" lon="1.79369">
        <ele>177.19999694824</ele>
        <time>2015-01-18T10:20:21.000Z</time>
      </trkpt>
      <trkpt lat="48.71623" lon="1.79381">
        <ele>176.60000610352</ele>
        <time>2015-01-18T10:20:35.000Z</time>
      </trkpt>
      <trkpt lat="48.71636" lon="1.7939">
        <ele>176.19999694824</ele>
        <time>2015-01-18T10:20:43.000Z</time>
      </trkpt>
      <trkpt lat="48.71651" lon="1.79398">
        <ele>175.60000610352</ele>
        <time>2015-01-18T10:20:54.000Z</time>
      </trkpt>
      <trkpt lat="48.71657" lon="1.794">
        <ele>175.60000610352</ele>
        <time>2015-01-18T10:20:58.000Z</time>
      </trkpt>
      <trkpt lat="48.71668" lon="1.79407">
        <ele>175.19999694824</ele>
        <time>2015-01-18T10:21:07.000Z</time>
      </trkpt>
      <trkpt lat="48.71677" lon="1.79417">
        <ele>174.80000305176</ele>
        <time>2015-01-18T10:21:15.000Z</time>
      </trkpt>
      <trkpt lat="48.7168" lon="1.79419">
        <ele>174.80000305176</ele>
        <time>2015-01-18T10:21:17.000Z</time>
      </trkpt>
      <trkpt lat="48.71688" lon="1.79425">
        <ele>174.60000610352</ele>
        <time>2015-01-18T10:21:23.000Z</time>
      </trkpt>
      <trkpt lat="48.71691" lon="1.79426">
        <ele>174.60000610352</ele>
        <time>2015-01-18T10:21:28.000Z</time>
      </trkpt>
      <trkpt lat="48.717" lon="1.7943">
        <ele>174.39999389648</ele>
        <time>2015-01-18T10:21:38.000Z</time>
      </trkpt>
      <trkpt lat="48.71713" lon="1.79437">
        <ele>174.19999694824</ele>
        <time>2015-01-18T10:21:47.000Z</time>
      </trkpt>
      <trkpt lat="48.71724" lon="1.79444">
        <ele>174</ele>
        <time>2015-01-18T10:21:56.000Z</time>
      </trkpt>
      <trkpt lat="48.71736" lon="1.79452">
        <ele>174</ele>
        <time>2015-01-18T10:22:05.000Z</time>
      </trkpt>
      <trkpt lat="48.71747" lon="1.79459">
        <ele>173.80000305176</ele>
        <time>2015-01-18T10:22:14.000Z</time>
      </trkpt>
      <trkpt lat="48.71755" lon="1.79464">
        <ele>173.80000305176</ele>
        <time>2015-01-18T10:22:20.000Z</time>
      </trkpt>
      <trkpt lat="48.71764" lon="1.79473">
        <ele>173.60000610352</ele>
        <time>2015-01-18T10:22:28.000Z</time>
      </trkpt>
      <trkpt lat="48.71774" lon="1.79481">
        <ele>173.39999389648</ele>
        <time>2015-01-18T10:22:36.000Z</time>
      </trkpt>
      <trkpt lat="48.71785" lon="1.7949">
        <ele>173.39999389648</ele>
        <time>2015-01-18T10:22:46.000Z</time>
      </trkpt>
      <trkpt lat="48.7179" lon="1.79493">
        <ele>173.39999389648</ele>
        <time>2015-01-18T10:22:50.000Z</time>
      </trkpt>
      <trkpt lat="48.71802" lon="1.795">
        <ele>173.60000610352</ele>
        <time>2015-01-18T10:22:59.000Z</time>
      </trkpt>
      <trkpt lat="48.7181" lon="1.79508">
        <ele>173.39999389648</ele>
        <time>2015-01-18T10:23:06.000Z</time>
      </trkpt>
      <trkpt lat="48.71814" lon="1.79512">
        <ele>173.39999389648</ele>
        <time>2015-01-18T10:23:10.000Z</time>
      </trkpt>
      <trkpt lat="48.71823" lon="1.79517">
        <ele>173.60000610352</ele>
        <time>2015-01-18T10:23:17.000Z</time>
      </trkpt>
      <trkpt lat="48.71835" lon="1.79525">
        <ele>173.60000610352</ele>
        <time>2015-01-18T10:23:26.000Z</time>
      </trkpt>
      <trkpt lat="48.71844" lon="1.79528">
        <ele>173.80000305176</ele>
        <time>2015-01-18T10:23:33.000Z</time>
      </trkpt>
      <trkpt lat="48.71856" lon="1.79535">
        <ele>174</ele>
        <time>2015-01-18T10:23:42.000Z</time>
      </trkpt>
      <trkpt lat="48.71863" lon="1.79539">
        <ele>174.39999389648</ele>
        <time>2015-01-18T10:23:48.000Z</time>
      </trkpt>
      <trkpt lat="48.7187" lon="1.79545">
        <ele>174.60000610352</ele>
        <time>2015-01-18T10:23:54.000Z</time>
      </trkpt>
      <trkpt lat="48.71878" lon="1.79551">
        <ele>175</ele>
        <time>2015-01-18T10:24:00.000Z</time>
      </trkpt>
      <trkpt lat="48.71879" lon="1.79552">
        <ele>175</ele>
        <time>2015-01-18T10:24:01.000Z</time>
      </trkpt>
      <trkpt lat="48.71886" lon="1.79557">
        <ele>175.39999389648</ele>
        <time>2015-01-18T10:24:07.000Z</time>
      </trkpt>
      <trkpt lat="48.71896" lon="1.79562">
        <ele>176</ele>
        <time>2015-01-18T10:24:14.000Z</time>
      </trkpt>
      <trkpt lat="48.71909" lon="1.7957">
        <ele>176.60000610352</ele>
        <time>2015-01-18T10:24:24.000Z</time>
      </trkpt>
      <trkpt lat="48.71921" lon="1.79579">
        <ele>177.60000610352</ele>
        <time>2015-01-18T10:24:34.000Z</time>
      </trkpt>
      <trkpt lat="48.71933" lon="1.79588">
        <ele>178.39999389648</ele>
        <time>2015-01-18T10:24:44.000Z</time>
      </trkpt>
      <trkpt lat="48.71938" lon="1.79597">
        <ele>178.80000305176</ele>
        <time>2015-01-18T10:24:51.000Z</time>
      </trkpt>
      <trkpt lat="48.71951" lon="1.79606">
        <ele>179.19999694824</ele>
        <time>2015-01-18T10:25:01.000Z</time>
      </trkpt>
      <trkpt lat="48.71959" lon="1.79608">
        <ele>179.60000610352</ele>
        <time>2015-01-18T10:25:08.000Z</time>
      </trkpt>
      <trkpt lat="48.71973" lon="1.79616">
        <ele>180.19999694824</ele>
        <time>2015-01-18T10:25:19.000Z</time>
      </trkpt>
      <trkpt lat="48.71981" lon="1.79622">
        <ele>180.60000610352</ele>
        <time>2015-01-18T10:25:26.000Z</time>
      </trkpt>
      <trkpt lat="48.71993" lon="1.7963">
        <ele>181</ele>
        <time>2015-01-18T10:25:35.000Z</time>
      </trkpt>
      <trkpt lat="48.72" lon="1.79638">
        <ele>181.19999694824</ele>
        <time>2015-01-18T10:25:40.000Z</time>
      </trkpt>
      <trkpt lat="48.72004" lon="1.79641">
        <ele>181.39999389648</ele>
        <time>2015-01-18T10:25:44.000Z</time>
      </trkpt>
      <trkpt lat="48.72004" lon="1.79641">
        <ele>181.39999389648</ele>
        <time>2015-01-18T10:25:46.000Z</time>
      </trkpt>
      <trkpt lat="48.72008" lon="1.79648">
        <ele>181.39999389648</ele>
        <time>2015-01-18T10:26:23.000Z</time>
      </trkpt>
      <trkpt lat="48.72012" lon="1.79649">
        <ele>181.60000610352</ele>
        <time>2015-01-18T10:26:26.000Z</time>
      </trkpt>
      <trkpt lat="48.72014" lon="1.79651">
        <ele>181.80000305176</ele>
        <time>2015-01-18T10:26:28.000Z</time>
      </trkpt>
      <trkpt lat="48.72026" lon="1.79657">
        <ele>182</ele>
        <time>2015-01-18T10:26:36.000Z</time>
      </trkpt>
      <trkpt lat="48.72037" lon="1.7966">
        <ele>182.39999389648</ele>
        <time>2015-01-18T10:26:41.000Z</time>
      </trkpt>
      <trkpt lat="48.72044" lon="1.79666">
        <ele>182.39999389648</ele>
        <time>2015-01-18T10:26:46.000Z</time>
      </trkpt>
      <trkpt lat="48.72048" lon="1.7967">
        <ele>182.19999694824</ele>
        <time>2015-01-18T10:26:50.000Z</time>
      </trkpt>
      <trkpt lat="48.7206" lon="1.79677">
        <ele>182.39999389648</ele>
        <time>2015-01-18T10:26:59.000Z</time>
      </trkpt>
      <trkpt lat="48.7207" lon="1.79685">
        <ele>182.19999694824</ele>
        <time>2015-01-18T10:27:07.000Z</time>
      </trkpt>
      <trkpt lat="48.7208" lon="1.79691">
        <ele>182.19999694824</ele>
        <time>2015-01-18T10:27:15.000Z</time>
      </trkpt>
      <trkpt lat="48.72089" lon="1.79697">
        <ele>182.19999694824</ele>
        <time>2015-01-18T10:27:22.000Z</time>
      </trkpt>
      <trkpt lat="48.72099" lon="1.79703">
        <ele>182.39999389648</ele>
        <time>2015-01-18T10:27:30.000Z</time>
      </trkpt>
      <trkpt lat="48.7211" lon="1.79713">
        <ele>182</ele>
        <time>2015-01-18T10:27:39.000Z</time>
      </trkpt>
      <trkpt lat="48.72122" lon="1.7972">
        <ele>181.80000305176</ele>
        <time>2015-01-18T10:27:48.000Z</time>
      </trkpt>
      <trkpt lat="48.72127" lon="1.79724">
        <ele>181.60000610352</ele>
        <time>2015-01-18T10:27:52.000Z</time>
      </trkpt>
      <trkpt lat="48.72133" lon="1.7973">
        <ele>181.39999389648</ele>
        <time>2015-01-18T10:27:58.000Z</time>
      </trkpt>
      <trkpt lat="48.72139" lon="1.79733">
        <ele>181.19999694824</ele>
        <time>2015-01-18T10:28:02.000Z</time>
      </trkpt>
      <trkpt lat="48.72147" lon="1.79742">
        <ele>181</ele>
        <time>2015-01-18T10:28:10.000Z</time>
      </trkpt>
      <trkpt lat="48.72155" lon="1.79748">
        <ele>180.80000305176</ele>
        <time>2015-01-18T10:28:17.000Z</time>
      </trkpt>
      <trkpt lat="48.72165" lon="1.79754">
        <ele>180.80000305176</ele>
        <time>2015-01-18T10:28:24.000Z</time>
      </trkpt>
      <trkpt lat="48.72175" lon="1.79763">
        <ele>180.80000305176</ele>
        <time>2015-01-18T10:28:33.000Z</time>
      </trkpt>
      <trkpt lat="48.72182" lon="1.79769">
        <ele>180.80000305176</ele>
        <time>2015-01-18T10:28:38.000Z</time>
      </trkpt>
      <trkpt lat="48.72185" lon="1.79771">
        <ele>180.80000305176</ele>
        <time>2015-01-18T10:28:40.000Z</time>
      </trkpt>
      <trkpt lat="48.72191" lon="1.79774">
        <ele>180.80000305176</ele>
        <time>2015-01-18T10:28:45.000Z</time>
      </trkpt>
      <trkpt lat="48.72205" lon="1.79783">
        <ele>181</ele>
        <time>2015-01-18T10:28:54.000Z</time>
      </trkpt>
      <trkpt lat="48.72208" lon="1.79785">
        <ele>181</ele>
        <time>2015-01-18T10:28:57.000Z</time>
      </trkpt>
      <trkpt lat="48.72214" lon="1.7979">
        <ele>181.19999694824</ele>
        <time>2015-01-18T10:29:03.000Z</time>
      </trkpt>
      <trkpt lat="48.72217" lon="1.79792">
        <ele>181.19999694824</ele>
        <time>2015-01-18T10:29:05.000Z</time>
      </trkpt>
      <trkpt lat="48.72222" lon="1.79796">
        <ele>181.19999694824</ele>
        <time>2015-01-18T10:29:11.000Z</time>
      </trkpt>
      <trkpt lat="48.72223" lon="1.79796">
        <ele>181.19999694824</ele>
        <time>2015-01-18T10:29:13.000Z</time>
      </trkpt>
      <trkpt lat="48.72231" lon="1.79798">
        <ele>181.39999389648</ele>
        <time>2015-01-18T10:29:44.000Z</time>
      </trkpt>
      <trkpt lat="48.72238" lon="1.79802">
        <ele>181.60000610352</ele>
        <time>2015-01-18T10:29:49.000Z</time>
      </trkpt>
      <trkpt lat="48.72246" lon="1.79806">
        <ele>181.60000610352</ele>
        <time>2015-01-18T10:29:56.000Z</time>
      </trkpt>
      <trkpt lat="48.72257" lon="1.79815">
        <ele>181.80000305176</ele>
        <time>2015-01-18T10:30:05.000Z</time>
      </trkpt>
      <trkpt lat="48.72267" lon="1.79822">
        <ele>181.80000305176</ele>
        <time>2015-01-18T10:30:13.000Z</time>
      </trkpt>
      <trkpt lat="48.72277" lon="1.79827">
        <ele>182</ele>
        <time>2015-01-18T10:30:21.000Z</time>
      </trkpt>
      <trkpt lat="48.72285" lon="1.79833">
        <ele>182</ele>
        <time>2015-01-18T10:30:28.000Z</time>
      </trkpt>
      <trkpt lat="48.72292" lon="1.79841">
        <ele>181.80000305176</ele>
        <time>2015-01-18T10:30:35.000Z</time>
      </trkpt>
      <trkpt lat="48.72302" lon="1.79846">
        <ele>182</ele>
        <time>2015-01-18T10:30:43.000Z</time>
      </trkpt>
      <trkpt lat="48.72311" lon="1.79851">
        <ele>182</ele>
        <time>2015-01-18T10:30:51.000Z</time>
      </trkpt>
      <trkpt lat="48.72318" lon="1.79858">
        <ele>182</ele>
        <time>2015-01-18T10:30:58.000Z</time>
      </trkpt>
      <trkpt lat="48.72323" lon="1.79862">
        <ele>182</ele>
        <time>2015-01-18T10:31:02.000Z</time>
      </trkpt>
      <trkpt lat="48.72326" lon="1.79864">
        <ele>182</ele>
        <time>2015-01-18T10:31:04.000Z</time>
      </trkpt>
      <trkpt lat="48.72332" lon="1.79869">
        <ele>182</ele>
        <time>2015-01-18T10:31:10.000Z</time>
      </trkpt>
      <trkpt lat="48.72341" lon="1.79873">
        <ele>182</ele>
        <time>2015-01-18T10:31:17.000Z</time>
      </trkpt>
      <trkpt lat="48.7235" lon="1.7988">
        <ele>182</ele>
        <time>2015-01-18T10:31:25.000Z</time>
      </trkpt>
      <trkpt lat="48.72354" lon="1.79884">
        <ele>182</ele>
        <time>2015-01-18T10:31:29.000Z</time>
      </trkpt>
      <trkpt lat="48.7236" lon="1.79889">
        <ele>182</ele>
        <time>2015-01-18T10:31:35.000Z</time>
      </trkpt>
      <trkpt lat="48.72368" lon="1.79893">
        <ele>182.19999694824</ele>
        <time>2015-01-18T10:31:40.000Z</time>
      </trkpt>
      <trkpt lat="48.72373" lon="1.79895">
        <ele>182.39999389648</ele>
        <time>2015-01-18T10:31:44.000Z</time>
      </trkpt>
      <trkpt lat="48.7238" lon="1.79902">
        <ele>182.39999389648</ele>
        <time>2015-01-18T10:31:51.000Z</time>
      </trkpt>
      <trkpt lat="48.72387" lon="1.79908">
        <ele>182.39999389648</ele>
        <time>2015-01-18T10:31:58.000Z</time>
      </trkpt>
      <trkpt lat="48.7239" lon="1.79911">
        <ele>182.39999389648</ele>
        <time>2015-01-18T10:32:01.000Z</time>
      </trkpt>
      <trkpt lat="48.72398" lon="1.79917">
        <ele>182.60000610352</ele>
        <time>2015-01-18T10:32:10.000Z</time>
      </trkpt>
      <trkpt lat="48.72403" lon="1.79922">
        <ele>182.60000610352</ele>
        <time>2015-01-18T10:32:15.000Z</time>
      </trkpt>
      <trkpt lat="48.72409" lon="1.79926">
        <ele>182.60000610352</ele>
        <time>2015-01-18T10:32:20.000Z</time>
      </trkpt>
      <trkpt lat="48.7242" lon="1.79935">
        <ele>182.80000305176</ele>
        <time>2015-01-18T10:32:29.000Z</time>
      </trkpt>
      <trkpt lat="48.72428" lon="1.79941">
        <ele>182.80000305176</ele>
        <time>2015-01-18T10:32:36.000Z</time>
      </trkpt>
      <trkpt lat="48.72438" lon="1.79946">
        <ele>183</ele>
        <time>2015-01-18T10:32:43.000Z</time>
      </trkpt>
      <trkpt lat="48.72447" lon="1.79953">
        <ele>183</ele>
        <time>2015-01-18T10:32:50.000Z</time>
      </trkpt>
      <trkpt lat="48.72453" lon="1.79958">
        <ele>183</ele>
        <time>2015-01-18T10:32:55.000Z</time>
      </trkpt>
      <trkpt lat="48.7246" lon="1.79961">
        <ele>183.19999694824</ele>
        <time>2015-01-18T10:33:01.000Z</time>
      </trkpt>
      <trkpt lat="48.72468" lon="1.79967">
        <ele>183.19999694824</ele>
        <time>2015-01-18T10:33:08.000Z</time>
      </trkpt>
      <trkpt lat="48.72472" lon="1.79971">
        <ele>183.19999694824</ele>
        <time>2015-01-18T10:33:12.000Z</time>
      </trkpt>
      <trkpt lat="48.72476" lon="1.79975">
        <ele>183</ele>
        <time>2015-01-18T10:33:16.000Z</time>
      </trkpt>
      <trkpt lat="48.72482" lon="1.79978">
        <ele>183.19999694824</ele>
        <time>2015-01-18T10:33:21.000Z</time>
      </trkpt>
      <trkpt lat="48.7249" lon="1.79981">
        <ele>183.19999694824</ele>
        <time>2015-01-18T10:33:27.000Z</time>
      </trkpt>
      <trkpt lat="48.72495" lon="1.79984">
        <ele>183.19999694824</ele>
        <time>2015-01-18T10:33:31.000Z</time>
      </trkpt>
      <trkpt lat="48.72502" lon="1.79988">
        <ele>183.39999389648</ele>
        <time>2015-01-18T10:33:36.000Z</time>
      </trkpt>
      <trkpt lat="48.7251" lon="1.79995">
        <ele>183.19999694824</ele>
        <time>2015-01-18T10:33:45.000Z</time>
      </trkpt>
      <trkpt lat="48.72512" lon="1.79997">
        <ele>183.19999694824</ele>
        <time>2015-01-18T10:33:47.000Z</time>
      </trkpt>
      <trkpt lat="48.72517" lon="1.79999">
        <ele>183</ele>
        <time>2015-01-18T10:33:51.000Z</time>
      </trkpt>
      <trkpt lat="48.72527" lon="1.80007">
        <ele>182.60000610352</ele>
        <time>2015-01-18T10:33:59.000Z</time>
      </trkpt>
      <trkpt lat="48.72536" lon="1.80015">
        <ele>182</ele>
        <time>2015-01-18T10:34:07.000Z</time>
      </trkpt>
      <trkpt lat="48.72549" lon="1.8002">
        <ele>181.80000305176</ele>
        <time>2015-01-18T10:34:15.000Z</time>
      </trkpt>
      <trkpt lat="48.72554" lon="1.80024">
        <ele>181.39999389648</ele>
        <time>2015-01-18T10:34:20.000Z</time>
      </trkpt>
      <trkpt lat="48.72556" lon="1.80026">
        <ele>181.19999694824</ele>
        <time>2015-01-18T10:34:22.000Z</time>
      </trkpt>
      <trkpt lat="48.72566" lon="1.80033">
        <ele>180.80000305176</ele>
        <time>2015-01-18T10:34:30.000Z</time>
      </trkpt>
      <trkpt lat="48.72576" lon="1.8004">
        <ele>180.19999694824</ele>
        <time>2015-01-18T10:34:38.000Z</time>
      </trkpt>
      <trkpt lat="48.72583" lon="1.80046">
        <ele>179.80000305176</ele>
        <time>2015-01-18T10:34:44.000Z</time>
      </trkpt>
      <trkpt lat="48.72591" lon="1.80054">
        <ele>179.19999694824</ele>
        <time>2015-01-18T10:34:52.000Z</time>
      </trkpt>
      <trkpt lat="48.72598" lon="1.80058">
        <ele>178.80000305176</ele>
        <time>2015-01-18T10:34:59.000Z</time>
      </trkpt>
      <trkpt lat="48.72607" lon="1.80064">
        <ele>178.60000610352</ele>
        <time>2015-01-18T10:35:07.000Z</time>
      </trkpt>
      <trkpt lat="48.72616" lon="1.8007">
        <ele>178.19999694824</ele>
        <time>2015-01-18T10:35:13.000Z</time>
      </trkpt>
      <trkpt lat="48.7262" lon="1.80075">
        <ele>178</ele>
        <time>2015-01-18T10:35:17.000Z</time>
      </trkpt>
      <trkpt lat="48.72628" lon="1.8008">
        <ele>178</ele>
        <time>2015-01-18T10:35:23.000Z</time>
      </trkpt>
      <trkpt lat="48.72631" lon="1.80082">
        <ele>178</ele>
        <time>2015-01-18T10:35:25.000Z</time>
      </trkpt>
      <trkpt lat="48.7264" lon="1.80088">
        <ele>177.80000305176</ele>
        <time>2015-01-18T10:35:33.000Z</time>
      </trkpt>
      <trkpt lat="48.72651" lon="1.80092">
        <ele>177.80000305176</ele>
        <time>2015-01-18T10:35:40.000Z</time>
      </trkpt>
      <trkpt lat="48.72658" lon="1.80096">
        <ele>177.80000305176</ele>
        <time>2015-01-18T10:35:45.000Z</time>
      </trkpt>
      <trkpt lat="48.72664" lon="1.80101">
        <ele>177.60000610352</ele>
        <time>2015-01-18T10:35:51.000Z</time>
      </trkpt>
      <trkpt lat="48.72669" lon="1.80107">
        <ele>177.60000610352</ele>
        <time>2015-01-18T10:35:56.000Z</time>
      </trkpt>
      <trkpt lat="48.72677" lon="1.8011">
        <ele>177.60000610352</ele>
        <time>2015-01-18T10:36:02.000Z</time>
      </trkpt>
      <trkpt lat="48.72683" lon="1.8011">
        <ele>177.60000610352</ele>
        <time>2015-01-18T10:36:07.000Z</time>
      </trkpt>
      <trkpt lat="48.72686" lon="1.80111">
        <ele>177.60000610352</ele>
        <time>2015-01-18T10:36:09.000Z</time>
      </trkpt>
      <trkpt lat="48.72693" lon="1.80122">
        <ele>176.80000305176</ele>
        <time>2015-01-18T10:36:17.000Z</time>
      </trkpt>
      <trkpt lat="48.72694" lon="1.80124">
        <ele>176.80000305176</ele>
        <time>2015-01-18T10:36:18.000Z</time>
      </trkpt>
      <trkpt lat="48.727" lon="1.80127">
        <ele>176.39999389648</ele>
        <time>2015-01-18T10:36:22.000Z</time>
      </trkpt>
      <trkpt lat="48.72706" lon="1.8013">
        <ele>176</ele>
        <time>2015-01-18T10:36:27.000Z</time>
      </trkpt>
      <trkpt lat="48.72709" lon="1.80133">
        <ele>175.80000305176</ele>
        <time>2015-01-18T10:36:30.000Z</time>
      </trkpt>
      <trkpt lat="48.72716" lon="1.80139">
        <ele>175.19999694824</ele>
        <time>2015-01-18T10:36:36.000Z</time>
      </trkpt>
      <trkpt lat="48.72725" lon="1.80145">
        <ele>174.60000610352</ele>
        <time>2015-01-18T10:36:43.000Z</time>
      </trkpt>
      <trkpt lat="48.72731" lon="1.80149">
        <ele>174.19999694824</ele>
        <time>2015-01-18T10:36:48.000Z</time>
      </trkpt>
      <trkpt lat="48.72737" lon="1.80152">
        <ele>173.60000610352</ele>
        <time>2015-01-18T10:36:53.000Z</time>
      </trkpt>
      <trkpt lat="48.72752" lon="1.80162">
        <ele>173</ele>
        <time>2015-01-18T10:37:05.000Z</time>
      </trkpt>
      <trkpt lat="48.72765" lon="1.80171">
        <ele>172.19999694824</ele>
        <time>2015-01-18T10:37:16.000Z</time>
      </trkpt>
      <trkpt lat="48.72775" lon="1.8018">
        <ele>172</ele>
        <time>2015-01-18T10:37:25.000Z</time>
      </trkpt>
      <trkpt lat="48.72788" lon="1.8019">
        <ele>172</ele>
        <time>2015-01-18T10:37:36.000Z</time>
      </trkpt>
      <trkpt lat="48.72802" lon="1.802">
        <ele>172</ele>
        <time>2015-01-18T10:37:47.000Z</time>
      </trkpt>
      <trkpt lat="48.72812" lon="1.80207">
        <ele>172</ele>
        <time>2015-01-18T10:37:55.000Z</time>
      </trkpt>
      <trkpt lat="48.72823" lon="1.80213">
        <ele>172</ele>
        <time>2015-01-18T10:38:04.000Z</time>
      </trkpt>
      <trkpt lat="48.72834" lon="1.8022">
        <ele>172</ele>
        <time>2015-01-18T10:38:13.000Z</time>
      </trkpt>
      <trkpt lat="48.72844" lon="1.80228">
        <ele>172</ele>
        <time>2015-01-18T10:38:21.000Z</time>
      </trkpt>
      <trkpt lat="48.7286" lon="1.8024">
        <ele>172.39999389648</ele>
        <time>2015-01-18T10:38:34.000Z</time>
      </trkpt>
      <trkpt lat="48.72872" lon="1.80247">
        <ele>173.19999694824</ele>
        <time>2015-01-18T10:38:43.000Z</time>
      </trkpt>
      <trkpt lat="48.72886" lon="1.80254">
        <ele>174.19999694824</ele>
        <time>2015-01-18T10:38:54.000Z</time>
      </trkpt>
      <trkpt lat="48.72901" lon="1.80267">
        <ele>175</ele>
        <time>2015-01-18T10:39:06.000Z</time>
      </trkpt>
      <trkpt lat="48.72905" lon="1.80271">
        <ele>175.19999694824</ele>
        <time>2015-01-18T10:39:10.000Z</time>
      </trkpt>
      <trkpt lat="48.72914" lon="1.80279">
        <ele>175.80000305176</ele>
        <time>2015-01-18T10:39:17.000Z</time>
      </trkpt>
      <trkpt lat="48.72923" lon="1.80283">
        <ele>176.39999389648</ele>
        <time>2015-01-18T10:39:24.000Z</time>
      </trkpt>
      <trkpt lat="48.72932" lon="1.8029">
        <ele>177</ele>
        <time>2015-01-18T10:39:32.000Z</time>
      </trkpt>
      <trkpt lat="48.72941" lon="1.80296">
        <ele>177.39999389648</ele>
        <time>2015-01-18T10:39:40.000Z</time>
      </trkpt>
      <trkpt lat="48.72951" lon="1.80303">
        <ele>177.39999389648</ele>
        <time>2015-01-18T10:39:48.000Z</time>
      </trkpt>
      <trkpt lat="48.7296" lon="1.80309">
        <ele>177.39999389648</ele>
        <time>2015-01-18T10:39:56.000Z</time>
      </trkpt>
      <trkpt lat="48.7297" lon="1.80315">
        <ele>177.39999389648</ele>
        <time>2015-01-18T10:40:04.000Z</time>
      </trkpt>
      <trkpt lat="48.72976" lon="1.80321">
        <ele>177.39999389648</ele>
        <time>2015-01-18T10:40:10.000Z</time>
      </trkpt>
      <trkpt lat="48.72986" lon="1.80328">
        <ele>177.60000610352</ele>
        <time>2015-01-18T10:40:18.000Z</time>
      </trkpt>
      <trkpt lat="48.72996" lon="1.80334">
        <ele>177.80000305176</ele>
        <time>2015-01-18T10:40:25.000Z</time>
      </trkpt>
      <trkpt lat="48.73007" lon="1.8034">
        <ele>177.80000305176</ele>
        <time>2015-01-18T10:40:32.000Z</time>
      </trkpt>
      <trkpt lat="48.73017" lon="1.80346">
        <ele>178</ele>
        <time>2015-01-18T10:40:40.000Z</time>
      </trkpt>
      <trkpt lat="48.73027" lon="1.80352">
        <ele>178.19999694824</ele>
        <time>2015-01-18T10:40:48.000Z</time>
      </trkpt>
      <trkpt lat="48.73034" lon="1.80357">
        <ele>178.60000610352</ele>
        <time>2015-01-18T10:40:56.000Z</time>
      </trkpt>
      <trkpt lat="48.7304" lon="1.80364">
        <ele>178.80000305176</ele>
        <time>2015-01-18T10:41:03.000Z</time>
      </trkpt>
      <trkpt lat="48.73047" lon="1.80369">
        <ele>179</ele>
        <time>2015-01-18T10:41:10.000Z</time>
      </trkpt>
      <trkpt lat="48.7305" lon="1.8037">
        <ele>179</ele>
        <time>2015-01-18T10:41:12.000Z</time>
      </trkpt>
      <trkpt lat="48.73059" lon="1.80378">
        <ele>179.39999389648</ele>
        <time>2015-01-18T10:41:21.000Z</time>
      </trkpt>
      <trkpt lat="48.7307" lon="1.80385">
        <ele>179.80000305176</ele>
        <time>2015-01-18T10:41:29.000Z</time>
      </trkpt>
      <trkpt lat="48.73081" lon="1.80392">
        <ele>180.19999694824</ele>
        <time>2015-01-18T10:41:38.000Z</time>
      </trkpt>
      <trkpt lat="48.73092" lon="1.80399">
        <ele>180.60000610352</ele>
        <time>2015-01-18T10:41:47.000Z</time>
      </trkpt>
      <trkpt lat="48.73099" lon="1.80404">
        <ele>180.80000305176</ele>
        <time>2015-01-18T10:41:53.000Z</time>
      </trkpt>
      <trkpt lat="48.73107" lon="1.80412">
        <ele>181</ele>
        <time>2015-01-18T10:42:00.000Z</time>
      </trkpt>
      <trkpt lat="48.73117" lon="1.80422">
        <ele>181.39999389648</ele>
        <time>2015-01-18T10:42:10.000Z</time>
      </trkpt>
      <trkpt lat="48.73126" lon="1.80429">
        <ele>181.80000305176</ele>
        <time>2015-01-18T10:42:17.000Z</time>
      </trkpt>
      <trkpt lat="48.73135" lon="1.80437">
        <ele>182</ele>
        <time>2015-01-18T10:42:25.000Z</time>
      </trkpt>
      <trkpt lat="48.73145" lon="1.80446">
        <ele>182.39999389648</ele>
        <time>2015-01-18T10:42:34.000Z</time>
      </trkpt>
      <trkpt lat="48.73152" lon="1.80451">
        <ele>182.60000610352</ele>
        <time>2015-01-18T10:42:40.000Z</time>
      </trkpt>
      <trkpt lat="48.73163" lon="1.80461">
        <ele>183</ele>
        <time>2015-01-18T10:42:50.000Z</time>
      </trkpt>
      <trkpt lat="48.73174" lon="1.80471">
        <ele>183.39999389648</ele>
        <time>2015-01-18T10:42:59.000Z</time>
      </trkpt>
      <trkpt lat="48.73176" lon="1.80472">
        <ele>183.39999389648</ele>
        <time>2015-01-18T10:43:00.000Z</time>
      </trkpt>
      <trkpt lat="48.73178" lon="1.80474">
        <ele>183.39999389648</ele>
        <time>2015-01-18T10:43:02.000Z</time>
      </trkpt>
      <trkpt lat="48.7319" lon="1.80483">
        <ele>184.19999694824</ele>
        <time>2015-01-18T10:43:12.000Z</time>
      </trkpt>
      <trkpt lat="48.732" lon="1.80492">
        <ele>185.19999694824</ele>
        <time>2015-01-18T10:43:20.000Z</time>
      </trkpt>
      <trkpt lat="48.73209" lon="1.805">
        <ele>186.19999694824</ele>
        <time>2015-01-18T10:43:28.000Z</time>
      </trkpt>
      <trkpt lat="48.73216" lon="1.80506">
        <ele>187</ele>
        <time>2015-01-18T10:43:34.000Z</time>
      </trkpt>
      <trkpt lat="48.73217" lon="1.80506">
        <ele>187</ele>
        <time>2015-01-18T10:43:35.000Z</time>
      </trkpt>
      <trkpt lat="48.73226" lon="1.80515">
        <ele>188</ele>
        <time>2015-01-18T10:43:43.000Z</time>
      </trkpt>
      <trkpt lat="48.73229" lon="1.80518">
        <ele>188.39999389648</ele>
        <time>2015-01-18T10:43:46.000Z</time>
      </trkpt>
      <trkpt lat="48.73237" lon="1.80523">
        <ele>189.19999694824</ele>
        <time>2015-01-18T10:43:52.000Z</time>
      </trkpt>
      <trkpt lat="48.73244" lon="1.80529">
        <ele>190</ele>
        <time>2015-01-18T10:43:58.000Z</time>
      </trkpt>
      <trkpt lat="48.73254" lon="1.80537">
        <ele>191</ele>
        <time>2015-01-18T10:44:06.000Z</time>
      </trkpt>
      <trkpt lat="48.73263" lon="1.80547">
        <ele>192</ele>
        <time>2015-01-18T10:44:15.000Z</time>
      </trkpt>
      <trkpt lat="48.73269" lon="1.80553">
        <ele>192.60000610352</ele>
        <time>2015-01-18T10:44:21.000Z</time>
      </trkpt>
      <trkpt lat="48.73277" lon="1.80562">
        <ele>193</ele>
        <time>2015-01-18T10:44:29.000Z</time>
      </trkpt>
      <trkpt lat="48.73278" lon="1.80563">
        <ele>193</ele>
        <time>2015-01-18T10:44:30.000Z</time>
      </trkpt>
      <trkpt lat="48.73288" lon="1.80569">
        <ele>193.39999389648</ele>
        <time>2015-01-18T10:44:37.000Z</time>
      </trkpt>
      <trkpt lat="48.73292" lon="1.80573">
        <ele>193.60000610352</ele>
        <time>2015-01-18T10:44:40.000Z</time>
      </trkpt>
      <trkpt lat="48.73297" lon="1.80579">
        <ele>193.80000305176</ele>
        <time>2015-01-18T10:44:45.000Z</time>
      </trkpt>
      <trkpt lat="48.73303" lon="1.80584">
        <ele>194</ele>
        <time>2015-01-18T10:44:51.000Z</time>
      </trkpt>
      <trkpt lat="48.73311" lon="1.80592">
        <ele>194.19999694824</ele>
        <time>2015-01-18T10:44:58.000Z</time>
      </trkpt>
      <trkpt lat="48.73317" lon="1.80596">
        <ele>194.39999389648</ele>
        <time>2015-01-18T10:45:02.000Z</time>
      </trkpt>
      <trkpt lat="48.73322" lon="1.80602">
        <ele>194.60000610352</ele>
        <time>2015-01-18T10:45:07.000Z</time>
      </trkpt>
      <trkpt lat="48.73331" lon="1.80609">
        <ele>194.80000305176</ele>
        <time>2015-01-18T10:45:14.000Z</time>
      </trkpt>
      <trkpt lat="48.73336" lon="1.80616">
        <ele>195.19999694824</ele>
        <time>2015-01-18T10:45:19.000Z</time>
      </trkpt>
      <trkpt lat="48.73338" lon="1.80619">
        <ele>195.19999694824</ele>
        <time>2015-01-18T10:45:21.000Z</time>
      </trkpt>
      <trkpt lat="48.73347" lon="1.80625">
        <ele>195.39999389648</ele>
        <time>2015-01-18T10:45:28.000Z</time>
      </trkpt>
      <trkpt lat="48.73354" lon="1.80633">
        <ele>195.80000305176</ele>
        <time>2015-01-18T10:45:35.000Z</time>
      </trkpt>
      <trkpt lat="48.73358" lon="1.80638">
        <ele>195.60000610352</ele>
        <time>2015-01-18T10:45:39.000Z</time>
      </trkpt>
      <trkpt lat="48.73366" lon="1.80645">
        <ele>195.39999389648</ele>
        <time>2015-01-18T10:45:45.000Z</time>
      </trkpt>
      <trkpt lat="48.73375" lon="1.80653">
        <ele>195.19999694824</ele>
        <time>2015-01-18T10:45:52.000Z</time>
      </trkpt>
      <trkpt lat="48.73387" lon="1.80659">
        <ele>195</ele>
        <time>2015-01-18T10:45:59.000Z</time>
      </trkpt>
      <trkpt lat="48.73389" lon="1.80661">
        <ele>194.80000305176</ele>
        <time>2015-01-18T10:46:01.000Z</time>
      </trkpt>
      <trkpt lat="48.73395" lon="1.8067">
        <ele>194.80000305176</ele>
        <time>2015-01-18T10:46:07.000Z</time>
      </trkpt>
      <trkpt lat="48.73399" lon="1.80673">
        <ele>194.80000305176</ele>
        <time>2015-01-18T10:46:10.000Z</time>
      </trkpt>
      <trkpt lat="48.73404" lon="1.8068">
        <ele>194.80000305176</ele>
        <time>2015-01-18T10:46:16.000Z</time>
      </trkpt>
      <trkpt lat="48.73406" lon="1.80683">
        <ele>194.80000305176</ele>
        <time>2015-01-18T10:46:18.000Z</time>
      </trkpt>
      <trkpt lat="48.73411" lon="1.8069">
        <ele>194.80000305176</ele>
        <time>2015-01-18T10:46:24.000Z</time>
      </trkpt>
      <trkpt lat="48.73416" lon="1.80697">
        <ele>194.80000305176</ele>
        <time>2015-01-18T10:46:29.000Z</time>
      </trkpt>
      <trkpt lat="48.73418" lon="1.807">
        <ele>194.80000305176</ele>
        <time>2015-01-18T10:46:31.000Z</time>
      </trkpt>
      <trkpt lat="48.73426" lon="1.80704">
        <ele>194.60000610352</ele>
        <time>2015-01-18T10:46:36.000Z</time>
      </trkpt>
      <trkpt lat="48.7343" lon="1.80708">
        <ele>194.60000610352</ele>
        <time>2015-01-18T10:46:43.000Z</time>
      </trkpt>
      <trkpt lat="48.73441" lon="1.80714">
        <ele>194.39999389648</ele>
        <time>2015-01-18T10:47:02.000Z</time>
      </trkpt>
      <trkpt lat="48.73446" lon="1.80715">
        <ele>194.19999694824</ele>
        <time>2015-01-18T10:47:05.000Z</time>
      </trkpt>
      <trkpt lat="48.73455" lon="1.80721">
        <ele>194.19999694824</ele>
        <time>2015-01-18T10:47:12.000Z</time>
      </trkpt>
      <trkpt lat="48.73462" lon="1.80729">
        <ele>194.19999694824</ele>
        <time>2015-01-18T10:47:19.000Z</time>
      </trkpt>
      <trkpt lat="48.73467" lon="1.80736">
        <ele>194.19999694824</ele>
        <time>2015-01-18T10:47:25.000Z</time>
      </trkpt>
      <trkpt lat="48.73474" lon="1.80745">
        <ele>194.19999694824</ele>
        <time>2015-01-18T10:47:31.000Z</time>
      </trkpt>
      <trkpt lat="48.73475" lon="1.80746">
        <ele>194.19999694824</ele>
        <time>2015-01-18T10:47:32.000Z</time>
      </trkpt>
      <trkpt lat="48.73485" lon="1.80757">
        <ele>194.19999694824</ele>
        <time>2015-01-18T10:47:41.000Z</time>
      </trkpt>
      <trkpt lat="48.73492" lon="1.80766">
        <ele>194.39999389648</ele>
        <time>2015-01-18T10:47:48.000Z</time>
      </trkpt>
      <trkpt lat="48.73503" lon="1.80772">
        <ele>194.19999694824</ele>
        <time>2015-01-18T10:47:57.000Z</time>
      </trkpt>
      <trkpt lat="48.73509" lon="1.80776">
        <ele>194.19999694824</ele>
        <time>2015-01-18T10:48:01.000Z</time>
      </trkpt>
      <trkpt lat="48.73517" lon="1.80785">
        <ele>194.19999694824</ele>
        <time>2015-01-18T10:48:08.000Z</time>
      </trkpt>
      <trkpt lat="48.73519" lon="1.80788">
        <ele>194.19999694824</ele>
        <time>2015-01-18T10:48:10.000Z</time>
      </trkpt>
      <trkpt lat="48.73527" lon="1.80798">
        <ele>194.19999694824</ele>
        <time>2015-01-18T10:48:18.000Z</time>
      </trkpt>
      <trkpt lat="48.73533" lon="1.80805">
        <ele>194.19999694824</ele>
        <time>2015-01-18T10:48:24.000Z</time>
      </trkpt>
      <trkpt lat="48.73543" lon="1.80813">
        <ele>194</ele>
        <time>2015-01-18T10:48:31.000Z</time>
      </trkpt>
      <trkpt lat="48.73551" lon="1.8082">
        <ele>193.80000305176</ele>
        <time>2015-01-18T10:48:38.000Z</time>
      </trkpt>
      <trkpt lat="48.73558" lon="1.80828">
        <ele>193.60000610352</ele>
        <time>2015-01-18T10:48:46.000Z</time>
      </trkpt>
      <trkpt lat="48.73566" lon="1.80836">
        <ele>193.39999389648</ele>
        <time>2015-01-18T10:48:53.000Z</time>
      </trkpt>
      <trkpt lat="48.73572" lon="1.80839">
        <ele>193.19999694824</ele>
        <time>2015-01-18T10:48:58.000Z</time>
      </trkpt>
      <trkpt lat="48.73581" lon="1.80837">
        <ele>192.80000305176</ele>
        <time>2015-01-18T10:49:05.000Z</time>
      </trkpt>
      <trkpt lat="48.73585" lon="1.80839">
        <ele>192.60000610352</ele>
        <time>2015-01-18T10:49:10.000Z</time>
      </trkpt>
      <trkpt lat="48.73586" lon="1.80827">
        <ele>192.60000610352</ele>
        <time>2015-01-18T10:51:01.000Z</time>
      </trkpt>
      <trkpt lat="48.73584" lon="1.80811">
        <ele>192.39999389648</ele>
        <time>2015-01-18T10:51:08.000Z</time>
      </trkpt>
      <trkpt lat="48.73584" lon="1.80807">
        <ele>192.39999389648</ele>
        <time>2015-01-18T10:51:10.000Z</time>
      </trkpt>
      <trkpt lat="48.73582" lon="1.80798">
        <ele>192.39999389648</ele>
        <time>2015-01-18T10:51:14.000Z</time>
      </trkpt>
      <trkpt lat="48.73583" lon="1.80792">
        <ele>192.60000610352</ele>
        <time>2015-01-18T10:51:17.000Z</time>
      </trkpt>
      <trkpt lat="48.73583" lon="1.80787">
        <ele>192.80000305176</ele>
        <time>2015-01-18T10:51:20.000Z</time>
      </trkpt>
      <trkpt lat="48.73582" lon="1.80777">
        <ele>193.19999694824</ele>
        <time>2015-01-18T10:51:25.000Z</time>
      </trkpt>
      <trkpt lat="48.73585" lon="1.8076">
        <ele>193.80000305176</ele>
        <time>2015-01-18T10:51:32.000Z</time>
      </trkpt>
      <trkpt lat="48.73585" lon="1.80755">
        <ele>194</ele>
        <time>2015-01-18T10:51:34.000Z</time>
      </trkpt>
      <trkpt lat="48.73584" lon="1.80734">
        <ele>194.60000610352</ele>
        <time>2015-01-18T10:51:43.000Z</time>
      </trkpt>
      <trkpt lat="48.73584" lon="1.8073">
        <ele>194.60000610352</ele>
        <time>2015-01-18T10:51:45.000Z</time>
      </trkpt>
      <trkpt lat="48.73583" lon="1.8072">
        <ele>194.80000305176</ele>
        <time>2015-01-18T10:51:49.000Z</time>
      </trkpt>
      <trkpt lat="48.73582" lon="1.80702">
        <ele>195</ele>
        <time>2015-01-18T10:51:56.000Z</time>
      </trkpt>
      <trkpt lat="48.7358" lon="1.80686">
        <ele>195</ele>
        <time>2015-01-18T10:52:03.000Z</time>
      </trkpt>
      <trkpt lat="48.73579" lon="1.80673">
        <ele>195.19999694824</ele>
        <time>2015-01-18T10:52:10.000Z</time>
      </trkpt>
      <trkpt lat="48.73577" lon="1.80656">
        <ele>195.39999389648</ele>
        <time>2015-01-18T10:52:17.000Z</time>
      </trkpt>
      <trkpt lat="48.73577" lon="1.80642">
        <ele>195.60000610352</ele>
        <time>2015-01-18T10:52:24.000Z</time>
      </trkpt>
      <trkpt lat="48.73576" lon="1.80622">
        <ele>195.80000305176</ele>
        <time>2015-01-18T10:52:32.000Z</time>
      </trkpt>
      <trkpt lat="48.73575" lon="1.80616">
        <ele>195.80000305176</ele>
        <time>2015-01-18T10:52:35.000Z</time>
      </trkpt>
      <trkpt lat="48.73575" lon="1.80607">
        <ele>195.80000305176</ele>
        <time>2015-01-18T10:52:39.000Z</time>
      </trkpt>
      <trkpt lat="48.73577" lon="1.80586">
        <ele>196.19999694824</ele>
        <time>2015-01-18T10:52:48.000Z</time>
      </trkpt>
      <trkpt lat="48.73576" lon="1.80575">
        <ele>196.19999694824</ele>
        <time>2015-01-18T10:52:53.000Z</time>
      </trkpt>
      <trkpt lat="48.73575" lon="1.80567">
        <ele>196.39999389648</ele>
        <time>2015-01-18T10:52:57.000Z</time>
      </trkpt>
      <trkpt lat="48.73573" lon="1.80543">
        <ele>196.60000610352</ele>
        <time>2015-01-18T10:53:07.000Z</time>
      </trkpt>
      <trkpt lat="48.73573" lon="1.80532">
        <ele>196.60000610352</ele>
        <time>2015-01-18T10:53:11.000Z</time>
      </trkpt>
      <trkpt lat="48.73571" lon="1.80523">
        <ele>196.39999389648</ele>
        <time>2015-01-18T10:53:15.000Z</time>
      </trkpt>
      <trkpt lat="48.73569" lon="1.80506">
        <ele>196.19999694824</ele>
        <time>2015-01-18T10:53:23.000Z</time>
      </trkpt>
      <trkpt lat="48.73567" lon="1.80487">
        <ele>196</ele>
        <time>2015-01-18T10:53:31.000Z</time>
      </trkpt>
      <trkpt lat="48.73566" lon="1.80475">
        <ele>195.60000610352</ele>
        <time>2015-01-18T10:53:36.000Z</time>
      </trkpt>
      <trkpt lat="48.73565" lon="1.80457">
        <ele>194.80000305176</ele>
        <time>2015-01-18T10:53:44.000Z</time>
      </trkpt>
      <trkpt lat="48.73567" lon="1.80445">
        <ele>194.60000610352</ele>
        <time>2015-01-18T10:53:50.000Z</time>
      </trkpt>
      <trkpt lat="48.73566" lon="1.80429">
        <ele>194.39999389648</ele>
        <time>2015-01-18T10:53:59.000Z</time>
      </trkpt>
      <trkpt lat="48.73565" lon="1.80418">
        <ele>194.19999694824</ele>
        <time>2015-01-18T10:54:06.000Z</time>
      </trkpt>
      <trkpt lat="48.73563" lon="1.80402">
        <ele>194</ele>
        <time>2015-01-18T10:54:13.000Z</time>
      </trkpt>
      <trkpt lat="48.73561" lon="1.8038">
        <ele>194.19999694824</ele>
        <time>2015-01-18T10:54:21.000Z</time>
      </trkpt>
      <trkpt lat="48.7356" lon="1.80357">
        <ele>194.60000610352</ele>
        <time>2015-01-18T10:54:29.000Z</time>
      </trkpt>
      <trkpt lat="48.73559" lon="1.80337">
        <ele>194.80000305176</ele>
        <time>2015-01-18T10:54:36.000Z</time>
      </trkpt>
      <trkpt lat="48.73559" lon="1.80312">
        <ele>195</ele>
        <time>2015-01-18T10:54:45.000Z</time>
      </trkpt>
      <trkpt lat="48.73558" lon="1.80293">
        <ele>195</ele>
        <time>2015-01-18T10:54:53.000Z</time>
      </trkpt>
      <trkpt lat="48.73558" lon="1.8027">
        <ele>194.80000305176</ele>
        <time>2015-01-18T10:55:02.000Z</time>
      </trkpt>
      <trkpt lat="48.73557" lon="1.8025">
        <ele>194.19999694824</ele>
        <time>2015-01-18T10:55:10.000Z</time>
      </trkpt>
      <trkpt lat="48.73557" lon="1.80233">
        <ele>194</ele>
        <time>2015-01-18T10:55:17.000Z</time>
      </trkpt>
      <trkpt lat="48.73557" lon="1.80223">
        <ele>193.80000305176</ele>
        <time>2015-01-18T10:55:21.000Z</time>
      </trkpt>
      <trkpt lat="48.73555" lon="1.80217">
        <ele>193.80000305176</ele>
        <time>2015-01-18T10:55:30.000Z</time>
      </trkpt>
      <trkpt lat="48.73554" lon="1.80207">
        <ele>193.60000610352</ele>
        <time>2015-01-18T10:55:40.000Z</time>
      </trkpt>
      <trkpt lat="48.73552" lon="1.80189">
        <ele>193.39999389648</ele>
        <time>2015-01-18T10:55:44.000Z</time>
      </trkpt>
      <trkpt lat="48.73551" lon="1.80169">
        <ele>193.39999389648</ele>
        <time>2015-01-18T10:55:50.000Z</time>
      </trkpt>
      <trkpt lat="48.73551" lon="1.80158">
        <ele>193.39999389648</ele>
        <time>2015-01-18T10:55:55.000Z</time>
      </trkpt>
      <trkpt lat="48.7355" lon="1.80147">
        <ele>193.19999694824</ele>
        <time>2015-01-18T10:56:01.000Z</time>
      </trkpt>
      <trkpt lat="48.73548" lon="1.80125">
        <ele>193</ele>
        <time>2015-01-18T10:56:11.000Z</time>
      </trkpt>
      <trkpt lat="48.73548" lon="1.80116">
        <ele>192.80000305176</ele>
        <time>2015-01-18T10:56:15.000Z</time>
      </trkpt>
      <trkpt lat="48.73546" lon="1.80099">
        <ele>192.60000610352</ele>
        <time>2015-01-18T10:56:24.000Z</time>
      </trkpt>
      <trkpt lat="48.73546" lon="1.80095">
        <ele>192.60000610352</ele>
        <time>2015-01-18T10:56:26.000Z</time>
      </trkpt>
      <trkpt lat="48.73546" lon="1.80078">
        <ele>192</ele>
        <time>2015-01-18T10:56:34.000Z</time>
      </trkpt>
      <trkpt lat="48.73544" lon="1.80062">
        <ele>191.80000305176</ele>
        <time>2015-01-18T10:56:40.000Z</time>
      </trkpt>
      <trkpt lat="48.73543" lon="1.80046">
        <ele>191.80000305176</ele>
        <time>2015-01-18T10:56:46.000Z</time>
      </trkpt>
      <trkpt lat="48.73543" lon="1.80034">
        <ele>191.80000305176</ele>
        <time>2015-01-18T10:56:51.000Z</time>
      </trkpt>
      <trkpt lat="48.73542" lon="1.80021">
        <ele>191.80000305176</ele>
        <time>2015-01-18T10:56:57.000Z</time>
      </trkpt>
      <trkpt lat="48.73541" lon="1.79999">
        <ele>191.60000610352</ele>
        <time>2015-01-18T10:57:07.000Z</time>
      </trkpt>
      <trkpt lat="48.7354" lon="1.7999">
        <ele>191.39999389648</ele>
        <time>2015-01-18T10:57:11.000Z</time>
      </trkpt>
      <trkpt lat="48.73539" lon="1.79983">
        <ele>191.39999389648</ele>
        <time>2015-01-18T10:57:14.000Z</time>
      </trkpt>
      <trkpt lat="48.7354" lon="1.79972">
        <ele>191.60000610352</ele>
        <time>2015-01-18T10:57:19.000Z</time>
      </trkpt>
      <trkpt lat="48.7354" lon="1.79968">
        <ele>191.60000610352</ele>
        <time>2015-01-18T10:57:21.000Z</time>
      </trkpt>
      <trkpt lat="48.7354" lon="1.79953">
        <ele>191.80000305176</ele>
        <time>2015-01-18T10:57:27.000Z</time>
      </trkpt>
      <trkpt lat="48.73539" lon="1.79938">
        <ele>192</ele>
        <time>2015-01-18T10:57:33.000Z</time>
      </trkpt>
      <trkpt lat="48.73539" lon="1.7993">
        <ele>192</ele>
        <time>2015-01-18T10:57:36.000Z</time>
      </trkpt>
      <trkpt lat="48.73538" lon="1.79911">
        <ele>192</ele>
        <time>2015-01-18T10:57:44.000Z</time>
      </trkpt>
      <trkpt lat="48.73538" lon="1.79903">
        <ele>192</ele>
        <time>2015-01-18T10:57:48.000Z</time>
      </trkpt>
      <trkpt lat="48.73535" lon="1.79888">
        <ele>192.60000610352</ele>
        <time>2015-01-18T10:57:54.000Z</time>
      </trkpt>
      <trkpt lat="48.73534" lon="1.79866">
        <ele>193.19999694824</ele>
        <time>2015-01-18T10:58:02.000Z</time>
      </trkpt>
      <trkpt lat="48.73534" lon="1.79853">
        <ele>193.39999389648</ele>
        <time>2015-01-18T10:58:08.000Z</time>
      </trkpt>
      <trkpt lat="48.73533" lon="1.7983">
        <ele>194</ele>
        <time>2015-01-18T10:58:17.000Z</time>
      </trkpt>
      <trkpt lat="48.73532" lon="1.79807">
        <ele>193.80000305176</ele>
        <time>2015-01-18T10:58:27.000Z</time>
      </trkpt>
      <trkpt lat="48.73531" lon="1.79794">
        <ele>193.60000610352</ele>
        <time>2015-01-18T10:58:32.000Z</time>
      </trkpt>
      <trkpt lat="48.73529" lon="1.79777">
        <ele>193.39999389648</ele>
        <time>2015-01-18T10:58:38.000Z</time>
      </trkpt>
      <trkpt lat="48.73529" lon="1.7976">
        <ele>193</ele>
        <time>2015-01-18T10:58:44.000Z</time>
      </trkpt>
      <trkpt lat="48.73529" lon="1.79741">
        <ele>192.60000610352</ele>
        <time>2015-01-18T10:58:51.000Z</time>
      </trkpt>
      <trkpt lat="48.73529" lon="1.79722">
        <ele>192.39999389648</ele>
        <time>2015-01-18T10:58:59.000Z</time>
      </trkpt>
      <trkpt lat="48.73529" lon="1.79708">
        <ele>192.60000610352</ele>
        <time>2015-01-18T10:59:06.000Z</time>
      </trkpt>
      <trkpt lat="48.73528" lon="1.79701">
        <ele>192.60000610352</ele>
        <time>2015-01-18T10:59:10.000Z</time>
      </trkpt>
      <trkpt lat="48.73527" lon="1.79687">
        <ele>192.60000610352</ele>
        <time>2015-01-18T10:59:16.000Z</time>
      </trkpt>
      <trkpt lat="48.73527" lon="1.79683">
        <ele>192.60000610352</ele>
        <time>2015-01-18T10:59:18.000Z</time>
      </trkpt>
      <trkpt lat="48.73526" lon="1.79663">
        <ele>192.80000305176</ele>
        <time>2015-01-18T10:59:27.000Z</time>
      </trkpt>
      <trkpt lat="48.73525" lon="1.79644">
        <ele>192.60000610352</ele>
        <time>2015-01-18T10:59:36.000Z</time>
      </trkpt>
      <trkpt lat="48.73523" lon="1.79628">
        <ele>192.60000610352</ele>
        <time>2015-01-18T10:59:42.000Z</time>
      </trkpt>
      <trkpt lat="48.73522" lon="1.79615">
        <ele>192.39999389648</ele>
        <time>2015-01-18T10:59:48.000Z</time>
      </trkpt>
      <trkpt lat="48.7352" lon="1.79598">
        <ele>192.39999389648</ele>
        <time>2015-01-18T10:59:56.000Z</time>
      </trkpt>
      <trkpt lat="48.73519" lon="1.79576">
        <ele>192</ele>
        <time>2015-01-18T11:00:05.000Z</time>
      </trkpt>
      <trkpt lat="48.73518" lon="1.79555">
        <ele>192.19999694824</ele>
        <time>2015-01-18T11:00:13.000Z</time>
      </trkpt>
      <trkpt lat="48.73517" lon="1.79532">
        <ele>192.39999389648</ele>
        <time>2015-01-18T11:00:23.000Z</time>
      </trkpt>
      <trkpt lat="48.73516" lon="1.79516">
        <ele>192.60000610352</ele>
        <time>2015-01-18T11:00:31.000Z</time>
      </trkpt>
      <trkpt lat="48.73515" lon="1.79501">
        <ele>192.80000305176</ele>
        <time>2015-01-18T11:00:38.000Z</time>
      </trkpt>
      <trkpt lat="48.73514" lon="1.79484">
        <ele>193</ele>
        <time>2015-01-18T11:00:46.000Z</time>
      </trkpt>
      <trkpt lat="48.73514" lon="1.79471">
        <ele>193</ele>
        <time>2015-01-18T11:00:53.000Z</time>
      </trkpt>
      <trkpt lat="48.73513" lon="1.79468">
        <ele>193</ele>
        <time>2015-01-18T11:00:55.000Z</time>
      </trkpt>
      <trkpt lat="48.7351" lon="1.79457">
        <ele>192.80000305176</ele>
        <time>2015-01-18T11:01:00.000Z</time>
      </trkpt>
      <trkpt lat="48.73514" lon="1.79434">
        <ele>193</ele>
        <time>2015-01-18T11:01:11.000Z</time>
      </trkpt>
      <trkpt lat="48.73517" lon="1.79416">
        <ele>193</ele>
        <time>2015-01-18T11:01:19.000Z</time>
      </trkpt>
      <trkpt lat="48.73515" lon="1.79399">
        <ele>192.60000610352</ele>
        <time>2015-01-18T11:01:27.000Z</time>
      </trkpt>
      <trkpt lat="48.73515" lon="1.7939">
        <ele>192.19999694824</ele>
        <time>2015-01-18T11:01:31.000Z</time>
      </trkpt>
      <trkpt lat="48.73507" lon="1.7938">
        <ele>191.80000305176</ele>
        <time>2015-01-18T11:01:38.000Z</time>
      </trkpt>
      <trkpt lat="48.73496" lon="1.79372">
        <ele>191.39999389648</ele>
        <time>2015-01-18T11:01:46.000Z</time>
      </trkpt>
      <trkpt lat="48.73487" lon="1.79365">
        <ele>191.19999694824</ele>
        <time>2015-01-18T11:01:52.000Z</time>
      </trkpt>
      <trkpt lat="48.73475" lon="1.79357">
        <ele>190.60000610352</ele>
        <time>2015-01-18T11:02:01.000Z</time>
      </trkpt>
      <trkpt lat="48.73463" lon="1.79349">
        <ele>190.19999694824</ele>
        <time>2015-01-18T11:02:10.000Z</time>
      </trkpt>
      <trkpt lat="48.73449" lon="1.7934">
        <ele>189.80000305176</ele>
        <time>2015-01-18T11:02:20.000Z</time>
      </trkpt>
      <trkpt lat="48.73438" lon="1.79331">
        <ele>189.39999389648</ele>
        <time>2015-01-18T11:02:28.000Z</time>
      </trkpt>
      <trkpt lat="48.73424" lon="1.79319">
        <ele>188.39999389648</ele>
        <time>2015-01-18T11:02:39.000Z</time>
      </trkpt>
      <trkpt lat="48.73413" lon="1.79301">
        <ele>188</ele>
        <time>2015-01-18T11:02:50.000Z</time>
      </trkpt>
      <trkpt lat="48.73405" lon="1.79288">
        <ele>187.80000305176</ele>
        <time>2015-01-18T11:02:58.000Z</time>
      </trkpt>
      <trkpt lat="48.73402" lon="1.79284">
        <ele>187.60000610352</ele>
        <time>2015-01-18T11:03:00.000Z</time>
      </trkpt>
      <trkpt lat="48.73396" lon="1.79268">
        <ele>187</ele>
        <time>2015-01-18T11:03:08.000Z</time>
      </trkpt>
      <trkpt lat="48.73394" lon="1.79263">
        <ele>186.80000305176</ele>
        <time>2015-01-18T11:03:11.000Z</time>
      </trkpt>
      <trkpt lat="48.73389" lon="1.79251">
        <ele>186.19999694824</ele>
        <time>2015-01-18T11:03:17.000Z</time>
      </trkpt>
      <trkpt lat="48.73387" lon="1.79247">
        <ele>186</ele>
        <time>2015-01-18T11:03:19.000Z</time>
      </trkpt>
      <trkpt lat="48.73384" lon="1.79238">
        <ele>185.60000610352</ele>
        <time>2015-01-18T11:03:23.000Z</time>
      </trkpt>
      <trkpt lat="48.73377" lon="1.79224">
        <ele>184.80000305176</ele>
        <time>2015-01-18T11:03:30.000Z</time>
      </trkpt>
      <trkpt lat="48.73374" lon="1.79212">
        <ele>184.19999694824</ele>
        <time>2015-01-18T11:03:36.000Z</time>
      </trkpt>
      <trkpt lat="48.73365" lon="1.79192">
        <ele>183</ele>
        <time>2015-01-18T11:03:47.000Z</time>
      </trkpt>
      <trkpt lat="48.7336" lon="1.79176">
        <ele>182.19999694824</ele>
        <time>2015-01-18T11:03:55.000Z</time>
      </trkpt>
      <trkpt lat="48.73354" lon="1.79163">
        <ele>181.39999389648</ele>
        <time>2015-01-18T11:04:02.000Z</time>
      </trkpt>
      <trkpt lat="48.73348" lon="1.79144">
        <ele>180.19999694824</ele>
        <time>2015-01-18T11:04:12.000Z</time>
      </trkpt>
      <trkpt lat="48.73342" lon="1.79121">
        <ele>178.60000610352</ele>
        <time>2015-01-18T11:04:22.000Z</time>
      </trkpt>
      <trkpt lat="48.73335" lon="1.79096">
        <ele>176.80000305176</ele>
        <time>2015-01-18T11:04:32.000Z</time>
      </trkpt>
      <trkpt lat="48.73329" lon="1.79083">
        <ele>175.80000305176</ele>
        <time>2015-01-18T11:04:38.000Z</time>
      </trkpt>
      <trkpt lat="48.73325" lon="1.79069">
        <ele>175</ele>
        <time>2015-01-18T11:04:45.000Z</time>
      </trkpt>
      <trkpt lat="48.7332" lon="1.79056">
        <ele>175</ele>
        <time>2015-01-18T11:04:52.000Z</time>
      </trkpt>
      <trkpt lat="48.73311" lon="1.79039">
        <ele>174.80000305176</ele>
        <time>2015-01-18T11:05:04.000Z</time>
      </trkpt>
      <trkpt lat="48.73304" lon="1.79021">
        <ele>174.80000305176</ele>
        <time>2015-01-18T11:05:13.000Z</time>
      </trkpt>
      <trkpt lat="48.73295" lon="1.78998">
        <ele>174</ele>
        <time>2015-01-18T11:05:24.000Z</time>
      </trkpt>
      <trkpt lat="48.73287" lon="1.78979">
        <ele>174.19999694824</ele>
        <time>2015-01-18T11:05:33.000Z</time>
      </trkpt>
      <trkpt lat="48.73278" lon="1.78955">
        <ele>175.39999389648</ele>
        <time>2015-01-18T11:05:45.000Z</time>
      </trkpt>
      <trkpt lat="48.7327" lon="1.78941">
        <ele>176.19999694824</ele>
        <time>2015-01-18T11:05:54.000Z</time>
      </trkpt>
      <trkpt lat="48.73264" lon="1.78931">
        <ele>177</ele>
        <time>2015-01-18T11:06:00.000Z</time>
      </trkpt>
      <trkpt lat="48.73258" lon="1.78922">
        <ele>177.60000610352</ele>
        <time>2015-01-18T11:06:06.000Z</time>
      </trkpt>
      <trkpt lat="48.73251" lon="1.78907">
        <ele>178.60000610352</ele>
        <time>2015-01-18T11:06:14.000Z</time>
      </trkpt>
      <trkpt lat="48.73243" lon="1.78894">
        <ele>179</ele>
        <time>2015-01-18T11:06:22.000Z</time>
      </trkpt>
      <trkpt lat="48.73237" lon="1.78887">
        <ele>179.19999694824</ele>
        <time>2015-01-18T11:06:27.000Z</time>
      </trkpt>
      <trkpt lat="48.73231" lon="1.78878">
        <ele>179.39999389648</ele>
        <time>2015-01-18T11:06:33.000Z</time>
      </trkpt>
      <trkpt lat="48.73231" lon="1.78876">
        <ele>179.39999389648</ele>
        <time>2015-01-18T11:06:34.000Z</time>
      </trkpt>
      <trkpt lat="48.73223" lon="1.78862">
        <ele>179.60000610352</ele>
        <time>2015-01-18T11:06:42.000Z</time>
      </trkpt>
      <trkpt lat="48.73218" lon="1.78848">
        <ele>179.80000305176</ele>
        <time>2015-01-18T11:06:50.000Z</time>
      </trkpt>
      <trkpt lat="48.73211" lon="1.78836">
        <ele>180</ele>
        <time>2015-01-18T11:06:57.000Z</time>
      </trkpt>
      <trkpt lat="48.73204" lon="1.78827">
        <ele>180.19999694824</ele>
        <time>2015-01-18T11:07:05.000Z</time>
      </trkpt>
      <trkpt lat="48.73201" lon="1.78824">
        <ele>180.39999389648</ele>
        <time>2015-01-18T11:07:08.000Z</time>
      </trkpt>
      <trkpt lat="48.73196" lon="1.78816">
        <ele>180.60000610352</ele>
        <time>2015-01-18T11:07:15.000Z</time>
      </trkpt>
      <trkpt lat="48.73194" lon="1.78812">
        <ele>180.80000305176</ele>
        <time>2015-01-18T11:07:18.000Z</time>
      </trkpt>
      <trkpt lat="48.73187" lon="1.78799">
        <ele>181.19999694824</ele>
        <time>2015-01-18T11:07:25.000Z</time>
      </trkpt>
      <trkpt lat="48.73182" lon="1.7879">
        <ele>181.60000610352</ele>
        <time>2015-01-18T11:07:31.000Z</time>
      </trkpt>
      <trkpt lat="48.73181" lon="1.78788">
        <ele>181.60000610352</ele>
        <time>2015-01-18T11:07:32.000Z</time>
      </trkpt>
      <trkpt lat="48.73177" lon="1.78778">
        <ele>182</ele>
        <time>2015-01-18T11:07:38.000Z</time>
      </trkpt>
      <trkpt lat="48.73176" lon="1.78772">
        <ele>182</ele>
        <time>2015-01-18T11:07:41.000Z</time>
      </trkpt>
      <trkpt lat="48.73175" lon="1.78759">
        <ele>182.19999694824</ele>
        <time>2015-01-18T11:07:49.000Z</time>
      </trkpt>
      <trkpt lat="48.73172" lon="1.78752">
        <ele>182.39999389648</ele>
        <time>2015-01-18T11:07:53.000Z</time>
      </trkpt>
      <trkpt lat="48.73171" lon="1.78743">
        <ele>182.60000610352</ele>
        <time>2015-01-18T11:07:59.000Z</time>
      </trkpt>
      <trkpt lat="48.73168" lon="1.78737">
        <ele>182.60000610352</ele>
        <time>2015-01-18T11:08:04.000Z</time>
      </trkpt>
      <trkpt lat="48.73166" lon="1.78732">
        <ele>182.80000305176</ele>
        <time>2015-01-18T11:08:07.000Z</time>
      </trkpt>
      <trkpt lat="48.73164" lon="1.78728">
        <ele>183</ele>
        <time>2015-01-18T11:08:09.000Z</time>
      </trkpt>
      <trkpt lat="48.73164" lon="1.78718">
        <ele>183</ele>
        <time>2015-01-18T11:08:14.000Z</time>
      </trkpt>
      <trkpt lat="48.73163" lon="1.78713">
        <ele>183.19999694824</ele>
        <time>2015-01-18T11:08:17.000Z</time>
      </trkpt>
      <trkpt lat="48.7316" lon="1.78697">
        <ele>183.39999389648</ele>
        <time>2015-01-18T11:08:26.000Z</time>
      </trkpt>
      <trkpt lat="48.73159" lon="1.78691">
        <ele>183.60000610352</ele>
        <time>2015-01-18T11:08:29.000Z</time>
      </trkpt>
      <trkpt lat="48.73157" lon="1.78677">
        <ele>183.80000305176</ele>
        <time>2015-01-18T11:08:36.000Z</time>
      </trkpt>
      <trkpt lat="48.73155" lon="1.7867">
        <ele>184</ele>
        <time>2015-01-18T11:08:40.000Z</time>
      </trkpt>
      <trkpt lat="48.73149" lon="1.78658">
        <ele>184.39999389648</ele>
        <time>2015-01-18T11:08:46.000Z</time>
      </trkpt>
      <trkpt lat="48.73147" lon="1.78642">
        <ele>183.80000305176</ele>
        <time>2015-01-18T11:08:53.000Z</time>
      </trkpt>
      <trkpt lat="48.73145" lon="1.7863">
        <ele>183.39999389648</ele>
        <time>2015-01-18T11:08:57.000Z</time>
      </trkpt>
      <trkpt lat="48.73141" lon="1.78605">
        <ele>182.39999389648</ele>
        <time>2015-01-18T11:09:03.000Z</time>
      </trkpt>
      <trkpt lat="48.73134" lon="1.78577">
        <ele>182.39999389648</ele>
        <time>2015-01-18T11:09:09.000Z</time>
      </trkpt>
      <trkpt lat="48.73128" lon="1.7855">
        <ele>182.60000610352</ele>
        <time>2015-01-18T11:09:15.000Z</time>
      </trkpt>
      <trkpt lat="48.73121" lon="1.78527">
        <ele>182.80000305176</ele>
        <time>2015-01-18T11:09:21.000Z</time>
      </trkpt>
      <trkpt lat="48.73113" lon="1.78496">
        <ele>183</ele>
        <time>2015-01-18T11:09:27.000Z</time>
      </trkpt>
      <trkpt lat="48.73104" lon="1.78457">
        <ele>183.39999389648</ele>
        <time>2015-01-18T11:09:34.000Z</time>
      </trkpt>
      <trkpt lat="48.73101" lon="1.78425">
        <ele>183.60000610352</ele>
        <time>2015-01-18T11:09:41.000Z</time>
      </trkpt>
      <trkpt lat="48.73092" lon="1.78382">
        <ele>183.19999694824</ele>
        <time>2015-01-18T11:09:49.000Z</time>
      </trkpt>
      <trkpt lat="48.73079" lon="1.7836">
        <ele>182.60000610352</ele>
        <time>2015-01-18T11:09:54.000Z</time>
      </trkpt>
      <trkpt lat="48.73055" lon="1.78338">
        <ele>181.39999389648</ele>
        <time>2015-01-18T11:10:02.000Z</time>
      </trkpt>
      <trkpt lat="48.73023" lon="1.78311">
        <ele>180.19999694824</ele>
        <time>2015-01-18T11:10:13.000Z</time>
      </trkpt>
      <trkpt lat="48.72997" lon="1.7829">
        <ele>180</ele>
        <time>2015-01-18T11:10:22.000Z</time>
      </trkpt>
      <trkpt lat="48.72975" lon="1.78271">
        <ele>180</ele>
        <time>2015-01-18T11:10:30.000Z</time>
      </trkpt>
      <trkpt lat="48.72953" lon="1.7825">
        <ele>180</ele>
        <time>2015-01-18T11:10:38.000Z</time>
      </trkpt>
      <trkpt lat="48.72937" lon="1.78236">
        <ele>180</ele>
        <time>2015-01-18T11:10:44.000Z</time>
      </trkpt>
      <trkpt lat="48.72914" lon="1.78216">
        <ele>180</ele>
        <time>2015-01-18T11:10:52.000Z</time>
      </trkpt>
      <trkpt lat="48.72888" lon="1.78194">
        <ele>180</ele>
        <time>2015-01-18T11:11:01.000Z</time>
      </trkpt>
      <trkpt lat="48.72867" lon="1.78175">
        <ele>180</ele>
        <time>2015-01-18T11:11:09.000Z</time>
      </trkpt>
      <trkpt lat="48.72842" lon="1.78153">
        <ele>179.80000305176</ele>
        <time>2015-01-18T11:11:18.000Z</time>
      </trkpt>
      <trkpt lat="48.7282" lon="1.78134">
        <ele>179.80000305176</ele>
        <time>2015-01-18T11:11:26.000Z</time>
      </trkpt>
      <trkpt lat="48.72793" lon="1.7811">
        <ele>179.80000305176</ele>
        <time>2015-01-18T11:11:36.000Z</time>
      </trkpt>
      <trkpt lat="48.72766" lon="1.7809">
        <ele>179.80000305176</ele>
        <time>2015-01-18T11:11:45.000Z</time>
      </trkpt>
      <trkpt lat="48.72745" lon="1.7807">
        <ele>180</ele>
        <time>2015-01-18T11:11:54.000Z</time>
      </trkpt>
      <trkpt lat="48.72734" lon="1.7806">
        <ele>180.19999694824</ele>
        <time>2015-01-18T11:12:02.000Z</time>
      </trkpt>
      <trkpt lat="48.72721" lon="1.78049">
        <ele>180.19999694824</ele>
        <time>2015-01-18T11:12:12.000Z</time>
      </trkpt>
      <trkpt lat="48.72714" lon="1.78039">
        <ele>180.39999389648</ele>
        <time>2015-01-18T11:12:19.000Z</time>
      </trkpt>
      <trkpt lat="48.72706" lon="1.78024">
        <ele>180.60000610352</ele>
        <time>2015-01-18T11:12:27.000Z</time>
      </trkpt>
      <trkpt lat="48.72699" lon="1.78007">
        <ele>180.80000305176</ele>
        <time>2015-01-18T11:12:36.000Z</time>
      </trkpt>
      <trkpt lat="48.72691" lon="1.77989">
        <ele>181</ele>
        <time>2015-01-18T11:12:45.000Z</time>
      </trkpt>
      <trkpt lat="48.72682" lon="1.77973">
        <ele>181.39999389648</ele>
        <time>2015-01-18T11:12:55.000Z</time>
      </trkpt>
      <trkpt lat="48.72672" lon="1.77964">
        <ele>181.39999389648</ele>
        <time>2015-01-18T11:13:03.000Z</time>
      </trkpt>
      <trkpt lat="48.72667" lon="1.77963">
        <ele>181.19999694824</ele>
        <time>2015-01-18T11:13:07.000Z</time>
      </trkpt>
      <trkpt lat="48.7266" lon="1.7796">
        <ele>181</ele>
        <time>2015-01-18T11:13:13.000Z</time>
      </trkpt>
      <trkpt lat="48.72652" lon="1.77959">
        <ele>180.60000610352</ele>
        <time>2015-01-18T11:13:19.000Z</time>
      </trkpt>
      <trkpt lat="48.72643" lon="1.77959">
        <ele>180</ele>
        <time>2015-01-18T11:13:27.000Z</time>
      </trkpt>
      <trkpt lat="48.72632" lon="1.77967">
        <ele>179</ele>
        <time>2015-01-18T11:13:35.000Z</time>
      </trkpt>
      <trkpt lat="48.72623" lon="1.77971">
        <ele>178.19999694824</ele>
        <time>2015-01-18T11:13:42.000Z</time>
      </trkpt>
      <trkpt lat="48.7262" lon="1.77972">
        <ele>178</ele>
        <time>2015-01-18T11:13:44.000Z</time>
      </trkpt>
      <trkpt lat="48.72611" lon="1.77975">
        <ele>177.19999694824</ele>
        <time>2015-01-18T11:13:52.000Z</time>
      </trkpt>
      <trkpt lat="48.72603" lon="1.77978">
        <ele>176.60000610352</ele>
        <time>2015-01-18T11:13:58.000Z</time>
      </trkpt>
      <trkpt lat="48.72601" lon="1.77978">
        <ele>176.39999389648</ele>
        <time>2015-01-18T11:13:59.000Z</time>
      </trkpt>
      <trkpt lat="48.7259" lon="1.77979">
        <ele>175.80000305176</ele>
        <time>2015-01-18T11:14:06.000Z</time>
      </trkpt>
      <trkpt lat="48.7258" lon="1.77984">
        <ele>176</ele>
        <time>2015-01-18T11:14:14.000Z</time>
      </trkpt>
      <trkpt lat="48.72571" lon="1.77987">
        <ele>176</ele>
        <time>2015-01-18T11:14:20.000Z</time>
      </trkpt>
      <trkpt lat="48.72559" lon="1.7799">
        <ele>176</ele>
        <time>2015-01-18T11:14:27.000Z</time>
      </trkpt>
      <trkpt lat="48.72547" lon="1.77988">
        <ele>176</ele>
        <time>2015-01-18T11:14:35.000Z</time>
      </trkpt>
      <trkpt lat="48.72535" lon="1.77982">
        <ele>176</ele>
        <time>2015-01-18T11:14:43.000Z</time>
      </trkpt>
      <trkpt lat="48.72525" lon="1.77975">
        <ele>175.80000305176</ele>
        <time>2015-01-18T11:14:50.000Z</time>
      </trkpt>
      <trkpt lat="48.72512" lon="1.77968">
        <ele>175.39999389648</ele>
        <time>2015-01-18T11:14:58.000Z</time>
      </trkpt>
      <trkpt lat="48.72505" lon="1.77962">
        <ele>175.19999694824</ele>
        <time>2015-01-18T11:15:04.000Z</time>
      </trkpt>
      <trkpt lat="48.72493" lon="1.7795">
        <ele>174.60000610352</ele>
        <time>2015-01-18T11:15:13.000Z</time>
      </trkpt>
      <trkpt lat="48.72485" lon="1.77942">
        <ele>174.19999694824</ele>
        <time>2015-01-18T11:15:19.000Z</time>
      </trkpt>
      <trkpt lat="48.72474" lon="1.77933">
        <ele>173.60000610352</ele>
        <time>2015-01-18T11:15:27.000Z</time>
      </trkpt>
      <trkpt lat="48.72462" lon="1.77922">
        <ele>173.19999694824</ele>
        <time>2015-01-18T11:15:36.000Z</time>
      </trkpt>
      <trkpt lat="48.72453" lon="1.77914">
        <ele>172.60000610352</ele>
        <time>2015-01-18T11:15:44.000Z</time>
      </trkpt>
      <trkpt lat="48.72443" lon="1.77907">
        <ele>172.19999694824</ele>
        <time>2015-01-18T11:15:51.000Z</time>
      </trkpt>
      <trkpt lat="48.72432" lon="1.77902">
        <ele>171.60000610352</ele>
        <time>2015-01-18T11:15:59.000Z</time>
      </trkpt>
      <trkpt lat="48.72423" lon="1.779">
        <ele>170.80000305176</ele>
        <time>2015-01-18T11:16:06.000Z</time>
      </trkpt>
      <trkpt lat="48.72413" lon="1.77901">
        <ele>169.80000305176</ele>
        <time>2015-01-18T11:16:13.000Z</time>
      </trkpt>
      <trkpt lat="48.72401" lon="1.77904">
        <ele>168.60000610352</ele>
        <time>2015-01-18T11:16:22.000Z</time>
      </trkpt>
      <trkpt lat="48.72391" lon="1.77906">
        <ele>167.60000610352</ele>
        <time>2015-01-18T11:16:29.000Z</time>
      </trkpt>
      <trkpt lat="48.72383" lon="1.77906">
        <ele>166.80000305176</ele>
        <time>2015-01-18T11:16:34.000Z</time>
      </trkpt>
      <trkpt lat="48.72371" lon="1.77902">
        <ele>165.60000610352</ele>
        <time>2015-01-18T11:16:42.000Z</time>
      </trkpt>
      <trkpt lat="48.72359" lon="1.77893">
        <ele>164.80000305176</ele>
        <time>2015-01-18T11:16:50.000Z</time>
      </trkpt>
      <trkpt lat="48.72358" lon="1.77892">
        <ele>164.60000610352</ele>
        <time>2015-01-18T11:16:51.000Z</time>
      </trkpt>
      <trkpt lat="48.72354" lon="1.77885">
        <ele>164.39999389648</ele>
        <time>2015-01-18T11:16:55.000Z</time>
      </trkpt>
      <trkpt lat="48.72345" lon="1.77871">
        <ele>164.80000305176</ele>
        <time>2015-01-18T11:17:04.000Z</time>
      </trkpt>
      <trkpt lat="48.72338" lon="1.77856">
        <ele>165.19999694824</ele>
        <time>2015-01-18T11:17:12.000Z</time>
      </trkpt>
      <trkpt lat="48.72331" lon="1.77847">
        <ele>165.39999389648</ele>
        <time>2015-01-18T11:17:18.000Z</time>
      </trkpt>
      <trkpt lat="48.72324" lon="1.77838">
        <ele>165.60000610352</ele>
        <time>2015-01-18T11:17:24.000Z</time>
      </trkpt>
      <trkpt lat="48.72317" lon="1.77832">
        <ele>165.80000305176</ele>
        <time>2015-01-18T11:17:29.000Z</time>
      </trkpt>
      <trkpt lat="48.72305" lon="1.77817">
        <ele>165.80000305176</ele>
        <time>2015-01-18T11:17:40.000Z</time>
      </trkpt>
      <trkpt lat="48.72297" lon="1.77808">
        <ele>165.60000610352</ele>
        <time>2015-01-18T11:17:46.000Z</time>
      </trkpt>
      <trkpt lat="48.72286" lon="1.77798">
        <ele>165.19999694824</ele>
        <time>2015-01-18T11:17:53.000Z</time>
      </trkpt>
      <trkpt lat="48.72276" lon="1.77793">
        <ele>165</ele>
        <time>2015-01-18T11:17:59.000Z</time>
      </trkpt>
      <trkpt lat="48.72265" lon="1.77785">
        <ele>165</ele>
        <time>2015-01-18T11:18:07.000Z</time>
      </trkpt>
      <trkpt lat="48.72256" lon="1.77776">
        <ele>164.80000305176</ele>
        <time>2015-01-18T11:18:14.000Z</time>
      </trkpt>
      <trkpt lat="48.72248" lon="1.77762">
        <ele>164.60000610352</ele>
        <time>2015-01-18T11:18:22.000Z</time>
      </trkpt>
      <trkpt lat="48.72239" lon="1.77747">
        <ele>164.39999389648</ele>
        <time>2015-01-18T11:18:30.000Z</time>
      </trkpt>
      <trkpt lat="48.72238" lon="1.77744">
        <ele>164.39999389648</ele>
        <time>2015-01-18T11:18:32.000Z</time>
      </trkpt>
      <trkpt lat="48.72236" lon="1.77741">
        <ele>164.39999389648</ele>
        <time>2015-01-18T11:18:34.000Z</time>
      </trkpt>
      <trkpt lat="48.72229" lon="1.77725">
        <ele>163.80000305176</ele>
        <time>2015-01-18T11:18:42.000Z</time>
      </trkpt>
      <trkpt lat="48.72223" lon="1.77711">
        <ele>163.39999389648</ele>
        <time>2015-01-18T11:18:49.000Z</time>
      </trkpt>
      <trkpt lat="48.72214" lon="1.77693">
        <ele>162.80000305176</ele>
        <time>2015-01-18T11:18:59.000Z</time>
      </trkpt>
      <trkpt lat="48.72203" lon="1.77673">
        <ele>162.39999389648</ele>
        <time>2015-01-18T11:19:05.000Z</time>
      </trkpt>
      <trkpt lat="48.72191" lon="1.77649">
        <ele>162</ele>
        <time>2015-01-18T11:19:11.000Z</time>
      </trkpt>
      <trkpt lat="48.72175" lon="1.77628">
        <ele>161</ele>
        <time>2015-01-18T11:19:17.000Z</time>
      </trkpt>
      <trkpt lat="48.72162" lon="1.7761">
        <ele>160.39999389648</ele>
        <time>2015-01-18T11:19:22.000Z</time>
      </trkpt>
      <trkpt lat="48.72145" lon="1.77591">
        <ele>159.39999389648</ele>
        <time>2015-01-18T11:19:28.000Z</time>
      </trkpt>
      <trkpt lat="48.72124" lon="1.77573">
        <ele>158.60000610352</ele>
        <time>2015-01-18T11:19:35.000Z</time>
      </trkpt>
      <trkpt lat="48.72107" lon="1.77564">
        <ele>158.19999694824</ele>
        <time>2015-01-18T11:19:40.000Z</time>
      </trkpt>
      <trkpt lat="48.72076" lon="1.77549">
        <ele>158.19999694824</ele>
        <time>2015-01-18T11:19:49.000Z</time>
      </trkpt>
      <trkpt lat="48.72061" lon="1.7755">
        <ele>159.60000610352</ele>
        <time>2015-01-18T11:19:54.000Z</time>
      </trkpt>
      <trkpt lat="48.72038" lon="1.77547">
        <ele>161.19999694824</ele>
        <time>2015-01-18T11:20:01.000Z</time>
      </trkpt>
      <trkpt lat="48.72026" lon="1.77538">
        <ele>161.39999389648</ele>
        <time>2015-01-18T11:20:05.000Z</time>
      </trkpt>
      <trkpt lat="48.72009" lon="1.77522">
        <ele>161.60000610352</ele>
        <time>2015-01-18T11:20:11.000Z</time>
      </trkpt>
      <trkpt lat="48.71995" lon="1.77503">
        <ele>161.39999389648</ele>
        <time>2015-01-18T11:20:17.000Z</time>
      </trkpt>
      <trkpt lat="48.7198" lon="1.77482">
        <ele>161.39999389648</ele>
        <time>2015-01-18T11:20:23.000Z</time>
      </trkpt>
      <trkpt lat="48.71964" lon="1.77458">
        <ele>161.19999694824</ele>
        <time>2015-01-18T11:20:30.000Z</time>
      </trkpt>
      <trkpt lat="48.71953" lon="1.77444">
        <ele>161.39999389648</ele>
        <time>2015-01-18T11:20:35.000Z</time>
      </trkpt>
      <trkpt lat="48.71943" lon="1.77434">
        <ele>161.80000305176</ele>
        <time>2015-01-18T11:20:40.000Z</time>
      </trkpt>
      <trkpt lat="48.71934" lon="1.77428">
        <ele>162</ele>
        <time>2015-01-18T11:20:47.000Z</time>
      </trkpt>
      <trkpt lat="48.71923" lon="1.7742">
        <ele>161.80000305176</ele>
        <time>2015-01-18T11:20:55.000Z</time>
      </trkpt>
      <trkpt lat="48.71912" lon="1.77413">
        <ele>161.60000610352</ele>
        <time>2015-01-18T11:21:03.000Z</time>
      </trkpt>
      <trkpt lat="48.71905" lon="1.7741">
        <ele>161.60000610352</ele>
        <time>2015-01-18T11:21:08.000Z</time>
      </trkpt>
      <trkpt lat="48.71896" lon="1.77404">
        <ele>161.39999389648</ele>
        <time>2015-01-18T11:21:15.000Z</time>
      </trkpt>
      <trkpt lat="48.71886" lon="1.77401">
        <ele>161.39999389648</ele>
        <time>2015-01-18T11:21:22.000Z</time>
      </trkpt>
      <trkpt lat="48.71884" lon="1.77401">
        <ele>161.60000610352</ele>
        <time>2015-01-18T11:21:23.000Z</time>
      </trkpt>
      <trkpt lat="48.71873" lon="1.774">
        <ele>161.80000305176</ele>
        <time>2015-01-18T11:21:31.000Z</time>
      </trkpt>
      <trkpt lat="48.71861" lon="1.77402">
        <ele>162.60000610352</ele>
        <time>2015-01-18T11:21:39.000Z</time>
      </trkpt>
      <trkpt lat="48.71851" lon="1.77406">
        <ele>163</ele>
        <time>2015-01-18T11:21:47.000Z</time>
      </trkpt>
      <trkpt lat="48.71841" lon="1.77413">
        <ele>163.19999694824</ele>
        <time>2015-01-18T11:21:54.000Z</time>
      </trkpt>
      <trkpt lat="48.71833" lon="1.77417">
        <ele>163.19999694824</ele>
        <time>2015-01-18T11:22:00.000Z</time>
      </trkpt>
      <trkpt lat="48.71823" lon="1.77424">
        <ele>163.39999389648</ele>
        <time>2015-01-18T11:22:07.000Z</time>
      </trkpt>
      <trkpt lat="48.71814" lon="1.77429">
        <ele>163.60000610352</ele>
        <time>2015-01-18T11:22:14.000Z</time>
      </trkpt>
      <trkpt lat="48.71802" lon="1.77441">
        <ele>163.60000610352</ele>
        <time>2015-01-18T11:22:25.000Z</time>
      </trkpt>
      <trkpt lat="48.71792" lon="1.77448">
        <ele>162.80000305176</ele>
        <time>2015-01-18T11:22:32.000Z</time>
      </trkpt>
      <trkpt lat="48.71783" lon="1.77459">
        <ele>161.80000305176</ele>
        <time>2015-01-18T11:22:39.000Z</time>
      </trkpt>
      <trkpt lat="48.71776" lon="1.77473">
        <ele>161.19999694824</ele>
        <time>2015-01-18T11:22:47.000Z</time>
      </trkpt>
      <trkpt lat="48.71766" lon="1.77484">
        <ele>161</ele>
        <time>2015-01-18T11:22:55.000Z</time>
      </trkpt>
      <trkpt lat="48.7176" lon="1.77487">
        <ele>161.60000610352</ele>
        <time>2015-01-18T11:22:59.000Z</time>
      </trkpt>
      <trkpt lat="48.71753" lon="1.77487">
        <ele>162</ele>
        <time>2015-01-18T11:23:03.000Z</time>
      </trkpt>
      <trkpt lat="48.71742" lon="1.77483">
        <ele>162.39999389648</ele>
        <time>2015-01-18T11:23:10.000Z</time>
      </trkpt>
      <trkpt lat="48.71732" lon="1.7748">
        <ele>163</ele>
        <time>2015-01-18T11:23:16.000Z</time>
      </trkpt>
      <trkpt lat="48.71728" lon="1.7748">
        <ele>163.19999694824</ele>
        <time>2015-01-18T11:23:20.000Z</time>
      </trkpt>
      <trkpt lat="48.71724" lon="1.77484">
        <ele>163.60000610352</ele>
        <time>2015-01-18T11:23:24.000Z</time>
      </trkpt>
      <trkpt lat="48.7172" lon="1.77488">
        <ele>164</ele>
        <time>2015-01-18T11:23:28.000Z</time>
      </trkpt>
      <trkpt lat="48.7171" lon="1.77488">
        <ele>164.60000610352</ele>
        <time>2015-01-18T11:23:34.000Z</time>
      </trkpt>
      <trkpt lat="48.71693" lon="1.77485">
        <ele>165.39999389648</ele>
        <time>2015-01-18T11:23:44.000Z</time>
      </trkpt>
      <trkpt lat="48.71682" lon="1.77485">
        <ele>166</ele>
        <time>2015-01-18T11:23:51.000Z</time>
      </trkpt>
      <trkpt lat="48.71675" lon="1.7748">
        <ele>166.19999694824</ele>
        <time>2015-01-18T11:23:56.000Z</time>
      </trkpt>
      <trkpt lat="48.71667" lon="1.77474">
        <ele>166.19999694824</ele>
        <time>2015-01-18T11:24:02.000Z</time>
      </trkpt>
      <trkpt lat="48.71658" lon="1.77465">
        <ele>166</ele>
        <time>2015-01-18T11:24:09.000Z</time>
      </trkpt>
      <trkpt lat="48.71649" lon="1.77461">
        <ele>166.19999694824</ele>
        <time>2015-01-18T11:24:15.000Z</time>
      </trkpt>
      <trkpt lat="48.71636" lon="1.77461">
        <ele>167</ele>
        <time>2015-01-18T11:24:24.000Z</time>
      </trkpt>
      <trkpt lat="48.71629" lon="1.77461">
        <ele>167.60000610352</ele>
        <time>2015-01-18T11:24:29.000Z</time>
      </trkpt>
      <trkpt lat="48.71626" lon="1.77455">
        <ele>167.19999694824</ele>
        <time>2015-01-18T11:24:36.000Z</time>
      </trkpt>
      <trkpt lat="48.71622" lon="1.77453">
        <ele>167.39999389648</ele>
        <time>2015-01-18T11:24:41.000Z</time>
      </trkpt>
      <trkpt lat="48.71619" lon="1.77452">
        <ele>167.39999389648</ele>
        <time>2015-01-18T11:24:46.000Z</time>
      </trkpt>
      <trkpt lat="48.71613" lon="1.77448">
        <ele>167.39999389648</ele>
        <time>2015-01-18T11:24:52.000Z</time>
      </trkpt>
      <trkpt lat="48.71604" lon="1.77445">
        <ele>167.80000305176</ele>
        <time>2015-01-18T11:24:58.000Z</time>
      </trkpt>
      <trkpt lat="48.71593" lon="1.77444">
        <ele>168.19999694824</ele>
        <time>2015-01-18T11:25:06.000Z</time>
      </trkpt>
      <trkpt lat="48.71583" lon="1.77446">
        <ele>168.80000305176</ele>
        <time>2015-01-18T11:25:14.000Z</time>
      </trkpt>
      <trkpt lat="48.71572" lon="1.77447">
        <ele>169.19999694824</ele>
        <time>2015-01-18T11:25:22.000Z</time>
      </trkpt>
      <trkpt lat="48.7156" lon="1.77445">
        <ele>169.39999389648</ele>
        <time>2015-01-18T11:25:29.000Z</time>
      </trkpt>
      <trkpt lat="48.71555" lon="1.77442">
        <ele>169</ele>
        <time>2015-01-18T11:25:33.000Z</time>
      </trkpt>
      <trkpt lat="48.71546" lon="1.7744">
        <ele>168.39999389648</ele>
        <time>2015-01-18T11:25:40.000Z</time>
      </trkpt>
      <trkpt lat="48.71537" lon="1.77444">
        <ele>167.80000305176</ele>
        <time>2015-01-18T11:25:46.000Z</time>
      </trkpt>
      <trkpt lat="48.71531" lon="1.77447">
        <ele>167.19999694824</ele>
        <time>2015-01-18T11:25:51.000Z</time>
      </trkpt>
      <trkpt lat="48.71519" lon="1.77452">
        <ele>166.39999389648</ele>
        <time>2015-01-18T11:25:59.000Z</time>
      </trkpt>
      <trkpt lat="48.71514" lon="1.77456">
        <ele>166.19999694824</ele>
        <time>2015-01-18T11:26:03.000Z</time>
      </trkpt>
      <trkpt lat="48.71507" lon="1.77461">
        <ele>166.19999694824</ele>
        <time>2015-01-18T11:26:08.000Z</time>
      </trkpt>
      <trkpt lat="48.71499" lon="1.7747">
        <ele>166</ele>
        <time>2015-01-18T11:26:15.000Z</time>
      </trkpt>
      <trkpt lat="48.7149" lon="1.77474">
        <ele>166</ele>
        <time>2015-01-18T11:26:21.000Z</time>
      </trkpt>
      <trkpt lat="48.71487" lon="1.77475">
        <ele>166</ele>
        <time>2015-01-18T11:26:23.000Z</time>
      </trkpt>
      <trkpt lat="48.71483" lon="1.7748">
        <ele>166</ele>
        <time>2015-01-18T11:26:28.000Z</time>
      </trkpt>
      <trkpt lat="48.71479" lon="1.77482">
        <ele>166</ele>
        <time>2015-01-18T11:26:31.000Z</time>
      </trkpt>
      <trkpt lat="48.71472" lon="1.77481">
        <ele>166</ele>
        <time>2015-01-18T11:26:38.000Z</time>
      </trkpt>
      <trkpt lat="48.71472" lon="1.7748">
        <ele>166</ele>
        <time>2015-01-18T11:26:40.000Z</time>
      </trkpt>
      <trkpt lat="48.71454" lon="1.77481">
        <ele>166</ele>
        <time>2015-01-18T11:27:23.000Z</time>
      </trkpt>
      <trkpt lat="48.71443" lon="1.77487">
        <ele>166</ele>
        <time>2015-01-18T11:27:30.000Z</time>
      </trkpt>
      <trkpt lat="48.71439" lon="1.77496">
        <ele>166.19999694824</ele>
        <time>2015-01-18T11:27:36.000Z</time>
      </trkpt>
      <trkpt lat="48.71433" lon="1.77508">
        <ele>166.19999694824</ele>
        <time>2015-01-18T11:27:42.000Z</time>
      </trkpt>
      <trkpt lat="48.7143" lon="1.77515">
        <ele>166.39999389648</ele>
        <time>2015-01-18T11:27:45.000Z</time>
      </trkpt>
      <trkpt lat="48.71423" lon="1.77534">
        <ele>166.60000610352</ele>
        <time>2015-01-18T11:27:51.000Z</time>
      </trkpt>
      <trkpt lat="48.71412" lon="1.77556">
        <ele>166.80000305176</ele>
        <time>2015-01-18T11:27:57.000Z</time>
      </trkpt>
      <trkpt lat="48.71402" lon="1.77575">
        <ele>167.19999694824</ele>
        <time>2015-01-18T11:28:03.000Z</time>
      </trkpt>
      <trkpt lat="48.71388" lon="1.77591">
        <ele>168</ele>
        <time>2015-01-18T11:28:09.000Z</time>
      </trkpt>
      <trkpt lat="48.71375" lon="1.77602">
        <ele>168.39999389648</ele>
        <time>2015-01-18T11:28:14.000Z</time>
      </trkpt>
      <trkpt lat="48.71352" lon="1.77624">
        <ele>168.80000305176</ele>
        <time>2015-01-18T11:28:21.000Z</time>
      </trkpt>
      <trkpt lat="48.71338" lon="1.77642">
        <ele>169.39999389648</ele>
        <time>2015-01-18T11:28:27.000Z</time>
      </trkpt>
      <trkpt lat="48.71329" lon="1.77661">
        <ele>169.80000305176</ele>
        <time>2015-01-18T11:28:32.000Z</time>
      </trkpt>
      <trkpt lat="48.71316" lon="1.77679">
        <ele>170.19999694824</ele>
        <time>2015-01-18T11:28:37.000Z</time>
      </trkpt>
      <trkpt lat="48.71305" lon="1.77695">
        <ele>170.39999389648</ele>
        <time>2015-01-18T11:28:42.000Z</time>
      </trkpt>
      <trkpt lat="48.71297" lon="1.77709">
        <ele>171</ele>
        <time>2015-01-18T11:28:47.000Z</time>
      </trkpt>
      <trkpt lat="48.71284" lon="1.77726">
        <ele>171.60000610352</ele>
        <time>2015-01-18T11:28:53.000Z</time>
      </trkpt>
      <trkpt lat="48.71273" lon="1.77743">
        <ele>172</ele>
        <time>2015-01-18T11:28:58.000Z</time>
      </trkpt>
      <trkpt lat="48.71263" lon="1.77759">
        <ele>172.39999389648</ele>
        <time>2015-01-18T11:29:03.000Z</time>
      </trkpt>
      <trkpt lat="48.71256" lon="1.77775">
        <ele>172.60000610352</ele>
        <time>2015-01-18T11:29:07.000Z</time>
      </trkpt>
      <trkpt lat="48.71252" lon="1.77798">
        <ele>173</ele>
        <time>2015-01-18T11:29:13.000Z</time>
      </trkpt>
      <trkpt lat="48.7125" lon="1.77804">
        <ele>173</ele>
        <time>2015-01-18T11:29:15.000Z</time>
      </trkpt>
      <trkpt lat="48.71241" lon="1.77811">
        <ele>172.60000610352</ele>
        <time>2015-01-18T11:29:21.000Z</time>
      </trkpt>
      <trkpt lat="48.71227" lon="1.77804">
        <ele>172</ele>
        <time>2015-01-18T11:29:27.000Z</time>
      </trkpt>
      <trkpt lat="48.71219" lon="1.77799">
        <ele>171.60000610352</ele>
        <time>2015-01-18T11:29:30.000Z</time>
      </trkpt>
      <trkpt lat="48.71209" lon="1.77794">
        <ele>171</ele>
        <time>2015-01-18T11:29:34.000Z</time>
      </trkpt>
      <trkpt lat="48.71193" lon="1.77781">
        <ele>170.39999389648</ele>
        <time>2015-01-18T11:29:40.000Z</time>
      </trkpt>
      <trkpt lat="48.71176" lon="1.77769">
        <ele>169.80000305176</ele>
        <time>2015-01-18T11:29:46.000Z</time>
      </trkpt>
      <trkpt lat="48.71161" lon="1.77759">
        <ele>169.60000610352</ele>
        <time>2015-01-18T11:29:51.000Z</time>
      </trkpt>
      <trkpt lat="48.71143" lon="1.77751">
        <ele>169.39999389648</ele>
        <time>2015-01-18T11:29:57.000Z</time>
      </trkpt>
      <trkpt lat="48.71126" lon="1.77752">
        <ele>169.19999694824</ele>
        <time>2015-01-18T11:30:02.000Z</time>
      </trkpt>
      <trkpt lat="48.71111" lon="1.77755">
        <ele>169.19999694824</ele>
        <time>2015-01-18T11:30:07.000Z</time>
      </trkpt>
      <trkpt lat="48.71109" lon="1.77756">
        <ele>169.19999694824</ele>
        <time>2015-01-18T11:30:08.000Z</time>
      </trkpt>
      <trkpt lat="48.71097" lon="1.77748">
        <ele>169.19999694824</ele>
        <time>2015-01-18T11:30:12.000Z</time>
      </trkpt>
      <trkpt lat="48.71088" lon="1.77731">
        <ele>169.39999389648</ele>
        <time>2015-01-18T11:30:17.000Z</time>
      </trkpt>
      <trkpt lat="48.71078" lon="1.77711">
        <ele>170</ele>
        <time>2015-01-18T11:30:22.000Z</time>
      </trkpt>
      <trkpt lat="48.71076" lon="1.77707">
        <ele>170</ele>
        <time>2015-01-18T11:30:23.000Z</time>
      </trkpt>
      <trkpt lat="48.71062" lon="1.77701">
        <ele>170.39999389648</ele>
        <time>2015-01-18T11:30:28.000Z</time>
      </trkpt>
      <trkpt lat="48.71043" lon="1.77702">
        <ele>170.80000305176</ele>
        <time>2015-01-18T11:30:34.000Z</time>
      </trkpt>
      <trkpt lat="48.71026" lon="1.77703">
        <ele>171.19999694824</ele>
        <time>2015-01-18T11:30:40.000Z</time>
      </trkpt>
      <trkpt lat="48.7101" lon="1.77705">
        <ele>171.19999694824</ele>
        <time>2015-01-18T11:30:45.000Z</time>
      </trkpt>
      <trkpt lat="48.70986" lon="1.77708">
        <ele>171.19999694824</ele>
        <time>2015-01-18T11:30:53.000Z</time>
      </trkpt>
      <trkpt lat="48.70964" lon="1.7771">
        <ele>172</ele>
        <time>2015-01-18T11:31:00.000Z</time>
      </trkpt>
      <trkpt lat="48.70945" lon="1.77713">
        <ele>172.80000305176</ele>
        <time>2015-01-18T11:31:06.000Z</time>
      </trkpt>
      <trkpt lat="48.70923" lon="1.77717">
        <ele>174</ele>
        <time>2015-01-18T11:31:13.000Z</time>
      </trkpt>
      <trkpt lat="48.70897" lon="1.77722">
        <ele>174.39999389648</ele>
        <time>2015-01-18T11:31:21.000Z</time>
      </trkpt>
      <trkpt lat="48.70876" lon="1.77724">
        <ele>174.80000305176</ele>
        <time>2015-01-18T11:31:28.000Z</time>
      </trkpt>
      <trkpt lat="48.70855" lon="1.77728">
        <ele>175</ele>
        <time>2015-01-18T11:31:35.000Z</time>
      </trkpt>
      <trkpt lat="48.7084" lon="1.77731">
        <ele>175.39999389648</ele>
        <time>2015-01-18T11:31:40.000Z</time>
      </trkpt>
      <trkpt lat="48.70815" lon="1.77734">
        <ele>176.39999389648</ele>
        <time>2015-01-18T11:31:47.000Z</time>
      </trkpt>
      <trkpt lat="48.70788" lon="1.77737">
        <ele>177.39999389648</ele>
        <time>2015-01-18T11:31:55.000Z</time>
      </trkpt>
      <trkpt lat="48.70762" lon="1.77741">
        <ele>178.39999389648</ele>
        <time>2015-01-18T11:32:03.000Z</time>
      </trkpt>
      <trkpt lat="48.7074" lon="1.77744">
        <ele>179.19999694824</ele>
        <time>2015-01-18T11:32:10.000Z</time>
      </trkpt>
      <trkpt lat="48.70728" lon="1.77745">
        <ele>179.60000610352</ele>
        <time>2015-01-18T11:32:16.000Z</time>
      </trkpt>
      <trkpt lat="48.70723" lon="1.77746">
        <ele>179.80000305176</ele>
        <time>2015-01-18T11:32:21.000Z</time>
      </trkpt>
      <trkpt lat="48.70718" lon="1.77747">
        <ele>180.19999694824</ele>
        <time>2015-01-18T11:32:27.000Z</time>
      </trkpt>
      <trkpt lat="48.70717" lon="1.77747">
        <ele>180.19999694824</ele>
        <time>2015-01-18T11:32:28.000Z</time>
      </trkpt>
      <trkpt lat="48.70713" lon="1.77747">
        <ele>180.19999694824</ele>
        <time>2015-01-18T11:32:33.000Z</time>
      </trkpt>
      <trkpt lat="48.7071" lon="1.77747">
        <ele>180.39999389648</ele>
        <time>2015-01-18T11:32:34.000Z</time>
      </trkpt>
      <trkpt lat="48.70699" lon="1.7775">
        <ele>180.80000305176</ele>
        <time>2015-01-18T11:32:42.000Z</time>
      </trkpt>
      <trkpt lat="48.7069" lon="1.77751">
        <ele>181.19999694824</ele>
        <time>2015-01-18T11:32:49.000Z</time>
      </trkpt>
      <trkpt lat="48.70689" lon="1.77752">
        <ele>181.19999694824</ele>
        <time>2015-01-18T11:32:50.000Z</time>
      </trkpt>
      <trkpt lat="48.70682" lon="1.77751">
        <ele>181.60000610352</ele>
        <time>2015-01-18T11:32:56.000Z</time>
      </trkpt>
      <trkpt lat="48.70672" lon="1.77751">
        <ele>182</ele>
        <time>2015-01-18T11:33:02.000Z</time>
      </trkpt>
      <trkpt lat="48.70664" lon="1.77752">
        <ele>182.39999389648</ele>
        <time>2015-01-18T11:33:08.000Z</time>
      </trkpt>
      <trkpt lat="48.70654" lon="1.77753">
        <ele>183</ele>
        <time>2015-01-18T11:33:14.000Z</time>
      </trkpt>
      <trkpt lat="48.70635" lon="1.77756">
        <ele>184</ele>
        <time>2015-01-18T11:33:25.000Z</time>
      </trkpt>
      <trkpt lat="48.70617" lon="1.7776">
        <ele>184.80000305176</ele>
        <time>2015-01-18T11:33:35.000Z</time>
      </trkpt>
      <trkpt lat="48.70599" lon="1.77762">
        <ele>185.39999389648</ele>
        <time>2015-01-18T11:33:45.000Z</time>
      </trkpt>
      <trkpt lat="48.70582" lon="1.77765">
        <ele>185.80000305176</ele>
        <time>2015-01-18T11:33:55.000Z</time>
      </trkpt>
      <trkpt lat="48.70566" lon="1.77767">
        <ele>186.19999694824</ele>
        <time>2015-01-18T11:34:04.000Z</time>
      </trkpt>
      <trkpt lat="48.70552" lon="1.77768">
        <ele>186.60000610352</ele>
        <time>2015-01-18T11:34:12.000Z</time>
      </trkpt>
      <trkpt lat="48.70537" lon="1.77767">
        <ele>187</ele>
        <time>2015-01-18T11:34:20.000Z</time>
      </trkpt>
      <trkpt lat="48.70525" lon="1.77758">
        <ele>187.19999694824</ele>
        <time>2015-01-18T11:34:29.000Z</time>
      </trkpt>
      <trkpt lat="48.70518" lon="1.77743">
        <ele>187</ele>
        <time>2015-01-18T11:34:36.000Z</time>
      </trkpt>
      <trkpt lat="48.70515" lon="1.77733">
        <ele>187</ele>
        <time>2015-01-18T11:34:41.000Z</time>
      </trkpt>
      <trkpt lat="48.70509" lon="1.77714">
        <ele>186.60000610352</ele>
        <time>2015-01-18T11:34:50.000Z</time>
      </trkpt>
      <trkpt lat="48.70503" lon="1.77697">
        <ele>186.39999389648</ele>
        <time>2015-01-18T11:34:57.000Z</time>
      </trkpt>
      <trkpt lat="48.70495" lon="1.77676">
        <ele>186.19999694824</ele>
        <time>2015-01-18T11:35:06.000Z</time>
      </trkpt>
      <trkpt lat="48.7049" lon="1.7766">
        <ele>185.80000305176</ele>
        <time>2015-01-18T11:35:13.000Z</time>
      </trkpt>
      <trkpt lat="48.70485" lon="1.77642">
        <ele>185.80000305176</ele>
        <time>2015-01-18T11:35:21.000Z</time>
      </trkpt>
      <trkpt lat="48.70479" lon="1.77625">
        <ele>186</ele>
        <time>2015-01-18T11:35:29.000Z</time>
      </trkpt>
      <trkpt lat="48.70473" lon="1.77603">
        <ele>186.19999694824</ele>
        <time>2015-01-18T11:35:38.000Z</time>
      </trkpt>
      <trkpt lat="48.70469" lon="1.7759">
        <ele>186.39999389648</ele>
        <time>2015-01-18T11:35:44.000Z</time>
      </trkpt>
      <trkpt lat="48.7046" lon="1.77562">
        <ele>186.60000610352</ele>
        <time>2015-01-18T11:35:56.000Z</time>
      </trkpt>
      <trkpt lat="48.70452" lon="1.77538">
        <ele>186.39999389648</ele>
        <time>2015-01-18T11:36:07.000Z</time>
      </trkpt>
      <trkpt lat="48.70445" lon="1.77516">
        <ele>186.19999694824</ele>
        <time>2015-01-18T11:36:17.000Z</time>
      </trkpt>
      <trkpt lat="48.7044" lon="1.77504">
        <ele>186.19999694824</ele>
        <time>2015-01-18T11:36:23.000Z</time>
      </trkpt>
      <trkpt lat="48.70437" lon="1.77492">
        <ele>186</ele>
        <time>2015-01-18T11:36:28.000Z</time>
      </trkpt>
      <trkpt lat="48.70431" lon="1.77473">
        <ele>185.80000305176</ele>
        <time>2015-01-18T11:36:36.000Z</time>
      </trkpt>
      <trkpt lat="48.70426" lon="1.77457">
        <ele>185.60000610352</ele>
        <time>2015-01-18T11:36:43.000Z</time>
      </trkpt>
      <trkpt lat="48.70416" lon="1.77432">
        <ele>185.19999694824</ele>
        <time>2015-01-18T11:36:55.000Z</time>
      </trkpt>
      <trkpt lat="48.70409" lon="1.77409">
        <ele>184.80000305176</ele>
        <time>2015-01-18T11:37:05.000Z</time>
      </trkpt>
      <trkpt lat="48.70402" lon="1.77387">
        <ele>183.80000305176</ele>
        <time>2015-01-18T11:37:15.000Z</time>
      </trkpt>
      <trkpt lat="48.70395" lon="1.77364">
        <ele>182.60000610352</ele>
        <time>2015-01-18T11:37:26.000Z</time>
      </trkpt>
      <trkpt lat="48.70387" lon="1.77342">
        <ele>182</ele>
        <time>2015-01-18T11:37:36.000Z</time>
      </trkpt>
      <trkpt lat="48.7038" lon="1.77323">
        <ele>181.60000610352</ele>
        <time>2015-01-18T11:37:45.000Z</time>
      </trkpt>
      <trkpt lat="48.70376" lon="1.77309">
        <ele>181.39999389648</ele>
        <time>2015-01-18T11:37:53.000Z</time>
      </trkpt>
      <trkpt lat="48.70372" lon="1.77294">
        <ele>181.19999694824</ele>
        <time>2015-01-18T11:38:01.000Z</time>
      </trkpt>
      <trkpt lat="48.70369" lon="1.77278">
        <ele>180.80000305176</ele>
        <time>2015-01-18T11:38:08.000Z</time>
      </trkpt>
      <trkpt lat="48.70366" lon="1.77251">
        <ele>180.39999389648</ele>
        <time>2015-01-18T11:38:20.000Z</time>
      </trkpt>
      <trkpt lat="48.70365" lon="1.77234">
        <ele>180.19999694824</ele>
        <time>2015-01-18T11:38:29.000Z</time>
      </trkpt>
      <trkpt lat="48.70363" lon="1.77215">
        <ele>180.60000610352</ele>
        <time>2015-01-18T11:38:38.000Z</time>
      </trkpt>
      <trkpt lat="48.70362" lon="1.772">
        <ele>181</ele>
        <time>2015-01-18T11:38:45.000Z</time>
      </trkpt>
      <trkpt lat="48.7036" lon="1.77186">
        <ele>181.39999389648</ele>
        <time>2015-01-18T11:38:52.000Z</time>
      </trkpt>
      <trkpt lat="48.70357" lon="1.77162">
        <ele>181.80000305176</ele>
        <time>2015-01-18T11:39:03.000Z</time>
      </trkpt>
      <trkpt lat="48.70355" lon="1.7714">
        <ele>182</ele>
        <time>2015-01-18T11:39:13.000Z</time>
      </trkpt>
      <trkpt lat="48.70353" lon="1.7712">
        <ele>182</ele>
        <time>2015-01-18T11:39:22.000Z</time>
      </trkpt>
      <trkpt lat="48.70351" lon="1.77102">
        <ele>182</ele>
        <time>2015-01-18T11:39:31.000Z</time>
      </trkpt>
      <trkpt lat="48.7035" lon="1.77095">
        <ele>182</ele>
        <time>2015-01-18T11:39:34.000Z</time>
      </trkpt>
      <trkpt lat="48.70348" lon="1.77076">
        <ele>182.19999694824</ele>
        <time>2015-01-18T11:39:42.000Z</time>
      </trkpt>
      <trkpt lat="48.70349" lon="1.77065">
        <ele>182</ele>
        <time>2015-01-18T11:39:47.000Z</time>
      </trkpt>
      <trkpt lat="48.70348" lon="1.77057">
        <ele>182</ele>
        <time>2015-01-18T11:39:52.000Z</time>
      </trkpt>
      <trkpt lat="48.70346" lon="1.77042">
        <ele>182</ele>
        <time>2015-01-18T11:40:01.000Z</time>
      </trkpt>
      <trkpt lat="48.70344" lon="1.77029">
        <ele>182.19999694824</ele>
        <time>2015-01-18T11:40:09.000Z</time>
      </trkpt>
      <trkpt lat="48.70343" lon="1.77012">
        <ele>182.19999694824</ele>
        <time>2015-01-18T11:40:17.000Z</time>
      </trkpt>
      <trkpt lat="48.70341" lon="1.76993">
        <ele>182.19999694824</ele>
        <time>2015-01-18T11:40:27.000Z</time>
      </trkpt>
      <trkpt lat="48.7034" lon="1.76976">
        <ele>181.80000305176</ele>
        <time>2015-01-18T11:40:35.000Z</time>
      </trkpt>
      <trkpt lat="48.7034" lon="1.76973">
        <ele>181.80000305176</ele>
        <time>2015-01-18T11:40:39.000Z</time>
      </trkpt>
      <trkpt lat="48.7034" lon="1.76957">
        <ele>181.39999389648</ele>
        <time>2015-01-18T11:41:09.000Z</time>
      </trkpt>
      <trkpt lat="48.70338" lon="1.76936">
        <ele>181</ele>
        <time>2015-01-18T11:41:18.000Z</time>
      </trkpt>
      <trkpt lat="48.70336" lon="1.76914">
        <ele>180.39999389648</ele>
        <time>2015-01-18T11:41:28.000Z</time>
      </trkpt>
      <trkpt lat="48.70334" lon="1.7689">
        <ele>179.80000305176</ele>
        <time>2015-01-18T11:41:38.000Z</time>
      </trkpt>
      <trkpt lat="48.70333" lon="1.76874">
        <ele>179.60000610352</ele>
        <time>2015-01-18T11:41:45.000Z</time>
      </trkpt>
      <trkpt lat="48.70333" lon="1.76857">
        <ele>179.39999389648</ele>
        <time>2015-01-18T11:41:52.000Z</time>
      </trkpt>
      <trkpt lat="48.70332" lon="1.7684">
        <ele>179.19999694824</ele>
        <time>2015-01-18T11:42:00.000Z</time>
      </trkpt>
      <trkpt lat="48.70332" lon="1.7682">
        <ele>179</ele>
        <time>2015-01-18T11:42:09.000Z</time>
      </trkpt>
      <trkpt lat="48.70331" lon="1.76803">
        <ele>179.19999694824</ele>
        <time>2015-01-18T11:42:17.000Z</time>
      </trkpt>
      <trkpt lat="48.7033" lon="1.76788">
        <ele>179.19999694824</ele>
        <time>2015-01-18T11:42:24.000Z</time>
      </trkpt>
      <trkpt lat="48.70329" lon="1.76765">
        <ele>179</ele>
        <time>2015-01-18T11:42:34.000Z</time>
      </trkpt>
      <trkpt lat="48.70328" lon="1.76747">
        <ele>178.80000305176</ele>
        <time>2015-01-18T11:42:42.000Z</time>
      </trkpt>
      <trkpt lat="48.70328" lon="1.76726">
        <ele>178.60000610352</ele>
        <time>2015-01-18T11:42:51.000Z</time>
      </trkpt>
      <trkpt lat="48.70328" lon="1.76704">
        <ele>178.60000610352</ele>
        <time>2015-01-18T11:43:01.000Z</time>
      </trkpt>
      <trkpt lat="48.70327" lon="1.76685">
        <ele>178.60000610352</ele>
        <time>2015-01-18T11:43:10.000Z</time>
      </trkpt>
      <trkpt lat="48.70326" lon="1.76666">
        <ele>178.60000610352</ele>
        <time>2015-01-18T11:43:18.000Z</time>
      </trkpt>
      <trkpt lat="48.70326" lon="1.76654">
        <ele>178.60000610352</ele>
        <time>2015-01-18T11:43:23.000Z</time>
      </trkpt>
      <trkpt lat="48.70328" lon="1.76646">
        <ele>178.60000610352</ele>
        <time>2015-01-18T11:43:28.000Z</time>
      </trkpt>
      <trkpt lat="48.7033" lon="1.76642">
        <ele>178.60000610352</ele>
        <time>2015-01-18T11:43:31.000Z</time>
      </trkpt>
      <trkpt lat="48.70333" lon="1.76636">
        <ele>178.39999389648</ele>
        <time>2015-01-18T11:43:36.000Z</time>
      </trkpt>
      <trkpt lat="48.7034" lon="1.76629">
        <ele>178.39999389648</ele>
        <time>2015-01-18T11:43:43.000Z</time>
      </trkpt>
      <trkpt lat="48.70343" lon="1.76624">
        <ele>178.19999694824</ele>
        <time>2015-01-18T11:43:46.000Z</time>
      </trkpt>
      <trkpt lat="48.70345" lon="1.76622">
        <ele>178.19999694824</ele>
        <time>2015-01-18T11:43:48.000Z</time>
      </trkpt>
      <trkpt lat="48.70355" lon="1.76614">
        <ele>178</ele>
        <time>2015-01-18T11:43:55.000Z</time>
      </trkpt>
      <trkpt lat="48.70361" lon="1.76611">
        <ele>178.19999694824</ele>
        <time>2015-01-18T11:44:00.000Z</time>
      </trkpt>
      <trkpt lat="48.70368" lon="1.76607">
        <ele>178.39999389648</ele>
        <time>2015-01-18T11:44:05.000Z</time>
      </trkpt>
      <trkpt lat="48.70372" lon="1.76604">
        <ele>178.39999389648</ele>
        <time>2015-01-18T11:44:08.000Z</time>
      </trkpt>
      <trkpt lat="48.70382" lon="1.76596">
        <ele>178.80000305176</ele>
        <time>2015-01-18T11:44:16.000Z</time>
      </trkpt>
      <trkpt lat="48.7039" lon="1.76594">
        <ele>179</ele>
        <time>2015-01-18T11:44:22.000Z</time>
      </trkpt>
      <trkpt lat="48.70392" lon="1.76593">
        <ele>179.19999694824</ele>
        <time>2015-01-18T11:44:23.000Z</time>
      </trkpt>
      <trkpt lat="48.70398" lon="1.76591">
        <ele>179.39999389648</ele>
        <time>2015-01-18T11:44:27.000Z</time>
      </trkpt>
      <trkpt lat="48.70401" lon="1.7659">
        <ele>179.39999389648</ele>
        <time>2015-01-18T11:44:30.000Z</time>
      </trkpt>
      <trkpt lat="48.70405" lon="1.7659">
        <ele>179.60000610352</ele>
        <time>2015-01-18T11:44:34.000Z</time>
      </trkpt>
      <trkpt lat="48.70415" lon="1.76586">
        <ele>180</ele>
        <time>2015-01-18T11:44:43.000Z</time>
      </trkpt>
      <trkpt lat="48.70423" lon="1.76582">
        <ele>180.39999389648</ele>
        <time>2015-01-18T11:44:47.000Z</time>
      </trkpt>
      <trkpt lat="48.70429" lon="1.76574">
        <ele>180.80000305176</ele>
        <time>2015-01-18T11:44:53.000Z</time>
      </trkpt>
      <trkpt lat="48.70432" lon="1.76567">
        <ele>180.80000305176</ele>
        <time>2015-01-18T11:44:57.000Z</time>
      </trkpt>
      <trkpt lat="48.70437" lon="1.76549">
        <ele>181.19999694824</ele>
        <time>2015-01-18T11:45:05.000Z</time>
      </trkpt>
      <trkpt lat="48.70438" lon="1.76545">
        <ele>181.19999694824</ele>
        <time>2015-01-18T11:45:07.000Z</time>
      </trkpt>
      <trkpt lat="48.7044" lon="1.76536">
        <ele>181.19999694824</ele>
        <time>2015-01-18T11:45:11.000Z</time>
      </trkpt>
      <trkpt lat="48.70445" lon="1.76518">
        <ele>181.19999694824</ele>
        <time>2015-01-18T11:45:19.000Z</time>
      </trkpt>
      <trkpt lat="48.70449" lon="1.76503">
        <ele>181.19999694824</ele>
        <time>2015-01-18T11:45:26.000Z</time>
      </trkpt>
      <trkpt lat="48.70451" lon="1.76492">
        <ele>181</ele>
        <time>2015-01-18T11:45:31.000Z</time>
      </trkpt>
      <trkpt lat="48.70454" lon="1.76472">
        <ele>180</ele>
        <time>2015-01-18T11:45:40.000Z</time>
      </trkpt>
      <trkpt lat="48.70455" lon="1.76469">
        <ele>179.80000305176</ele>
        <time>2015-01-18T11:45:42.000Z</time>
      </trkpt>
      <trkpt lat="48.70456" lon="1.76455">
        <ele>179</ele>
        <time>2015-01-18T11:45:47.000Z</time>
      </trkpt>
      <trkpt lat="48.70457" lon="1.76447">
        <ele>178.60000610352</ele>
        <time>2015-01-18T11:45:51.000Z</time>
      </trkpt>
      <trkpt lat="48.70459" lon="1.76427">
        <ele>177.39999389648</ele>
        <time>2015-01-18T11:46:00.000Z</time>
      </trkpt>
      <trkpt lat="48.70458" lon="1.76414">
        <ele>177.39999389648</ele>
        <time>2015-01-18T11:46:07.000Z</time>
      </trkpt>
      <trkpt lat="48.70456" lon="1.764">
        <ele>177.19999694824</ele>
        <time>2015-01-18T11:46:15.000Z</time>
      </trkpt>
      <trkpt lat="48.70454" lon="1.76388">
        <ele>176.60000610352</ele>
        <time>2015-01-18T11:46:21.000Z</time>
      </trkpt>
      <trkpt lat="48.70452" lon="1.76373">
        <ele>176</ele>
        <time>2015-01-18T11:46:29.000Z</time>
      </trkpt>
      <trkpt lat="48.70451" lon="1.76363">
        <ele>175.39999389648</ele>
        <time>2015-01-18T11:46:34.000Z</time>
      </trkpt>
      <trkpt lat="48.70449" lon="1.76352">
        <ele>175</ele>
        <time>2015-01-18T11:46:39.000Z</time>
      </trkpt>
      <trkpt lat="48.70448" lon="1.76338">
        <ele>174.39999389648</ele>
        <time>2015-01-18T11:46:46.000Z</time>
      </trkpt>
      <trkpt lat="48.70448" lon="1.76327">
        <ele>174</ele>
        <time>2015-01-18T11:46:52.000Z</time>
      </trkpt>
      <trkpt lat="48.70447" lon="1.76314">
        <ele>173.60000610352</ele>
        <time>2015-01-18T11:47:00.000Z</time>
      </trkpt>
      <trkpt lat="48.70447" lon="1.76312">
        <ele>173.60000610352</ele>
        <time>2015-01-18T11:47:01.000Z</time>
      </trkpt>
      <trkpt lat="48.70446" lon="1.76304">
        <ele>173.60000610352</ele>
        <time>2015-01-18T11:47:05.000Z</time>
      </trkpt>
      <trkpt lat="48.70448" lon="1.7629">
        <ele>173.60000610352</ele>
        <time>2015-01-18T11:47:11.000Z</time>
      </trkpt>
      <trkpt lat="48.70449" lon="1.76285">
        <ele>173.60000610352</ele>
        <time>2015-01-18T11:47:14.000Z</time>
      </trkpt>
      <trkpt lat="48.70452" lon="1.76275">
        <ele>173.39999389648</ele>
        <time>2015-01-18T11:47:20.000Z</time>
      </trkpt>
      <trkpt lat="48.70455" lon="1.76266">
        <ele>173.39999389648</ele>
        <time>2015-01-18T11:47:25.000Z</time>
      </trkpt>
      <trkpt lat="48.70457" lon="1.76251">
        <ele>173.19999694824</ele>
        <time>2015-01-18T11:47:32.000Z</time>
      </trkpt>
      <trkpt lat="48.70458" lon="1.7623">
        <ele>173</ele>
        <time>2015-01-18T11:47:41.000Z</time>
      </trkpt>
      <trkpt lat="48.70458" lon="1.76218">
        <ele>173.19999694824</ele>
        <time>2015-01-18T11:47:46.000Z</time>
      </trkpt>
      <trkpt lat="48.70457" lon="1.7621">
        <ele>173.39999389648</ele>
        <time>2015-01-18T11:47:49.000Z</time>
      </trkpt>
      <trkpt lat="48.70454" lon="1.76197">
        <ele>174</ele>
        <time>2015-01-18T11:47:55.000Z</time>
      </trkpt>
      <trkpt lat="48.70452" lon="1.76182">
        <ele>174.39999389648</ele>
        <time>2015-01-18T11:48:02.000Z</time>
      </trkpt>
      <trkpt lat="48.70452" lon="1.76177">
        <ele>174.60000610352</ele>
        <time>2015-01-18T11:48:04.000Z</time>
      </trkpt>
      <trkpt lat="48.7045" lon="1.76164">
        <ele>175</ele>
        <time>2015-01-18T11:48:10.000Z</time>
      </trkpt>
      <trkpt lat="48.7045" lon="1.76163">
        <ele>175</ele>
        <time>2015-01-18T11:48:11.000Z</time>
      </trkpt>
      <trkpt lat="48.7045" lon="1.76163">
        <ele>175</ele>
        <time>2015-01-18T11:48:15.000Z</time>
      </trkpt>
      <trkpt lat="48.70451" lon="1.76152">
        <ele>175.39999389648</ele>
        <time>2015-01-18T11:48:21.000Z</time>
      </trkpt>
      <trkpt lat="48.70453" lon="1.76138">
        <ele>175.39999389648</ele>
        <time>2015-01-18T11:48:28.000Z</time>
      </trkpt>
      <trkpt lat="48.70454" lon="1.76134">
        <ele>175.39999389648</ele>
        <time>2015-01-18T11:48:30.000Z</time>
      </trkpt>
      <trkpt lat="48.70455" lon="1.76128">
        <ele>175.39999389648</ele>
        <time>2015-01-18T11:48:35.000Z</time>
      </trkpt>
      <trkpt lat="48.70458" lon="1.76093">
        <ele>175.80000305176</ele>
        <time>2015-01-18T11:49:51.000Z</time>
      </trkpt>
      <trkpt lat="48.70458" lon="1.76086">
        <ele>175.80000305176</ele>
        <time>2015-01-18T11:49:54.000Z</time>
      </trkpt>
      <trkpt lat="48.70458" lon="1.76073">
        <ele>176</ele>
        <time>2015-01-18T11:50:01.000Z</time>
      </trkpt>
      <trkpt lat="48.70461" lon="1.76065">
        <ele>176.19999694824</ele>
        <time>2015-01-18T11:50:06.000Z</time>
      </trkpt>
      <trkpt lat="48.70464" lon="1.76058">
        <ele>176.39999389648</ele>
        <time>2015-01-18T11:50:09.000Z</time>
      </trkpt>
      <trkpt lat="48.70467" lon="1.76046">
        <ele>176.80000305176</ele>
        <time>2015-01-18T11:50:16.000Z</time>
      </trkpt>
      <trkpt lat="48.70467" lon="1.76045">
        <ele>176.80000305176</ele>
        <time>2015-01-18T11:50:17.000Z</time>
      </trkpt>
      <trkpt lat="48.7047" lon="1.76037">
        <ele>177</ele>
        <time>2015-01-18T11:50:22.000Z</time>
      </trkpt>
      <trkpt lat="48.70472" lon="1.7603">
        <ele>177.39999389648</ele>
        <time>2015-01-18T11:50:28.000Z</time>
      </trkpt>
      <trkpt lat="48.70472" lon="1.76028">
        <ele>177.39999389648</ele>
        <time>2015-01-18T11:50:29.000Z</time>
      </trkpt>
      <trkpt lat="48.70473" lon="1.76019">
        <ele>177.80000305176</ele>
        <time>2015-01-18T11:50:35.000Z</time>
      </trkpt>
      <trkpt lat="48.70475" lon="1.7601">
        <ele>178.19999694824</ele>
        <time>2015-01-18T11:50:41.000Z</time>
      </trkpt>
      <trkpt lat="48.70477" lon="1.76004">
        <ele>178.60000610352</ele>
        <time>2015-01-18T11:50:45.000Z</time>
      </trkpt>
      <trkpt lat="48.70479" lon="1.76001">
        <ele>178.60000610352</ele>
        <time>2015-01-18T11:50:47.000Z</time>
      </trkpt>
      <trkpt lat="48.7048" lon="1.75996">
        <ele>179</ele>
        <time>2015-01-18T11:50:51.000Z</time>
      </trkpt>
      <trkpt lat="48.70485" lon="1.75987">
        <ele>179.19999694824</ele>
        <time>2015-01-18T11:50:57.000Z</time>
      </trkpt>
      <trkpt lat="48.70488" lon="1.75977">
        <ele>179.19999694824</ele>
        <time>2015-01-18T11:51:02.000Z</time>
      </trkpt>
      <trkpt lat="48.7049" lon="1.75974">
        <ele>179.19999694824</ele>
        <time>2015-01-18T11:51:04.000Z</time>
      </trkpt>
      <trkpt lat="48.70491" lon="1.75971">
        <ele>179.19999694824</ele>
        <time>2015-01-18T11:51:06.000Z</time>
      </trkpt>
      <trkpt lat="48.70492" lon="1.75967">
        <ele>179.19999694824</ele>
        <time>2015-01-18T11:51:08.000Z</time>
      </trkpt>
      <trkpt lat="48.70496" lon="1.75962">
        <ele>179.19999694824</ele>
        <time>2015-01-18T11:51:12.000Z</time>
      </trkpt>
      <trkpt lat="48.70502" lon="1.75952">
        <ele>179.80000305176</ele>
        <time>2015-01-18T11:51:19.000Z</time>
      </trkpt>
      <trkpt lat="48.70507" lon="1.75945">
        <ele>180</ele>
        <time>2015-01-18T11:51:25.000Z</time>
      </trkpt>
      <trkpt lat="48.70512" lon="1.75939">
        <ele>180.39999389648</ele>
        <time>2015-01-18T11:51:31.000Z</time>
      </trkpt>
      <trkpt lat="48.70515" lon="1.7593">
        <ele>180.80000305176</ele>
        <time>2015-01-18T11:51:37.000Z</time>
      </trkpt>
      <trkpt lat="48.7052" lon="1.75922">
        <ele>181.19999694824</ele>
        <time>2015-01-18T11:51:42.000Z</time>
      </trkpt>
      <trkpt lat="48.70523" lon="1.75917">
        <ele>181.19999694824</ele>
        <time>2015-01-18T11:51:45.000Z</time>
      </trkpt>
      <trkpt lat="48.70526" lon="1.7591">
        <ele>181.39999389648</ele>
        <time>2015-01-18T11:51:49.000Z</time>
      </trkpt>
      <trkpt lat="48.70533" lon="1.75899">
        <ele>181.19999694824</ele>
        <time>2015-01-18T11:51:57.000Z</time>
      </trkpt>
      <trkpt lat="48.70538" lon="1.75889">
        <ele>181.19999694824</ele>
        <time>2015-01-18T11:52:03.000Z</time>
      </trkpt>
      <trkpt lat="48.70538" lon="1.75887">
        <ele>181.19999694824</ele>
        <time>2015-01-18T11:52:04.000Z</time>
      </trkpt>
      <trkpt lat="48.70538" lon="1.75885">
        <ele>181.19999694824</ele>
        <time>2015-01-18T11:52:06.000Z</time>
      </trkpt>
      <trkpt lat="48.70539" lon="1.75875">
        <ele>181.39999389648</ele>
        <time>2015-01-18T11:52:12.000Z</time>
      </trkpt>
      <trkpt lat="48.70542" lon="1.75859">
        <ele>181.60000610352</ele>
        <time>2015-01-18T11:52:20.000Z</time>
      </trkpt>
      <trkpt lat="48.70547" lon="1.75851">
        <ele>181.39999389648</ele>
        <time>2015-01-18T11:52:26.000Z</time>
      </trkpt>
      <trkpt lat="48.70554" lon="1.75841">
        <ele>180.60000610352</ele>
        <time>2015-01-18T11:52:33.000Z</time>
      </trkpt>
      <trkpt lat="48.70558" lon="1.75832">
        <ele>180</ele>
        <time>2015-01-18T11:52:39.000Z</time>
      </trkpt>
      <trkpt lat="48.70559" lon="1.75827">
        <ele>179.80000305176</ele>
        <time>2015-01-18T11:52:45.000Z</time>
      </trkpt>
      <trkpt lat="48.70559" lon="1.75825">
        <ele>179.80000305176</ele>
        <time>2015-01-18T11:52:49.000Z</time>
      </trkpt>
      <trkpt lat="48.70559" lon="1.75824">
        <ele>179.80000305176</ele>
        <time>2015-01-18T11:52:50.000Z</time>
      </trkpt>
      <trkpt lat="48.70577" lon="1.75799">
        <ele>178.19999694824</ele>
        <time>2015-01-18T11:53:36.000Z</time>
      </trkpt>
      <trkpt lat="48.70582" lon="1.75791">
        <ele>178</ele>
        <time>2015-01-18T11:53:42.000Z</time>
      </trkpt>
      <trkpt lat="48.70588" lon="1.75783">
        <ele>178</ele>
        <time>2015-01-18T11:53:50.000Z</time>
      </trkpt>
      <trkpt lat="48.70591" lon="1.75773">
        <ele>178.19999694824</ele>
        <time>2015-01-18T11:53:57.000Z</time>
      </trkpt>
      <trkpt lat="48.70594" lon="1.75772">
        <ele>178</ele>
        <time>2015-01-18T11:53:59.000Z</time>
      </trkpt>
      <trkpt lat="48.70598" lon="1.75764">
        <ele>178.19999694824</ele>
        <time>2015-01-18T11:54:05.000Z</time>
      </trkpt>
      <trkpt lat="48.70602" lon="1.75754">
        <ele>178.39999389648</ele>
        <time>2015-01-18T11:54:12.000Z</time>
      </trkpt>
      <trkpt lat="48.70603" lon="1.75752">
        <ele>178.39999389648</ele>
        <time>2015-01-18T11:54:13.000Z</time>
      </trkpt>
      <trkpt lat="48.70605" lon="1.75749">
        <ele>178.39999389648</ele>
        <time>2015-01-18T11:54:16.000Z</time>
      </trkpt>
      <trkpt lat="48.70611" lon="1.75738">
        <ele>178.60000610352</ele>
        <time>2015-01-18T11:54:25.000Z</time>
      </trkpt>
      <trkpt lat="48.70612" lon="1.75736">
        <ele>178.60000610352</ele>
        <time>2015-01-18T11:54:26.000Z</time>
      </trkpt>
      <trkpt lat="48.7062" lon="1.75723">
        <ele>179</ele>
        <time>2015-01-18T11:54:36.000Z</time>
      </trkpt>
      <trkpt lat="48.70624" lon="1.75712">
        <ele>179.60000610352</ele>
        <time>2015-01-18T11:54:44.000Z</time>
      </trkpt>
      <trkpt lat="48.70625" lon="1.7571">
        <ele>179.80000305176</ele>
        <time>2015-01-18T11:54:45.000Z</time>
      </trkpt>
      <trkpt lat="48.70629" lon="1.75699">
        <ele>180.19999694824</ele>
        <time>2015-01-18T11:54:53.000Z</time>
      </trkpt>
      <trkpt lat="48.70631" lon="1.75685">
        <ele>181.19999694824</ele>
        <time>2015-01-18T11:55:01.000Z</time>
      </trkpt>
      <trkpt lat="48.70631" lon="1.75674">
        <ele>181.39999389648</ele>
        <time>2015-01-18T11:55:07.000Z</time>
      </trkpt>
      <trkpt lat="48.70631" lon="1.75669">
        <ele>181.60000610352</ele>
        <time>2015-01-18T11:55:14.000Z</time>
      </trkpt>
      <trkpt lat="48.70631" lon="1.75667">
        <ele>181.60000610352</ele>
        <time>2015-01-18T11:55:18.000Z</time>
      </trkpt>
      <trkpt lat="48.70629" lon="1.75655">
        <ele>182</ele>
        <time>2015-01-18T11:55:27.000Z</time>
      </trkpt>
      <trkpt lat="48.70634" lon="1.75636">
        <ele>180.80000305176</ele>
        <time>2015-01-18T11:55:34.000Z</time>
      </trkpt>
      <trkpt lat="48.7064" lon="1.75624">
        <ele>179.80000305176</ele>
        <time>2015-01-18T11:55:40.000Z</time>
      </trkpt>
      <trkpt lat="48.70646" lon="1.75609">
        <ele>179</ele>
        <time>2015-01-18T11:55:48.000Z</time>
      </trkpt>
      <trkpt lat="48.70654" lon="1.75594">
        <ele>178.19999694824</ele>
        <time>2015-01-18T11:55:58.000Z</time>
      </trkpt>
      <trkpt lat="48.70661" lon="1.7558">
        <ele>177.39999389648</ele>
        <time>2015-01-18T11:56:08.000Z</time>
      </trkpt>
      <trkpt lat="48.70668" lon="1.75568">
        <ele>176.39999389648</ele>
        <time>2015-01-18T11:56:16.000Z</time>
      </trkpt>
      <trkpt lat="48.70671" lon="1.75564">
        <ele>175.80000305176</ele>
        <time>2015-01-18T11:56:19.000Z</time>
      </trkpt>
      <trkpt lat="48.70674" lon="1.75557">
        <ele>174.80000305176</ele>
        <time>2015-01-18T11:56:23.000Z</time>
      </trkpt>
      <trkpt lat="48.7068" lon="1.75534">
        <ele>174.19999694824</ele>
        <time>2015-01-18T11:56:35.000Z</time>
      </trkpt>
      <trkpt lat="48.70685" lon="1.75523">
        <ele>173.80000305176</ele>
        <time>2015-01-18T11:56:42.000Z</time>
      </trkpt>
      <trkpt lat="48.70691" lon="1.75511">
        <ele>173.39999389648</ele>
        <time>2015-01-18T11:56:51.000Z</time>
      </trkpt>
      <trkpt lat="48.70692" lon="1.75509">
        <ele>173.19999694824</ele>
        <time>2015-01-18T11:56:52.000Z</time>
      </trkpt>
      <trkpt lat="48.70695" lon="1.75496">
        <ele>172.80000305176</ele>
        <time>2015-01-18T11:57:00.000Z</time>
      </trkpt>
      <trkpt lat="48.70697" lon="1.75485">
        <ele>172.60000610352</ele>
        <time>2015-01-18T11:57:07.000Z</time>
      </trkpt>
      <trkpt lat="48.70697" lon="1.7548">
        <ele>172.60000610352</ele>
        <time>2015-01-18T11:57:11.000Z</time>
      </trkpt>
      <trkpt lat="48.70697" lon="1.7548">
        <ele>172.60000610352</ele>
        <time>2015-01-18T11:57:11.000Z</time>
      </trkpt>
      <trkpt lat="48.70697" lon="1.7548">
        <ele>172.60000610352</ele>
        <time>2015-01-18T11:57:13.000Z</time>
      </trkpt>
    </trkseg>
  </trk>
</gpx>